<?xml version="1.0" encoding="UTF-8" standalone="no" ?>
<gpx xmlns="http://www.topografix.com/GPX/1/1" xmlns:xsi="http://www.w3.org/2001/XMLSchema-instance" xsi:schemaLocation="http://www.topografix.com/GPX/1/1 http://www.topografix.com/GPX/1/1/gpx.xsd" version="1.1" creator="VisuGPX - https://www.visugpx.com">
  <metadata>
    <name>Val-de-Ruz par les Crêtes</name>
  </metadata>
  <wpt lat="47.01398" lon="6.91664">
    <ele>835.4</ele>
    <name><![CDATA[Tourner ÃÂÃÂ  gauche]]></name>
    <type><![CDATA[danger]]></type>
  </wpt>
  <trk>
    <name><![CDATA[Val-de-Ruz par les Crêtes_1]]></name>
    <trkseg>
      <trkpt lat="47.07285" lon="6.87442">
        <ele>1261.5</ele>
        <time>2020-08-08T07:30:00.000Z</time>
      </trkpt>
      <trkpt lat="47.07288" lon="6.87404">
        <ele>1266</ele>
        <time>2020-08-08T07:30:20.002Z</time>
      </trkpt>
      <trkpt lat="47.07308" lon="6.8737">
        <ele>1268.1</ele>
        <time>2020-08-08T07:30:32.132Z</time>
      </trkpt>
      <trkpt lat="47.07256" lon="6.87059">
        <ele>1281.53</ele>
        <time>2020-08-08T07:31:54.269Z</time>
      </trkpt>
      <trkpt lat="47.07256" lon="6.87032">
        <ele>1282.48</ele>
        <time>2020-08-08T07:32:00.739Z</time>
      </trkpt>
      <trkpt lat="47.07257" lon="6.87024">
        <ele>1282.78</ele>
        <time>2020-08-08T07:32:02.721Z</time>
      </trkpt>
      <trkpt lat="47.07266" lon="6.86993">
        <ele>1283.07</ele>
        <time>2020-08-08T07:32:07.887Z</time>
      </trkpt>
      <trkpt lat="47.07277" lon="6.86973">
        <ele>1282.83</ele>
        <time>2020-08-08T07:32:10.404Z</time>
      </trkpt>
      <trkpt lat="47.07285" lon="6.86964">
        <ele>1282.42</ele>
        <time>2020-08-08T07:32:11.484Z</time>
      </trkpt>
      <trkpt lat="47.07297" lon="6.86953">
        <ele>1281.54</ele>
        <time>2020-08-08T07:32:12.744Z</time>
      </trkpt>
      <trkpt lat="47.07304" lon="6.86949">
        <ele>1281.1</ele>
        <time>2020-08-08T07:32:13.432Z</time>
      </trkpt>
      <trkpt lat="47.07319" lon="6.86944">
        <ele>1279.96</ele>
        <time>2020-08-08T07:32:14.877Z</time>
      </trkpt>
      <trkpt lat="47.07326" lon="6.86943">
        <ele>1279.44</ele>
        <time>2020-08-08T07:32:15.538Z</time>
      </trkpt>
      <trkpt lat="47.0734" lon="6.86926">
        <ele>1278.92</ele>
        <time>2020-08-08T07:32:17.734Z</time>
      </trkpt>
      <trkpt lat="47.07336" lon="6.86898">
        <ele>1279.45</ele>
        <time>2020-08-08T07:32:22.899Z</time>
      </trkpt>
      <trkpt lat="47.07333" lon="6.8689">
        <ele>1279.61</ele>
        <time>2020-08-08T07:32:24.519Z</time>
      </trkpt>
      <trkpt lat="47.07324" lon="6.86871">
        <ele>1280.05</ele>
        <time>2020-08-08T07:32:28.734Z</time>
      </trkpt>
      <trkpt lat="47.07305" lon="6.8684">
        <ele>1279.82</ele>
        <time>2020-08-08T07:32:33.129Z</time>
      </trkpt>
      <trkpt lat="47.07282" lon="6.86802">
        <ele>1278.97</ele>
        <time>2020-08-08T07:32:37.505Z</time>
      </trkpt>
      <trkpt lat="47.07267" lon="6.86776">
        <ele>1278.58</ele>
        <time>2020-08-08T07:32:40.715Z</time>
      </trkpt>
      <trkpt lat="47.0725" lon="6.86749">
        <ele>1278.05</ele>
        <time>2020-08-08T07:32:44.005Z</time>
      </trkpt>
      <trkpt lat="47.07221" lon="6.86712">
        <ele>1277.18</ele>
        <time>2020-08-08T07:32:48.966Z</time>
      </trkpt>
      <trkpt lat="47.07196" lon="6.86683">
        <ele>1276.44</ele>
        <time>2020-08-08T07:32:53.053Z</time>
      </trkpt>
      <trkpt lat="47.07179" lon="6.86665">
        <ele>1276.1</ele>
        <time>2020-08-08T07:32:55.973Z</time>
      </trkpt>
      <trkpt lat="47.07162" lon="6.8665">
        <ele>1275.69</ele>
        <time>2020-08-08T07:32:58.593Z</time>
      </trkpt>
      <trkpt lat="47.07147" lon="6.8664">
        <ele>1275.47</ele>
        <time>2020-08-08T07:33:00.971Z</time>
      </trkpt>
      <trkpt lat="47.07065" lon="6.86585">
        <ele>1274.53</ele>
        <time>2020-08-08T07:33:14.492Z</time>
      </trkpt>
      <trkpt lat="47.07003" lon="6.8653">
        <ele>1273.92</ele>
        <time>2020-08-08T07:33:25.652Z</time>
      </trkpt>
      <trkpt lat="47.06976" lon="6.86506">
        <ele>1273.69</ele>
        <time>2020-08-08T07:33:30.590Z</time>
      </trkpt>
      <trkpt lat="47.06954" lon="6.86489">
        <ele>1273.43</ele>
        <time>2020-08-08T07:33:34.317Z</time>
      </trkpt>
      <trkpt lat="47.06939" lon="6.86478">
        <ele>1273.39</ele>
        <time>2020-08-08T07:33:37.537Z</time>
      </trkpt>
      <trkpt lat="47.06904" lon="6.86452">
        <ele>1272.78</ele>
        <time>2020-08-08T07:33:43.046Z</time>
      </trkpt>
      <trkpt lat="47.0689" lon="6.86438">
        <ele>1271.91</ele>
        <time>2020-08-08T07:33:44.695Z</time>
      </trkpt>
      <trkpt lat="47.06877" lon="6.86426">
        <ele>1271.45</ele>
        <time>2020-08-08T07:33:46.526Z</time>
      </trkpt>
      <trkpt lat="47.06872" lon="6.8642">
        <ele>1270.98</ele>
        <time>2020-08-08T07:33:47.133Z</time>
      </trkpt>
      <trkpt lat="47.0683" lon="6.86383">
        <ele>1269.59</ele>
        <time>2020-08-08T07:33:53.070Z</time>
      </trkpt>
      <trkpt lat="47.068" lon="6.86363">
        <ele>1270.39</ele>
        <time>2020-08-08T07:34:01.504Z</time>
      </trkpt>
      <trkpt lat="47.06788" lon="6.86355">
        <ele>1270.67</ele>
        <time>2020-08-08T07:34:04.761Z</time>
      </trkpt>
      <trkpt lat="47.06765" lon="6.86342">
        <ele>1271.47</ele>
        <time>2020-08-08T07:34:11.742Z</time>
      </trkpt>
      <trkpt lat="47.06756" lon="6.86338">
        <ele>1271.81</ele>
        <time>2020-08-08T07:34:14.541Z</time>
      </trkpt>
      <trkpt lat="47.06729" lon="6.86328">
        <ele>1273.14</ele>
        <time>2020-08-08T07:34:24.092Z</time>
      </trkpt>
      <trkpt lat="47.0668" lon="6.8631">
        <ele>1276.71</ele>
        <time>2020-08-08T07:34:44.426Z</time>
      </trkpt>
      <trkpt lat="47.06665" lon="6.86304">
        <ele>1278.03</ele>
        <time>2020-08-08T07:34:51.441Z</time>
      </trkpt>
      <trkpt lat="47.0664" lon="6.86289">
        <ele>1280.26</ele>
        <time>2020-08-08T07:35:03.391Z</time>
      </trkpt>
      <trkpt lat="47.06628" lon="6.86282">
        <ele>1281.34</ele>
        <time>2020-08-08T07:35:09.155Z</time>
      </trkpt>
      <trkpt lat="47.06613" lon="6.86266">
        <ele>1282.75</ele>
        <time>2020-08-08T07:35:16.936Z</time>
      </trkpt>
      <trkpt lat="47.06586" lon="6.86232">
        <ele>1285.45</ele>
        <time>2020-08-08T07:35:31.847Z</time>
      </trkpt>
      <trkpt lat="47.06575" lon="6.86219">
        <ele>1286.46</ele>
        <time>2020-08-08T07:35:37.569Z</time>
      </trkpt>
      <trkpt lat="47.06538" lon="6.86178">
        <ele>1290.17</ele>
        <time>2020-08-08T07:35:57.655Z</time>
      </trkpt>
      <trkpt lat="47.06528" lon="6.86169">
        <ele>1291.22</ele>
        <time>2020-08-08T07:36:03.163Z</time>
      </trkpt>
      <trkpt lat="47.06497" lon="6.86142">
        <ele>1294.03</ele>
        <time>2020-08-08T07:36:18.521Z</time>
      </trkpt>
      <trkpt lat="47.06478" lon="6.86124">
        <ele>1295.84</ele>
        <time>2020-08-08T07:36:28.320Z</time>
      </trkpt>
      <trkpt lat="47.06471" lon="6.86114">
        <ele>1296.75</ele>
        <time>2020-08-08T07:36:33.060Z</time>
      </trkpt>
      <trkpt lat="47.06449" lon="6.86084">
        <ele>1299.02</ele>
        <time>2020-08-08T07:36:45.617Z</time>
      </trkpt>
      <trkpt lat="47.06435" lon="6.86062">
        <ele>1300.86</ele>
        <time>2020-08-08T07:36:55.265Z</time>
      </trkpt>
      <trkpt lat="47.06421" lon="6.86044">
        <ele>1302.52</ele>
        <time>2020-08-08T07:37:03.981Z</time>
      </trkpt>
      <trkpt lat="47.06395" lon="6.86023">
        <ele>1304.72</ele>
        <time>2020-08-08T07:37:16.249Z</time>
      </trkpt>
      <trkpt lat="47.06346" lon="6.85987">
        <ele>1307.16</ele>
        <time>2020-08-08T07:37:34.659Z</time>
      </trkpt>
      <trkpt lat="47.06298" lon="6.85956">
        <ele>1308.36</ele>
        <time>2020-08-08T07:37:47.865Z</time>
      </trkpt>
      <trkpt lat="47.06276" lon="6.85943">
        <ele>1308.49</ele>
        <time>2020-08-08T07:37:52.834Z</time>
      </trkpt>
      <trkpt lat="47.06254" lon="6.85929">
        <ele>1307.67</ele>
        <time>2020-08-08T07:37:55.571Z</time>
      </trkpt>
      <trkpt lat="47.06249" lon="6.85924">
        <ele>1307.4</ele>
        <time>2020-08-08T07:37:56.196Z</time>
      </trkpt>
      <trkpt lat="47.06234" lon="6.85921">
        <ele>1306.81</ele>
        <time>2020-08-08T07:37:57.845Z</time>
      </trkpt>
      <trkpt lat="47.06212" lon="6.85921">
        <ele>1305.91</ele>
        <time>2020-08-08T07:38:00.197Z</time>
      </trkpt>
      <trkpt lat="47.06204" lon="6.85919">
        <ele>1305.75</ele>
        <time>2020-08-08T07:38:01.281Z</time>
      </trkpt>
      <trkpt lat="47.06185" lon="6.85912">
        <ele>1305.15</ele>
        <time>2020-08-08T07:38:03.600Z</time>
      </trkpt>
      <trkpt lat="47.06168" lon="6.85904">
        <ele>1304.63</ele>
        <time>2020-08-08T07:38:05.747Z</time>
      </trkpt>
      <trkpt lat="47.06138" lon="6.85885">
        <ele>1303.53</ele>
        <time>2020-08-08T07:38:09.496Z</time>
      </trkpt>
      <trkpt lat="47.06085" lon="6.85837">
        <ele>1302.3</ele>
        <time>2020-08-08T07:38:17.811Z</time>
      </trkpt>
      <trkpt lat="47.06073" lon="6.85825">
        <ele>1302.54</ele>
        <time>2020-08-08T07:38:21.217Z</time>
      </trkpt>
      <trkpt lat="47.06063" lon="6.85812">
        <ele>1302.84</ele>
        <time>2020-08-08T07:38:24.564Z</time>
      </trkpt>
      <trkpt lat="47.06057" lon="6.858">
        <ele>1302.98</ele>
        <time>2020-08-08T07:38:26.875Z</time>
      </trkpt>
      <trkpt lat="47.06042" lon="6.85761">
        <ele>1303.21</ele>
        <time>2020-08-08T07:38:33.398Z</time>
      </trkpt>
      <trkpt lat="47.06034" lon="6.85743">
        <ele>1303.42</ele>
        <time>2020-08-08T07:38:36.753Z</time>
      </trkpt>
      <trkpt lat="47.06014" lon="6.85702">
        <ele>1303.8</ele>
        <time>2020-08-08T07:38:44.361Z</time>
      </trkpt>
      <trkpt lat="47.05996" lon="6.85672">
        <ele>1304.23</ele>
        <time>2020-08-08T07:38:50.698Z</time>
      </trkpt>
      <trkpt lat="47.05981" lon="6.85651">
        <ele>1304.38</ele>
        <time>2020-08-08T07:38:55.117Z</time>
      </trkpt>
      <trkpt lat="47.05966" lon="6.85633">
        <ele>1304.66</ele>
        <time>2020-08-08T07:38:59.562Z</time>
      </trkpt>
      <trkpt lat="47.05953" lon="6.85622">
        <ele>1304.9</ele>
        <time>2020-08-08T07:39:03.061Z</time>
      </trkpt>
      <trkpt lat="47.05919" lon="6.85592">
        <ele>1305.09</ele>
        <time>2020-08-08T07:39:11.319Z</time>
      </trkpt>
      <trkpt lat="47.05896" lon="6.85579">
        <ele>1305.08</ele>
        <time>2020-08-08T07:39:16.194Z</time>
      </trkpt>
      <trkpt lat="47.05882" lon="6.85577">
        <ele>1305.03</ele>
        <time>2020-08-08T07:39:18.850Z</time>
      </trkpt>
      <trkpt lat="47.05816" lon="6.85566">
        <ele>1305.95</ele>
        <time>2020-08-08T07:39:33.992Z</time>
      </trkpt>
      <trkpt lat="47.05802" lon="6.85566">
        <ele>1306.5</ele>
        <time>2020-08-08T07:39:38.345Z</time>
      </trkpt>
      <trkpt lat="47.05735" lon="6.8558">
        <ele>1310.04</ele>
        <time>2020-08-08T07:40:02.260Z</time>
      </trkpt>
      <trkpt lat="47.0568" lon="6.85594">
        <ele>1315.2</ele>
        <time>2020-08-08T07:40:29.170Z</time>
      </trkpt>
      <trkpt lat="47.05671" lon="6.85595">
        <ele>1316.14</ele>
        <time>2020-08-08T07:40:34.038Z</time>
      </trkpt>
      <trkpt lat="47.05623" lon="6.85595">
        <ele>1321.76</ele>
        <time>2020-08-08T07:41:03.845Z</time>
      </trkpt>
      <trkpt lat="47.05596" lon="6.85594">
        <ele>1324.95</ele>
        <time>2020-08-08T07:41:20.821Z</time>
      </trkpt>
      <trkpt lat="47.05572" lon="6.85597">
        <ele>1327.64</ele>
        <time>2020-08-08T07:41:34.889Z</time>
      </trkpt>
      <trkpt lat="47.05557" lon="6.85602">
        <ele>1329.05</ele>
        <time>2020-08-08T07:41:42.253Z</time>
      </trkpt>
      <trkpt lat="47.05553" lon="6.85603">
        <ele>1329.22</ele>
        <time>2020-08-08T07:41:43.564Z</time>
      </trkpt>
      <trkpt lat="47.05546" lon="6.85615">
        <ele>1329.32</ele>
        <time>2020-08-08T07:41:45.905Z</time>
      </trkpt>
      <trkpt lat="47.05541" lon="6.8563">
        <ele>1329.14</ele>
        <time>2020-08-08T07:41:47.498Z</time>
      </trkpt>
      <trkpt lat="47.05536" lon="6.85653">
        <ele>1328.31</ele>
        <time>2020-08-08T07:41:49.111Z</time>
      </trkpt>
      <trkpt lat="47.05536" lon="6.8566">
        <ele>1327.7</ele>
        <time>2020-08-08T07:41:49.559Z</time>
      </trkpt>
      <trkpt lat="47.05539" lon="6.85672">
        <ele>1326.29</ele>
        <time>2020-08-08T07:41:50.377Z</time>
      </trkpt>
      <trkpt lat="47.05538" lon="6.85684">
        <ele>1324.82</ele>
        <time>2020-08-08T07:41:51.151Z</time>
      </trkpt>
      <trkpt lat="47.05536" lon="6.85689">
        <ele>1324.27</ele>
        <time>2020-08-08T07:41:51.522Z</time>
      </trkpt>
      <trkpt lat="47.05523" lon="6.85706">
        <ele>1321.09</ele>
        <time>2020-08-08T07:41:53.157Z</time>
      </trkpt>
      <trkpt lat="47.05518" lon="6.85711">
        <ele>1320.23</ele>
        <time>2020-08-08T07:41:53.725Z</time>
      </trkpt>
      <trkpt lat="47.055" lon="6.85733">
        <ele>1317.46</ele>
        <time>2020-08-08T07:41:55.925Z</time>
      </trkpt>
      <trkpt lat="47.05495" lon="6.85738">
        <ele>1317.02</ele>
        <time>2020-08-08T07:41:56.494Z</time>
      </trkpt>
      <trkpt lat="47.05494" lon="6.8574">
        <ele>1316.59</ele>
        <time>2020-08-08T07:41:56.652Z</time>
      </trkpt>
      <trkpt lat="47.05476" lon="6.85756">
        <ele>1312.89</ele>
        <time>2020-08-08T07:41:58.629Z</time>
      </trkpt>
      <trkpt lat="47.05454" lon="6.8577">
        <ele>1309.02</ele>
        <time>2020-08-08T07:42:00.881Z</time>
      </trkpt>
      <trkpt lat="47.05435" lon="6.85779">
        <ele>1306.33</ele>
        <time>2020-08-08T07:42:02.756Z</time>
      </trkpt>
      <trkpt lat="47.05423" lon="6.85784">
        <ele>1304.09</ele>
        <time>2020-08-08T07:42:03.928Z</time>
      </trkpt>
      <trkpt lat="47.05419" lon="6.85786">
        <ele>1303.23</ele>
        <time>2020-08-08T07:42:04.325Z</time>
      </trkpt>
      <trkpt lat="47.05412" lon="6.85787">
        <ele>1302.01</ele>
        <time>2020-08-08T07:42:04.985Z</time>
      </trkpt>
      <trkpt lat="47.05406" lon="6.85784">
        <ele>1301.14</ele>
        <time>2020-08-08T07:42:05.581Z</time>
      </trkpt>
      <trkpt lat="47.05365" lon="6.85758">
        <ele>1296.07</ele>
        <time>2020-08-08T07:42:09.776Z</time>
      </trkpt>
      <trkpt lat="47.05346" lon="6.85745">
        <ele>1293.4</ele>
        <time>2020-08-08T07:42:11.745Z</time>
      </trkpt>
      <trkpt lat="47.05331" lon="6.85738">
        <ele>1291.73</ele>
        <time>2020-08-08T07:42:13.223Z</time>
      </trkpt>
      <trkpt lat="47.05317" lon="6.85741">
        <ele>1291.17</ele>
        <time>2020-08-08T07:42:14.755Z</time>
      </trkpt>
      <trkpt lat="47.0529" lon="6.85754">
        <ele>1290.5</ele>
        <time>2020-08-08T07:42:18.386Z</time>
      </trkpt>
      <trkpt lat="47.05269" lon="6.85763">
        <ele>1289.49</ele>
        <time>2020-08-08T07:42:20.614Z</time>
      </trkpt>
      <trkpt lat="47.05263" lon="6.85764">
        <ele>1289.06</ele>
        <time>2020-08-08T07:42:21.182Z</time>
      </trkpt>
      <trkpt lat="47.05214" lon="6.8576">
        <ele>1285.84</ele>
        <time>2020-08-08T07:42:25.438Z</time>
      </trkpt>
      <trkpt lat="47.05205" lon="6.85756">
        <ele>1285</ele>
        <time>2020-08-08T07:42:26.322Z</time>
      </trkpt>
      <trkpt lat="47.05201" lon="6.85752">
        <ele>1284.8</ele>
        <time>2020-08-08T07:42:26.837Z</time>
      </trkpt>
      <trkpt lat="47.05193" lon="6.85742">
        <ele>1284.41</ele>
        <time>2020-08-08T07:42:28.002Z</time>
      </trkpt>
      <trkpt lat="47.05191" lon="6.85739">
        <ele>1284.21</ele>
        <time>2020-08-08T07:42:28.271Z</time>
      </trkpt>
      <trkpt lat="47.05187" lon="6.85727">
        <ele>1283.43</ele>
        <time>2020-08-08T07:42:29.126Z</time>
      </trkpt>
      <trkpt lat="47.05163" lon="6.8562">
        <ele>1277.72</ele>
        <time>2020-08-08T07:42:36.335Z</time>
      </trkpt>
      <trkpt lat="47.05158" lon="6.85602">
        <ele>1276.59</ele>
        <time>2020-08-08T07:42:37.579Z</time>
      </trkpt>
      <trkpt lat="47.05147" lon="6.85572">
        <ele>1275.17</ele>
        <time>2020-08-08T07:42:39.663Z</time>
      </trkpt>
      <trkpt lat="47.05142" lon="6.85563">
        <ele>1274.14</ele>
        <time>2020-08-08T07:42:40.406Z</time>
      </trkpt>
      <trkpt lat="47.05131" lon="6.85552">
        <ele>1273.35</ele>
        <time>2020-08-08T07:42:41.618Z</time>
      </trkpt>
      <trkpt lat="47.05095" lon="6.85542">
        <ele>1271.11</ele>
        <time>2020-08-08T07:42:44.909Z</time>
      </trkpt>
      <trkpt lat="47.05043" lon="6.85531">
        <ele>1267.53</ele>
        <time>2020-08-08T07:42:49.843Z</time>
      </trkpt>
      <trkpt lat="47.05018" lon="6.85523">
        <ele>1265.78</ele>
        <time>2020-08-08T07:42:52.247Z</time>
      </trkpt>
      <trkpt lat="47.05001" lon="6.85513">
        <ele>1264.26</ele>
        <time>2020-08-08T07:42:53.967Z</time>
      </trkpt>
      <trkpt lat="47.04958" lon="6.85479">
        <ele>1261.83</ele>
        <time>2020-08-08T07:42:58.788Z</time>
      </trkpt>
      <trkpt lat="47.04956" lon="6.85481">
        <ele>1261.43</ele>
        <time>2020-08-08T07:42:59.015Z</time>
      </trkpt>
      <trkpt lat="47.04947" lon="6.8548">
        <ele>1260.56</ele>
        <time>2020-08-08T07:42:59.863Z</time>
      </trkpt>
      <trkpt lat="47.04938" lon="6.85473">
        <ele>1259</ele>
        <time>2020-08-08T07:43:00.819Z</time>
      </trkpt>
      <trkpt lat="47.04933" lon="6.8547">
        <ele>1258.24</ele>
        <time>2020-08-08T07:43:01.327Z</time>
      </trkpt>
      <trkpt lat="47.04913" lon="6.85467">
        <ele>1255.99</ele>
        <time>2020-08-08T07:43:03.215Z</time>
      </trkpt>
      <trkpt lat="47.04899" lon="6.85466">
        <ele>1254.35</ele>
        <time>2020-08-08T07:43:04.532Z</time>
      </trkpt>
      <trkpt lat="47.04882" lon="6.85465">
        <ele>1252.32</ele>
        <time>2020-08-08T07:43:06.130Z</time>
      </trkpt>
      <trkpt lat="47.04839" lon="6.85463">
        <ele>1246.27</ele>
        <time>2020-08-08T07:43:10.170Z</time>
      </trkpt>
      <trkpt lat="47.04708" lon="6.85454">
        <ele>1229.58</ele>
        <time>2020-08-08T07:43:22.488Z</time>
      </trkpt>
      <trkpt lat="47.04677" lon="6.85451">
        <ele>1225.82</ele>
        <time>2020-08-08T07:43:25.406Z</time>
      </trkpt>
      <trkpt lat="47.04661" lon="6.8545">
        <ele>1223.54</ele>
        <time>2020-08-08T07:43:26.910Z</time>
      </trkpt>
      <trkpt lat="47.04615" lon="6.85457">
        <ele>1216</ele>
        <time>2020-08-08T07:43:31.254Z</time>
      </trkpt>
      <trkpt lat="47.04586" lon="6.85464">
        <ele>1212.39</ele>
        <time>2020-08-08T07:43:34.014Z</time>
      </trkpt>
      <trkpt lat="47.04577" lon="6.8547">
        <ele>1211.14</ele>
        <time>2020-08-08T07:43:34.943Z</time>
      </trkpt>
      <trkpt lat="47.04558" lon="6.85485">
        <ele>1208.59</ele>
        <time>2020-08-08T07:43:36.969Z</time>
      </trkpt>
      <trkpt lat="47.04547" lon="6.85491">
        <ele>1207.32</ele>
        <time>2020-08-08T07:43:38.071Z</time>
      </trkpt>
      <trkpt lat="47.04514" lon="6.85498">
        <ele>1202.32</ele>
        <time>2020-08-08T07:43:41.203Z</time>
      </trkpt>
      <trkpt lat="47.04492" lon="6.85509">
        <ele>1197.83</ele>
        <time>2020-08-08T07:43:43.386Z</time>
      </trkpt>
      <trkpt lat="47.04483" lon="6.85517">
        <ele>1196.23</ele>
        <time>2020-08-08T07:43:44.374Z</time>
      </trkpt>
      <trkpt lat="47.04468" lon="6.85528">
        <ele>1194.57</ele>
        <time>2020-08-08T07:43:45.949Z</time>
      </trkpt>
      <trkpt lat="47.04463" lon="6.85529">
        <ele>1194.28</ele>
        <time>2020-08-08T07:43:46.416Z</time>
      </trkpt>
      <trkpt lat="47.04442" lon="6.85528">
        <ele>1191.81</ele>
        <time>2020-08-08T07:43:48.390Z</time>
      </trkpt>
      <trkpt lat="47.04436" lon="6.85528">
        <ele>1190.67</ele>
        <time>2020-08-08T07:43:48.953Z</time>
      </trkpt>
      <trkpt lat="47.04416" lon="6.85535">
        <ele>1188.83</ele>
        <time>2020-08-08T07:43:50.884Z</time>
      </trkpt>
      <trkpt lat="47.04396" lon="6.85542">
        <ele>1186.29</ele>
        <time>2020-08-08T07:43:52.816Z</time>
      </trkpt>
      <trkpt lat="47.04392" lon="6.85547">
        <ele>1185.42</ele>
        <time>2020-08-08T07:43:53.309Z</time>
      </trkpt>
      <trkpt lat="47.04389" lon="6.85558">
        <ele>1184.3</ele>
        <time>2020-08-08T07:43:54.067Z</time>
      </trkpt>
      <trkpt lat="47.04393" lon="6.85562">
        <ele>1183.6</ele>
        <time>2020-08-08T07:43:54.522Z</time>
      </trkpt>
      <trkpt lat="47.04427" lon="6.85583">
        <ele>1178.46</ele>
        <time>2020-08-08T07:43:57.987Z</time>
      </trkpt>
      <trkpt lat="47.04456" lon="6.85593">
        <ele>1174.86</ele>
        <time>2020-08-08T07:44:00.785Z</time>
      </trkpt>
      <trkpt lat="47.04463" lon="6.85597">
        <ele>1173.76</ele>
        <time>2020-08-08T07:44:01.490Z</time>
      </trkpt>
      <trkpt lat="47.04479" lon="6.85618">
        <ele>1171.11</ele>
        <time>2020-08-08T07:44:03.507Z</time>
      </trkpt>
      <trkpt lat="47.04498" lon="6.85637">
        <ele>1167.91</ele>
        <time>2020-08-08T07:44:05.666Z</time>
      </trkpt>
      <trkpt lat="47.0455" lon="6.85671">
        <ele>1159.99</ele>
        <time>2020-08-08T07:44:11.013Z</time>
      </trkpt>
      <trkpt lat="47.04565" lon="6.85681">
        <ele>1157.66</ele>
        <time>2020-08-08T07:44:12.560Z</time>
      </trkpt>
      <trkpt lat="47.04565" lon="6.8568">
        <ele>1157.66</ele>
        <time>2020-08-08T07:44:12.696Z</time>
      </trkpt>
      <trkpt lat="47.04577" lon="6.85697">
        <ele>1155.74</ele>
        <time>2020-08-08T07:44:14.263Z</time>
      </trkpt>
      <trkpt lat="47.04582" lon="6.85703">
        <ele>1154.63</ele>
        <time>2020-08-08T07:44:14.869Z</time>
      </trkpt>
      <trkpt lat="47.046" lon="6.85721">
        <ele>1152.14</ele>
        <time>2020-08-08T07:44:16.915Z</time>
      </trkpt>
      <trkpt lat="47.04601" lon="6.85728">
        <ele>1151.61</ele>
        <time>2020-08-08T07:44:17.373Z</time>
      </trkpt>
      <trkpt lat="47.04594" lon="6.85766">
        <ele>1148.22</ele>
        <time>2020-08-08T07:44:19.892Z</time>
      </trkpt>
      <trkpt lat="47.04572" lon="6.85869">
        <ele>1139.15</ele>
        <time>2020-08-08T07:44:26.801Z</time>
      </trkpt>
      <trkpt lat="47.04569" lon="6.85878">
        <ele>1138.27</ele>
        <time>2020-08-08T07:44:27.442Z</time>
      </trkpt>
      <trkpt lat="47.04536" lon="6.85904">
        <ele>1134.43</ele>
        <time>2020-08-08T07:44:30.960Z</time>
      </trkpt>
      <trkpt lat="47.04525" lon="6.85913">
        <ele>1133.05</ele>
        <time>2020-08-08T07:44:32.143Z</time>
      </trkpt>
      <trkpt lat="47.04515" lon="6.85925">
        <ele>1131.72</ele>
        <time>2020-08-08T07:44:33.356Z</time>
      </trkpt>
      <trkpt lat="47.04512" lon="6.85929">
        <ele>1130.51</ele>
        <time>2020-08-08T07:44:33.737Z</time>
      </trkpt>
      <trkpt lat="47.045" lon="6.85946">
        <ele>1129.3</ele>
        <time>2020-08-08T07:44:35.303Z</time>
      </trkpt>
      <trkpt lat="47.04485" lon="6.85974">
        <ele>1126.01</ele>
        <time>2020-08-08T07:44:37.583Z</time>
      </trkpt>
      <trkpt lat="47.04483" lon="6.85984">
        <ele>1125.16</ele>
        <time>2020-08-08T07:44:38.250Z</time>
      </trkpt>
      <trkpt lat="47.04482" lon="6.86005">
        <ele>1123.5</ele>
        <time>2020-08-08T07:44:39.597Z</time>
      </trkpt>
      <trkpt lat="47.04486" lon="6.86022">
        <ele>1121.99</ele>
        <time>2020-08-08T07:44:40.748Z</time>
      </trkpt>
      <trkpt lat="47.04492" lon="6.86034">
        <ele>1121.31</ele>
        <time>2020-08-08T07:44:41.701Z</time>
      </trkpt>
      <trkpt lat="47.04525" lon="6.86089">
        <ele>1113.92</ele>
        <time>2020-08-08T07:44:46.391Z</time>
      </trkpt>
      <trkpt lat="47.04531" lon="6.86102">
        <ele>1112.32</ele>
        <time>2020-08-08T07:44:47.396Z</time>
      </trkpt>
      <trkpt lat="47.04538" lon="6.86126">
        <ele>1110.26</ele>
        <time>2020-08-08T07:44:49.067Z</time>
      </trkpt>
      <trkpt lat="47.04541" lon="6.86165">
        <ele>1107.01</ele>
        <time>2020-08-08T07:44:51.579Z</time>
      </trkpt>
      <trkpt lat="47.04545" lon="6.86178">
        <ele>1105.51</ele>
        <time>2020-08-08T07:44:52.492Z</time>
      </trkpt>
      <trkpt lat="47.04558" lon="6.86201">
        <ele>1102.78</ele>
        <time>2020-08-08T07:44:54.404Z</time>
      </trkpt>
      <trkpt lat="47.04576" lon="6.86226">
        <ele>1099.29</ele>
        <time>2020-08-08T07:44:56.732Z</time>
      </trkpt>
      <trkpt lat="47.04592" lon="6.86248">
        <ele>1096.59</ele>
        <time>2020-08-08T07:44:58.791Z</time>
      </trkpt>
      <trkpt lat="47.04599" lon="6.86262">
        <ele>1095.1</ele>
        <time>2020-08-08T07:44:59.903Z</time>
      </trkpt>
      <trkpt lat="47.04603" lon="6.8627">
        <ele>1091.75</ele>
        <time>2020-08-08T07:45:00.538Z</time>
      </trkpt>
      <trkpt lat="47.04592" lon="6.86248">
        <ele>1096.59</ele>
        <time>2020-08-08T07:45:14.813Z</time>
      </trkpt>
      <trkpt lat="47.04625" lon="6.86321">
        <ele>1100.8</ele>
        <time>2020-08-08T07:45:38.817Z</time>
      </trkpt>
      <trkpt lat="47.0471" lon="6.86448">
        <ele>1078.6</ele>
        <time>2020-08-08T07:45:50.210Z</time>
      </trkpt>
      <trkpt lat="47.04758" lon="6.86551">
        <ele>1054.75</ele>
        <time>2020-08-08T07:45:58.196Z</time>
      </trkpt>
      <trkpt lat="47.04774" lon="6.86585">
        <ele>1050.25</ele>
        <time>2020-08-08T07:46:00.841Z</time>
      </trkpt>
      <trkpt lat="47.0479" lon="6.86612">
        <ele>1046.74</ele>
        <time>2020-08-08T07:46:03.131Z</time>
      </trkpt>
      <trkpt lat="47.04797" lon="6.86623">
        <ele>1044.45</ele>
        <time>2020-08-08T07:46:04.094Z</time>
      </trkpt>
      <trkpt lat="47.04821" lon="6.86658">
        <ele>1042.16</ele>
        <time>2020-08-08T07:46:07.272Z</time>
      </trkpt>
      <trkpt lat="47.04844" lon="6.86697">
        <ele>1039.2</ele>
        <time>2020-08-08T07:46:10.573Z</time>
      </trkpt>
      <trkpt lat="47.04864" lon="6.86732">
        <ele>1037.76</ele>
        <time>2020-08-08T07:46:13.741Z</time>
      </trkpt>
      <trkpt lat="47.04898" lon="6.86797">
        <ele>1033.02</ele>
        <time>2020-08-08T07:46:18.985Z</time>
      </trkpt>
      <trkpt lat="47.04904" lon="6.86809">
        <ele>1031.84</ele>
        <time>2020-08-08T07:46:19.938Z</time>
      </trkpt>
      <trkpt lat="47.04919" lon="6.86845">
        <ele>1028.78</ele>
        <time>2020-08-08T07:46:22.638Z</time>
      </trkpt>
      <trkpt lat="47.04939" lon="6.86915">
        <ele>1022.81</ele>
        <time>2020-08-08T07:46:27.496Z</time>
      </trkpt>
      <trkpt lat="47.04945" lon="6.86935">
        <ele>1020.76</ele>
        <time>2020-08-08T07:46:28.894Z</time>
      </trkpt>
      <trkpt lat="47.04954" lon="6.86974">
        <ele>1017.56</ele>
        <time>2020-08-08T07:46:31.529Z</time>
      </trkpt>
      <trkpt lat="47.04955" lon="6.86977">
        <ele>1017.29</ele>
        <time>2020-08-08T07:46:31.743Z</time>
      </trkpt>
      <trkpt lat="47.04959" lon="6.86992">
        <ele>1016.1</ele>
        <time>2020-08-08T07:46:32.774Z</time>
      </trkpt>
      <trkpt lat="47.04963" lon="6.87001">
        <ele>1015.1</ele>
        <time>2020-08-08T07:46:33.462Z</time>
      </trkpt>
      <trkpt lat="47.04966" lon="6.87004">
        <ele>1015.14</ele>
        <time>2020-08-08T07:46:34.265Z</time>
      </trkpt>
      <trkpt lat="47.04968" lon="6.87011">
        <ele>1014.66</ele>
        <time>2020-08-08T07:46:34.751Z</time>
      </trkpt>
      <trkpt lat="47.04955" lon="6.87036">
        <ele>1012.49</ele>
        <time>2020-08-08T07:46:36.764Z</time>
      </trkpt>
      <trkpt lat="47.04945" lon="6.87057">
        <ele>1010.32</ele>
        <time>2020-08-08T07:46:38.403Z</time>
      </trkpt>
      <trkpt lat="47.04943" lon="6.87061">
        <ele>1008.44</ele>
        <time>2020-08-08T07:46:38.721Z</time>
      </trkpt>
      <trkpt lat="47.04927" lon="6.87098">
        <ele>1006.55</ele>
        <time>2020-08-08T07:46:41.358Z</time>
      </trkpt>
      <trkpt lat="47.04872" lon="6.87176">
        <ele>1000.1</ele>
        <time>2020-08-08T07:46:48.541Z</time>
      </trkpt>
      <trkpt lat="47.04834" lon="6.87212">
        <ele>997.1</ele>
        <time>2020-08-08T07:46:52.443Z</time>
      </trkpt>
      <trkpt lat="47.04746" lon="6.87221">
        <ele>986.8</ele>
        <time>2020-08-08T07:47:00.728Z</time>
      </trkpt>
      <trkpt lat="47.04764" lon="6.87264">
        <ele>981.6</ele>
        <time>2020-08-08T07:47:03.958Z</time>
      </trkpt>
      <trkpt lat="47.04873" lon="6.87377">
        <ele>974.8</ele>
        <time>2020-08-08T07:47:16.993Z</time>
      </trkpt>
      <trkpt lat="47.0498" lon="6.87472">
        <ele>968.35</ele>
        <time>2020-08-08T07:47:29.143Z</time>
      </trkpt>
      <trkpt lat="47.04979" lon="6.87476">
        <ele>968.25</ele>
        <time>2020-08-08T07:47:29.474Z</time>
      </trkpt>
      <trkpt lat="47.04976" lon="6.87489">
        <ele>967.26</ele>
        <time>2020-08-08T07:47:30.352Z</time>
      </trkpt>
      <trkpt lat="47.04961" lon="6.87519">
        <ele>963.71</ele>
        <time>2020-08-08T07:47:32.734Z</time>
      </trkpt>
      <trkpt lat="47.04958" lon="6.87524">
        <ele>963.3</ele>
        <time>2020-08-08T07:47:33.160Z</time>
      </trkpt>
      <trkpt lat="47.04957" lon="6.87528">
        <ele>962.89</ele>
        <time>2020-08-08T07:47:33.433Z</time>
      </trkpt>
      <trkpt lat="47.04954" lon="6.87536">
        <ele>961.96</ele>
        <time>2020-08-08T07:47:34.017Z</time>
      </trkpt>
      <trkpt lat="47.04947" lon="6.87575">
        <ele>957.55</ele>
        <time>2020-08-08T07:47:36.598Z</time>
      </trkpt>
      <trkpt lat="47.04955" lon="6.87605">
        <ele>956.47</ele>
        <time>2020-08-08T07:47:38.775Z</time>
      </trkpt>
      <trkpt lat="47.04954" lon="6.87611">
        <ele>956.08</ele>
        <time>2020-08-08T07:47:39.170Z</time>
      </trkpt>
      <trkpt lat="47.04946" lon="6.87626">
        <ele>953.67</ele>
        <time>2020-08-08T07:47:40.389Z</time>
      </trkpt>
      <trkpt lat="47.0494" lon="6.87633">
        <ele>952.63</ele>
        <time>2020-08-08T07:47:41.109Z</time>
      </trkpt>
      <trkpt lat="47.04932" lon="6.87639">
        <ele>951.38</ele>
        <time>2020-08-08T07:47:41.953Z</time>
      </trkpt>
      <trkpt lat="47.04918" lon="6.8764">
        <ele>949.96</ele>
        <time>2020-08-08T07:47:43.270Z</time>
      </trkpt>
      <trkpt lat="47.04908" lon="6.8764">
        <ele>948.9</ele>
        <time>2020-08-08T07:47:44.209Z</time>
      </trkpt>
      <trkpt lat="47.04876" lon="6.87637">
        <ele>946.63</ele>
        <time>2020-08-08T07:47:47.221Z</time>
      </trkpt>
      <trkpt lat="47.04867" lon="6.87636">
        <ele>946.18</ele>
        <time>2020-08-08T07:47:48.111Z</time>
      </trkpt>
      <trkpt lat="47.04834" lon="6.87631">
        <ele>944.2</ele>
        <time>2020-08-08T07:47:51.125Z</time>
      </trkpt>
      <trkpt lat="47.04833" lon="6.87631">
        <ele>944.2</ele>
        <time>2020-08-08T07:47:51.324Z</time>
      </trkpt>
      <trkpt lat="47.04797" lon="6.87626">
        <ele>941.28</ele>
        <time>2020-08-08T07:47:54.720Z</time>
      </trkpt>
      <trkpt lat="47.0473" lon="6.87612">
        <ele>936.18</ele>
        <time>2020-08-08T07:48:01.077Z</time>
      </trkpt>
      <trkpt lat="47.04698" lon="6.87596">
        <ele>933.8</ele>
        <time>2020-08-08T07:48:04.252Z</time>
      </trkpt>
      <trkpt lat="47.04671" lon="6.87579">
        <ele>930.91</ele>
        <time>2020-08-08T07:48:07.011Z</time>
      </trkpt>
      <trkpt lat="47.04667" lon="6.87578">
        <ele>930.43</ele>
        <time>2020-08-08T07:48:07.393Z</time>
      </trkpt>
      <trkpt lat="47.04654" lon="6.8758">
        <ele>928.71</ele>
        <time>2020-08-08T07:48:08.620Z</time>
      </trkpt>
      <trkpt lat="47.04597" lon="6.87605">
        <ele>920.97</ele>
        <time>2020-08-08T07:48:14.208Z</time>
      </trkpt>
      <trkpt lat="47.04576" lon="6.87613">
        <ele>918.38</ele>
        <time>2020-08-08T07:48:16.246Z</time>
      </trkpt>
      <trkpt lat="47.04555" lon="6.87618">
        <ele>916.05</ele>
        <time>2020-08-08T07:48:18.244Z</time>
      </trkpt>
      <trkpt lat="47.04549" lon="6.87619">
        <ele>915.43</ele>
        <time>2020-08-08T07:48:18.811Z</time>
      </trkpt>
      <trkpt lat="47.04527" lon="6.87615">
        <ele>913.09</ele>
        <time>2020-08-08T07:48:20.893Z</time>
      </trkpt>
      <trkpt lat="47.04502" lon="6.8761">
        <ele>909.37</ele>
        <time>2020-08-08T07:48:23.263Z</time>
      </trkpt>
      <trkpt lat="47.04495" lon="6.87611">
        <ele>908.19</ele>
        <time>2020-08-08T07:48:23.924Z</time>
      </trkpt>
      <trkpt lat="47.04479" lon="6.87619">
        <ele>905.44</ele>
        <time>2020-08-08T07:48:25.511Z</time>
      </trkpt>
      <trkpt lat="47.04474" lon="6.87625">
        <ele>904.17</ele>
        <time>2020-08-08T07:48:26.118Z</time>
      </trkpt>
      <trkpt lat="47.04468" lon="6.87631">
        <ele>903.45</ele>
        <time>2020-08-08T07:48:26.800Z</time>
      </trkpt>
      <trkpt lat="47.04456" lon="6.87647">
        <ele>900.31</ele>
        <time>2020-08-08T07:48:28.323Z</time>
      </trkpt>
      <trkpt lat="47.04449" lon="6.87655">
        <ele>898.9</ele>
        <time>2020-08-08T07:48:29.156Z</time>
      </trkpt>
      <trkpt lat="47.04424" lon="6.87681">
        <ele>893.68</ele>
        <time>2020-08-08T07:48:32.034Z</time>
      </trkpt>
      <trkpt lat="47.04418" lon="6.87684">
        <ele>892.8</ele>
        <time>2020-08-08T07:48:32.629Z</time>
      </trkpt>
      <trkpt lat="47.04405" lon="6.87686">
        <ele>890.55</ele>
        <time>2020-08-08T07:48:33.857Z</time>
      </trkpt>
      <trkpt lat="47.04397" lon="6.87683">
        <ele>889.33</ele>
        <time>2020-08-08T07:48:34.633Z</time>
      </trkpt>
      <trkpt lat="47.04374" lon="6.87671">
        <ele>886.02</ele>
        <time>2020-08-08T07:48:36.925Z</time>
      </trkpt>
      <trkpt lat="47.04349" lon="6.87664">
        <ele>882.24</ele>
        <time>2020-08-08T07:48:39.316Z</time>
      </trkpt>
      <trkpt lat="47.04334" lon="6.87663">
        <ele>879.96</ele>
        <time>2020-08-08T07:48:40.726Z</time>
      </trkpt>
      <trkpt lat="47.04321" lon="6.87667">
        <ele>877.65</ele>
        <time>2020-08-08T07:48:41.974Z</time>
      </trkpt>
      <trkpt lat="47.04295" lon="6.87675">
        <ele>873.57</ele>
        <time>2020-08-08T07:48:44.469Z</time>
      </trkpt>
      <trkpt lat="47.04277" lon="6.87685">
        <ele>870.35</ele>
        <time>2020-08-08T07:48:46.277Z</time>
      </trkpt>
      <trkpt lat="47.04249" lon="6.8771">
        <ele>864.14</ele>
        <time>2020-08-08T07:48:49.355Z</time>
      </trkpt>
      <trkpt lat="47.04233" lon="6.87724">
        <ele>860.68</ele>
        <time>2020-08-08T07:48:51.105Z</time>
      </trkpt>
      <trkpt lat="47.0417" lon="6.87775">
        <ele>849.16</ele>
        <time>2020-08-08T07:48:57.863Z</time>
      </trkpt>
      <trkpt lat="47.04152" lon="6.87792">
        <ele>845.84</ele>
        <time>2020-08-08T07:48:59.873Z</time>
      </trkpt>
      <trkpt lat="47.04139" lon="6.87809">
        <ele>843.6</ele>
        <time>2020-08-08T07:49:01.509Z</time>
      </trkpt>
      <trkpt lat="47.04125" lon="6.8784">
        <ele>840.17</ele>
        <time>2020-08-08T07:49:03.889Z</time>
      </trkpt>
      <trkpt lat="47.04109" lon="6.87885">
        <ele>836.85</ele>
        <time>2020-08-08T07:49:07.138Z</time>
      </trkpt>
      <trkpt lat="47.041" lon="6.87911">
        <ele>833.53</ele>
        <time>2020-08-08T07:49:09.005Z</time>
      </trkpt>
      <trkpt lat="47.04094" lon="6.87924">
        <ele>832.17</ele>
        <time>2020-08-08T07:49:10.010Z</time>
      </trkpt>
      <trkpt lat="47.0406" lon="6.87975">
        <ele>827.48</ele>
        <time>2020-08-08T07:49:14.576Z</time>
      </trkpt>
      <trkpt lat="47.04057" lon="6.87979">
        <ele>827.13</ele>
        <time>2020-08-08T07:49:14.957Z</time>
      </trkpt>
      <trkpt lat="47.04036" lon="6.88008">
        <ele>824.57</ele>
        <time>2020-08-08T07:49:17.666Z</time>
      </trkpt>
      <trkpt lat="47.0403" lon="6.88021">
        <ele>823.53</ele>
        <time>2020-08-08T07:49:18.671Z</time>
      </trkpt>
      <trkpt lat="47.04026" lon="6.88036">
        <ele>822.65</ele>
        <time>2020-08-08T07:49:19.702Z</time>
      </trkpt>
      <trkpt lat="47.0402" lon="6.88064">
        <ele>820.68</ele>
        <time>2020-08-08T07:49:21.580Z</time>
      </trkpt>
      <trkpt lat="47.04015" lon="6.88086">
        <ele>819.25</ele>
        <time>2020-08-08T07:49:23.065Z</time>
      </trkpt>
      <trkpt lat="47.04005" lon="6.88117">
        <ele>817.12</ele>
        <time>2020-08-08T07:49:25.260Z</time>
      </trkpt>
      <trkpt lat="47.03986" lon="6.88156">
        <ele>814.54</ele>
        <time>2020-08-08T07:49:28.329Z</time>
      </trkpt>
      <trkpt lat="47.03973" lon="6.88178">
        <ele>812.97</ele>
        <time>2020-08-08T07:49:30.192Z</time>
      </trkpt>
      <trkpt lat="47.03958" lon="6.882">
        <ele>811.28</ele>
        <time>2020-08-08T07:49:32.184Z</time>
      </trkpt>
      <trkpt lat="47.03944" lon="6.88216">
        <ele>809.81</ele>
        <time>2020-08-08T07:49:33.851Z</time>
      </trkpt>
      <trkpt lat="47.03918" lon="6.88245">
        <ele>807.32</ele>
        <time>2020-08-08T07:49:36.919Z</time>
      </trkpt>
      <trkpt lat="47.03863" lon="6.88305">
        <ele>802.37</ele>
        <time>2020-08-08T07:49:43.356Z</time>
      </trkpt>
      <trkpt lat="47.03859" lon="6.88311">
        <ele>801.94</ele>
        <time>2020-08-08T07:49:43.893Z</time>
      </trkpt>
      <trkpt lat="47.03842" lon="6.88337">
        <ele>800.63</ele>
        <time>2020-08-08T07:49:46.243Z</time>
      </trkpt>
      <trkpt lat="47.03829" lon="6.88356">
        <ele>799.42</ele>
        <time>2020-08-08T07:49:47.831Z</time>
      </trkpt>
      <trkpt lat="47.03809" lon="6.8838">
        <ele>797.8</ele>
        <time>2020-08-08T07:49:50.123Z</time>
      </trkpt>
      <trkpt lat="47.03779" lon="6.88416">
        <ele>795.54</ele>
        <time>2020-08-08T07:49:53.683Z</time>
      </trkpt>
      <trkpt lat="47.03773" lon="6.88424">
        <ele>795.19</ele>
        <time>2020-08-08T07:49:54.531Z</time>
      </trkpt>
      <trkpt lat="47.03765" lon="6.88443">
        <ele>794.38</ele>
        <time>2020-08-08T07:49:55.990Z</time>
      </trkpt>
      <trkpt lat="47.03762" lon="6.88453">
        <ele>794.02</ele>
        <time>2020-08-08T07:49:56.734Z</time>
      </trkpt>
      <trkpt lat="47.03723" lon="6.88603">
        <ele>789.5</ele>
        <time>2020-08-08T07:50:08.388Z</time>
      </trkpt>
      <trkpt lat="47.03714" lon="6.88636">
        <ele>788.46</ele>
        <time>2020-08-08T07:50:10.930Z</time>
      </trkpt>
      <trkpt lat="47.03709" lon="6.88651">
        <ele>788.02</ele>
        <time>2020-08-08T07:50:12.173Z</time>
      </trkpt>
      <trkpt lat="47.03698" lon="6.88674">
        <ele>787.32</ele>
        <time>2020-08-08T07:50:14.308Z</time>
      </trkpt>
      <trkpt lat="47.0369" lon="6.88686">
        <ele>786.99</ele>
        <time>2020-08-08T07:50:15.688Z</time>
      </trkpt>
      <trkpt lat="47.03621" lon="6.88786">
        <ele>783.93</ele>
        <time>2020-08-08T07:50:27.059Z</time>
      </trkpt>
      <trkpt lat="47.03609" lon="6.88803">
        <ele>783.45</ele>
        <time>2020-08-08T07:50:29.073Z</time>
      </trkpt>
      <trkpt lat="47.03597" lon="6.88815">
        <ele>783.04</ele>
        <time>2020-08-08T07:50:30.836Z</time>
      </trkpt>
      <trkpt lat="47.03604" lon="6.88829">
        <ele>782.89</ele>
        <time>2020-08-08T07:50:32.560Z</time>
      </trkpt>
      <trkpt lat="47.03609" lon="6.88835">
        <ele>782.69</ele>
        <time>2020-08-08T07:50:33.322Z</time>
      </trkpt>
      <trkpt lat="47.03647" lon="6.88879">
        <ele>781.13</ele>
        <time>2020-08-08T07:50:38.958Z</time>
      </trkpt>
      <trkpt lat="47.03698" lon="6.88939">
        <ele>779.3</ele>
        <time>2020-08-08T07:50:46.915Z</time>
      </trkpt>
      <trkpt lat="47.03703" lon="6.88945">
        <ele>777.47</ele>
        <time>2020-08-08T07:50:47.522Z</time>
      </trkpt>
      <trkpt lat="47.03832" lon="6.89099">
        <ele>770.58</ele>
        <time>2020-08-08T07:51:05.216Z</time>
      </trkpt>
      <trkpt lat="47.03837" lon="6.89105">
        <ele>770.37</ele>
        <time>2020-08-08T07:51:05.965Z</time>
      </trkpt>
      <trkpt lat="47.03843" lon="6.89112">
        <ele>770.62</ele>
        <time>2020-08-08T07:51:08.141Z</time>
      </trkpt>
      <trkpt lat="47.03848" lon="6.89122">
        <ele>770.58</ele>
        <time>2020-08-08T07:51:09.710Z</time>
      </trkpt>
      <trkpt lat="47.03853" lon="6.89136">
        <ele>770.48</ele>
        <time>2020-08-08T07:51:11.350Z</time>
      </trkpt>
      <trkpt lat="47.03853" lon="6.8915">
        <ele>770.21</ele>
        <time>2020-08-08T07:51:12.508Z</time>
      </trkpt>
      <trkpt lat="47.0385" lon="6.89161">
        <ele>769.96</ele>
        <time>2020-08-08T07:51:13.460Z</time>
      </trkpt>
      <trkpt lat="47.03844" lon="6.89173">
        <ele>769.39</ele>
        <time>2020-08-08T07:51:14.408Z</time>
      </trkpt>
      <trkpt lat="47.03834" lon="6.89187">
        <ele>768.71</ele>
        <time>2020-08-08T07:51:15.779Z</time>
      </trkpt>
      <trkpt lat="47.03739" lon="6.89318">
        <ele>763.19</ele>
        <time>2020-08-08T07:51:29.532Z</time>
      </trkpt>
      <trkpt lat="47.0372" lon="6.89345">
        <ele>762.65</ele>
        <time>2020-08-08T07:51:33.036Z</time>
      </trkpt>
      <trkpt lat="47.03719" lon="6.89347">
        <ele>762.12</ele>
        <time>2020-08-08T07:51:33.195Z</time>
      </trkpt>
      <trkpt lat="47.03706" lon="6.89376">
        <ele>761.18</ele>
        <time>2020-08-08T07:51:35.753Z</time>
      </trkpt>
      <trkpt lat="47.03696" lon="6.89418">
        <ele>760.4</ele>
        <time>2020-08-08T07:51:39.536Z</time>
      </trkpt>
      <trkpt lat="47.03662" lon="6.89581">
        <ele>755.52</ele>
        <time>2020-08-08T07:51:51.830Z</time>
      </trkpt>
      <trkpt lat="47.03658" lon="6.89599">
        <ele>755.13</ele>
        <time>2020-08-08T07:51:53.364Z</time>
      </trkpt>
      <trkpt lat="47.03651" lon="6.89646">
        <ele>756.13</ele>
        <time>2020-08-08T07:52:02.420Z</time>
      </trkpt>
      <trkpt lat="47.03646" lon="6.89658">
        <ele>755.84</ele>
        <time>2020-08-08T07:52:03.559Z</time>
      </trkpt>
      <trkpt lat="47.0364" lon="6.89649">
        <ele>755.77</ele>
        <time>2020-08-08T07:52:04.886Z</time>
      </trkpt>
      <trkpt lat="47.03617" lon="6.89628">
        <ele>756.28</ele>
        <time>2020-08-08T07:52:11.401Z</time>
      </trkpt>
      <trkpt lat="47.03571" lon="6.89597">
        <ele>758.29</ele>
        <time>2020-08-08T07:52:27.236Z</time>
      </trkpt>
      <trkpt lat="47.03549" lon="6.89582">
        <ele>759.9</ele>
        <time>2020-08-08T07:52:36.693Z</time>
      </trkpt>
      <trkpt lat="47.0353" lon="6.89562">
        <ele>759.5</ele>
        <time>2020-08-08T07:52:39.916Z</time>
      </trkpt>
      <trkpt lat="47.03513" lon="6.89596">
        <ele>761.12</ele>
        <time>2020-08-08T07:52:50.354Z</time>
      </trkpt>
      <trkpt lat="47.03507" lon="6.89611">
        <ele>760.79</ele>
        <time>2020-08-08T07:52:51.799Z</time>
      </trkpt>
      <trkpt lat="47.03468" lon="6.89716">
        <ele>757.82</ele>
        <time>2020-08-08T07:53:00.896Z</time>
      </trkpt>
      <trkpt lat="47.0344" lon="6.89792">
        <ele>754.59</ele>
        <time>2020-08-08T07:53:06.460Z</time>
      </trkpt>
      <trkpt lat="47.03269" lon="6.90248">
        <ele>732.69</ele>
        <time>2020-08-08T07:53:38.168Z</time>
      </trkpt>
      <trkpt lat="47.03221" lon="6.90375">
        <ele>729.5</ele>
        <time>2020-08-08T07:53:49.693Z</time>
      </trkpt>
      <trkpt lat="47.03189" lon="6.90462">
        <ele>728.09</ele>
        <time>2020-08-08T07:53:58.567Z</time>
      </trkpt>
      <trkpt lat="47.03217" lon="6.90498">
        <ele>727.44</ele>
        <time>2020-08-08T07:54:03.676Z</time>
      </trkpt>
      <trkpt lat="47.03216" lon="6.90498">
        <ele>727.44</ele>
        <time>2020-08-08T07:54:03.875Z</time>
      </trkpt>
      <trkpt lat="47.03256" lon="6.90547">
        <ele>725.22</ele>
        <time>2020-08-08T07:54:09.359Z</time>
      </trkpt>
      <trkpt lat="47.03277" lon="6.90575">
        <ele>724.16</ele>
        <time>2020-08-08T07:54:12.498Z</time>
      </trkpt>
      <trkpt lat="47.03297" lon="6.90591">
        <ele>723.05</ele>
        <time>2020-08-08T07:54:14.767Z</time>
      </trkpt>
      <trkpt lat="47.0332" lon="6.90609">
        <ele>722.1</ele>
        <time>2020-08-08T07:54:17.676Z</time>
      </trkpt>
      <trkpt lat="47.03295" lon="6.90655">
        <ele>721.56</ele>
        <time>2020-08-08T07:54:23.458Z</time>
      </trkpt>
      <trkpt lat="47.03298" lon="6.90661">
        <ele>721.49</ele>
        <time>2020-08-08T07:54:24.186Z</time>
      </trkpt>
      <trkpt lat="47.03305" lon="6.90675">
        <ele>722.21</ele>
        <time>2020-08-08T07:54:28.620Z</time>
      </trkpt>
      <trkpt lat="47.03309" lon="6.90685">
        <ele>721.81</ele>
        <time>2020-08-08T07:54:29.394Z</time>
      </trkpt>
      <trkpt lat="47.03294" lon="6.90697">
        <ele>721.17</ele>
        <time>2020-08-08T07:54:31.282Z</time>
      </trkpt>
      <trkpt lat="47.03274" lon="6.90719">
        <ele>720.27</ele>
        <time>2020-08-08T07:54:34.084Z</time>
      </trkpt>
      <trkpt lat="47.03264" lon="6.90732">
        <ele>719.87</ele>
        <time>2020-08-08T07:54:35.677Z</time>
      </trkpt>
      <trkpt lat="47.03245" lon="6.90759">
        <ele>719.2</ele>
        <time>2020-08-08T07:54:38.992Z</time>
      </trkpt>
      <trkpt lat="47.03237" lon="6.90774">
        <ele>718.8</ele>
        <time>2020-08-08T07:54:40.526Z</time>
      </trkpt>
      <trkpt lat="47.03232" lon="6.90785">
        <ele>718.61</ele>
        <time>2020-08-08T07:54:41.710Z</time>
      </trkpt>
      <trkpt lat="47.03228" lon="6.90791">
        <ele>718.41</ele>
        <time>2020-08-08T07:54:42.358Z</time>
      </trkpt>
      <trkpt lat="47.03205" lon="6.90844">
        <ele>717.76</ele>
        <time>2020-08-08T07:54:48.402Z</time>
      </trkpt>
      <trkpt lat="47.03179" lon="6.90902">
        <ele>716.78</ele>
        <time>2020-08-08T07:54:54.649Z</time>
      </trkpt>
      <trkpt lat="47.03171" lon="6.9092">
        <ele>716.69</ele>
        <time>2020-08-08T07:54:57.313Z</time>
      </trkpt>
      <trkpt lat="47.03154" lon="6.9095">
        <ele>716.22</ele>
        <time>2020-08-08T07:55:00.953Z</time>
      </trkpt>
      <trkpt lat="47.03139" lon="6.90976">
        <ele>715.98</ele>
        <time>2020-08-08T07:55:04.439Z</time>
      </trkpt>
      <trkpt lat="47.03139" lon="6.90976">
        <ele>715.73</ele>
        <time>2020-08-08T07:55:04.439Z</time>
      </trkpt>
      <trkpt lat="47.0311" lon="6.91017">
        <ele>714.25</ele>
        <time>2020-08-08T07:55:08.921Z</time>
      </trkpt>
      <trkpt lat="47.03107" lon="6.91021">
        <ele>714.08</ele>
        <time>2020-08-08T07:55:09.350Z</time>
      </trkpt>
      <trkpt lat="47.03083" lon="6.91051">
        <ele>712.28</ele>
        <time>2020-08-08T07:55:12.275Z</time>
      </trkpt>
      <trkpt lat="47.03066" lon="6.91069">
        <ele>710.86</ele>
        <time>2020-08-08T07:55:14.244Z</time>
      </trkpt>
      <trkpt lat="47.03045" lon="6.9109">
        <ele>708.88</ele>
        <time>2020-08-08T07:55:16.631Z</time>
      </trkpt>
      <trkpt lat="47.03003" lon="6.91128">
        <ele>704.45</ele>
        <time>2020-08-08T07:55:21.266Z</time>
      </trkpt>
      <trkpt lat="47.02979" lon="6.91147">
        <ele>701.91</ele>
        <time>2020-08-08T07:55:23.828Z</time>
      </trkpt>
      <trkpt lat="47.0291" lon="6.91195">
        <ele>694.58</ele>
        <time>2020-08-08T07:55:31.000Z</time>
      </trkpt>
      <trkpt lat="47.02899" lon="6.91204">
        <ele>693.44</ele>
        <time>2020-08-08T07:55:32.183Z</time>
      </trkpt>
      <trkpt lat="47.02885" lon="6.91216">
        <ele>692</ele>
        <time>2020-08-08T07:55:33.706Z</time>
      </trkpt>
      <trkpt lat="47.02877" lon="6.91228">
        <ele>690.79</ele>
        <time>2020-08-08T07:55:34.781Z</time>
      </trkpt>
      <trkpt lat="47.02858" lon="6.9124">
        <ele>692</ele>
        <time>2020-08-08T07:55:42.404Z</time>
      </trkpt>
      <trkpt lat="47.02852" lon="6.91253">
        <ele>690.2</ele>
        <time>2020-08-08T07:55:43.409Z</time>
      </trkpt>
      <trkpt lat="47.02852" lon="6.91265">
        <ele>690.4</ele>
        <time>2020-08-08T07:55:45.507Z</time>
      </trkpt>
      <trkpt lat="47.02865" lon="6.9127">
        <ele>690.8</ele>
        <time>2020-08-08T07:55:49.185Z</time>
      </trkpt>
      <trkpt lat="47.02876" lon="6.91256">
        <ele>690.07</ele>
        <time>2020-08-08T07:55:50.618Z</time>
      </trkpt>
      <trkpt lat="47.02879" lon="6.91257">
        <ele>690.14</ele>
        <time>2020-08-08T07:55:51.391Z</time>
      </trkpt>
      <trkpt lat="47.02885" lon="6.91266">
        <ele>690.49</ele>
        <time>2020-08-08T07:55:54.118Z</time>
      </trkpt>
      <trkpt lat="47.02899" lon="6.91294">
        <ele>689.64</ele>
        <time>2020-08-08T07:55:56.774Z</time>
      </trkpt>
      <trkpt lat="47.02904" lon="6.913">
        <ele>689.54</ele>
        <time>2020-08-08T07:55:57.682Z</time>
      </trkpt>
      <trkpt lat="47.02959" lon="6.91346">
        <ele>689.27</ele>
        <time>2020-08-08T07:56:09.510Z</time>
      </trkpt>
      <trkpt lat="47.02985" lon="6.91365">
        <ele>689.48</ele>
        <time>2020-08-08T07:56:15.701Z</time>
      </trkpt>
      <trkpt lat="47.03027" lon="6.91396">
        <ele>689.35</ele>
        <time>2020-08-08T07:56:24.679Z</time>
      </trkpt>
      <trkpt lat="47.03013" lon="6.91429">
        <ele>689.41</ele>
        <time>2020-08-08T07:56:30.064Z</time>
      </trkpt>
      <trkpt lat="47.02991" lon="6.91475">
        <ele>689.5</ele>
        <time>2020-08-08T07:56:37.856Z</time>
      </trkpt>
      <trkpt lat="47.02989" lon="6.91478">
        <ele>689.59</ele>
        <time>2020-08-08T07:56:38.656Z</time>
      </trkpt>
      <trkpt lat="47.0298" lon="6.91495">
        <ele>689.59</ele>
        <time>2020-08-08T07:56:41.576Z</time>
      </trkpt>
      <trkpt lat="47.02958" lon="6.9154">
        <ele>692.32</ele>
        <time>2020-08-08T07:56:56.964Z</time>
      </trkpt>
      <trkpt lat="47.02946" lon="6.91557">
        <ele>694.12</ele>
        <time>2020-08-08T07:57:06.319Z</time>
      </trkpt>
      <trkpt lat="47.0294" lon="6.91562">
        <ele>694.42</ele>
        <time>2020-08-08T07:57:08.601Z</time>
      </trkpt>
      <trkpt lat="47.02927" lon="6.91566">
        <ele>695.37</ele>
        <time>2020-08-08T07:57:13.983Z</time>
      </trkpt>
      <trkpt lat="47.02922" lon="6.91566">
        <ele>695.87</ele>
        <time>2020-08-08T07:57:16.571Z</time>
      </trkpt>
      <trkpt lat="47.02908" lon="6.91562">
        <ele>697.14</ele>
        <time>2020-08-08T07:57:23.241Z</time>
      </trkpt>
      <trkpt lat="47.02866" lon="6.9154">
        <ele>699.98</ele>
        <time>2020-08-08T07:57:40.291Z</time>
      </trkpt>
      <trkpt lat="47.02852" lon="6.91533">
        <ele>702.08</ele>
        <time>2020-08-08T07:57:51.646Z</time>
      </trkpt>
      <trkpt lat="47.02797" lon="6.91504">
        <ele>705.05</ele>
        <time>2020-08-08T07:58:12.096Z</time>
      </trkpt>
      <trkpt lat="47.0279" lon="6.91502">
        <ele>705.45</ele>
        <time>2020-08-08T07:58:14.681Z</time>
      </trkpt>
      <trkpt lat="47.02777" lon="6.91505">
        <ele>706.08</ele>
        <time>2020-08-08T07:58:19.198Z</time>
      </trkpt>
      <trkpt lat="47.02772" lon="6.91509">
        <ele>706.52</ele>
        <time>2020-08-08T07:58:21.611Z</time>
      </trkpt>
      <trkpt lat="47.02762" lon="6.91527">
        <ele>707.61</ele>
        <time>2020-08-08T07:58:27.897Z</time>
      </trkpt>
      <trkpt lat="47.02762" lon="6.91545">
        <ele>708.31</ele>
        <time>2020-08-08T07:58:32.374Z</time>
      </trkpt>
      <trkpt lat="47.02764" lon="6.91555">
        <ele>708.85</ele>
        <time>2020-08-08T07:58:35.355Z</time>
      </trkpt>
      <trkpt lat="47.02776" lon="6.91585">
        <ele>709.96</ele>
        <time>2020-08-08T07:58:43.438Z</time>
      </trkpt>
      <trkpt lat="47.02776" lon="6.91585">
        <ele>709.96</ele>
        <time>2020-08-08T07:58:43.438Z</time>
      </trkpt>
      <trkpt lat="47.02785" lon="6.91607">
        <ele>711.63</ele>
        <time>2020-08-08T07:58:52.109Z</time>
      </trkpt>
      <trkpt lat="47.02811" lon="6.91672">
        <ele>715.08</ele>
        <time>2020-08-08T07:59:12.253Z</time>
      </trkpt>
      <trkpt lat="47.02814" lon="6.91682">
        <ele>715.54</ele>
        <time>2020-08-08T07:59:15.061Z</time>
      </trkpt>
      <trkpt lat="47.02818" lon="6.91699">
        <ele>716.31</ele>
        <time>2020-08-08T07:59:19.719Z</time>
      </trkpt>
      <trkpt lat="47.02819" lon="6.9171">
        <ele>716.84</ele>
        <time>2020-08-08T07:59:22.750Z</time>
      </trkpt>
      <trkpt lat="47.02823" lon="6.91763">
        <ele>719.28</ele>
        <time>2020-08-08T07:59:36.999Z</time>
      </trkpt>
      <trkpt lat="47.02822" lon="6.91797">
        <ele>720.77</ele>
        <time>2020-08-08T07:59:45.903Z</time>
      </trkpt>
      <trkpt lat="47.0282" lon="6.91811">
        <ele>721.46</ele>
        <time>2020-08-08T07:59:49.831Z</time>
      </trkpt>
      <trkpt lat="47.02813" lon="6.91837">
        <ele>722.59</ele>
        <time>2020-08-08T07:59:56.893Z</time>
      </trkpt>
      <trkpt lat="47.02805" lon="6.91853">
        <ele>723.65</ele>
        <time>2020-08-08T08:00:02.675Z</time>
      </trkpt>
      <trkpt lat="47.02786" lon="6.9188">
        <ele>725.41</ele>
        <time>2020-08-08T08:00:13.000Z</time>
      </trkpt>
      <trkpt lat="47.02771" lon="6.91894">
        <ele>726.76</ele>
        <time>2020-08-08T08:00:20.454Z</time>
      </trkpt>
      <trkpt lat="47.02758" lon="6.91907">
        <ele>727.42</ele>
        <time>2020-08-08T08:00:25.540Z</time>
      </trkpt>
      <trkpt lat="47.02737" lon="6.91926">
        <ele>729.34</ele>
        <time>2020-08-08T08:00:36.041Z</time>
      </trkpt>
      <trkpt lat="47.0273" lon="6.91931">
        <ele>729.79</ele>
        <time>2020-08-08T08:00:38.896Z</time>
      </trkpt>
      <trkpt lat="47.02712" lon="6.9194">
        <ele>731.02</ele>
        <time>2020-08-08T08:00:46.219Z</time>
      </trkpt>
      <trkpt lat="47.02704" lon="6.91943">
        <ele>731.68</ele>
        <time>2020-08-08T08:00:49.794Z</time>
      </trkpt>
      <trkpt lat="47.02635" lon="6.9196">
        <ele>736.29</ele>
        <time>2020-08-08T08:01:16.974Z</time>
      </trkpt>
      <trkpt lat="47.02622" lon="6.91963">
        <ele>737.21</ele>
        <time>2020-08-08T08:01:22.241Z</time>
      </trkpt>
      <trkpt lat="47.02608" lon="6.91967">
        <ele>738.13</ele>
        <time>2020-08-08T08:01:27.726Z</time>
      </trkpt>
      <trkpt lat="47.02593" lon="6.91974">
        <ele>739.02</ele>
        <time>2020-08-08T08:01:33.450Z</time>
      </trkpt>
      <trkpt lat="47.02586" lon="6.9198">
        <ele>739.68</ele>
        <time>2020-08-08T08:01:37.003Z</time>
      </trkpt>
      <trkpt lat="47.02575" lon="6.91995">
        <ele>740.67</ele>
        <time>2020-08-08T08:01:42.838Z</time>
      </trkpt>
      <trkpt lat="47.02567" lon="6.92017">
        <ele>741.65</ele>
        <time>2020-08-08T08:01:49.066Z</time>
      </trkpt>
      <trkpt lat="47.02565" lon="6.92027">
        <ele>742.27</ele>
        <time>2020-08-08T08:01:52.338Z</time>
      </trkpt>
      <trkpt lat="47.02564" lon="6.92052">
        <ele>743.34</ele>
        <time>2020-08-08T08:01:58.817Z</time>
      </trkpt>
      <trkpt lat="47.02564" lon="6.92058">
        <ele>743.53</ele>
        <time>2020-08-08T08:02:00.208Z</time>
      </trkpt>
      <trkpt lat="47.02569" lon="6.9208">
        <ele>744.65</ele>
        <time>2020-08-08T08:02:06.581Z</time>
      </trkpt>
      <trkpt lat="47.02572" lon="6.92091">
        <ele>745.47</ele>
        <time>2020-08-08T08:02:10.824Z</time>
      </trkpt>
      <trkpt lat="47.02579" lon="6.92112">
        <ele>746.3</ele>
        <time>2020-08-08T08:02:16.447Z</time>
      </trkpt>
      <trkpt lat="47.02579" lon="6.92129">
        <ele>746.9</ele>
        <time>2020-08-08T08:02:20.528Z</time>
      </trkpt>
      <trkpt lat="47.02567" lon="6.92152">
        <ele>749.47</ele>
        <time>2020-08-08T08:02:35.002Z</time>
      </trkpt>
      <trkpt lat="47.02544" lon="6.92194">
        <ele>753.67</ele>
        <time>2020-08-08T08:02:57.105Z</time>
      </trkpt>
      <trkpt lat="47.02538" lon="6.92209">
        <ele>754.4</ele>
        <time>2020-08-08T08:03:01.570Z</time>
      </trkpt>
      <trkpt lat="47.02544" lon="6.92213">
        <ele>755.23</ele>
        <time>2020-08-08T08:03:06.135Z</time>
      </trkpt>
      <trkpt lat="47.02535" lon="6.92243">
        <ele>758.45</ele>
        <time>2020-08-08T08:03:23.288Z</time>
      </trkpt>
      <trkpt lat="47.02519" lon="6.92289">
        <ele>763.59</ele>
        <time>2020-08-08T08:03:50.315Z</time>
      </trkpt>
      <trkpt lat="47.02501" lon="6.92341">
        <ele>769.33</ele>
        <time>2020-08-08T08:04:20.836Z</time>
      </trkpt>
      <trkpt lat="47.025" lon="6.92346">
        <ele>769.73</ele>
        <time>2020-08-08T08:04:22.932Z</time>
      </trkpt>
      <trkpt lat="47.02492" lon="6.92373">
        <ele>772.98</ele>
        <time>2020-08-08T08:04:38.339Z</time>
      </trkpt>
      <trkpt lat="47.02489" lon="6.92382">
        <ele>774.38</ele>
        <time>2020-08-08T08:04:43.582Z</time>
      </trkpt>
      <trkpt lat="47.02485" lon="6.92387">
        <ele>775.33</ele>
        <time>2020-08-08T08:04:47.617Z</time>
      </trkpt>
      <trkpt lat="47.02468" lon="6.92391">
        <ele>777.74</ele>
        <time>2020-08-08T08:05:00.835Z</time>
      </trkpt>
      <trkpt lat="47.02444" lon="6.9236">
        <ele>785</ele>
        <time>2020-08-08T08:05:25.385Z</time>
      </trkpt>
      <trkpt lat="47.02373" lon="6.92259">
        <ele>792</ele>
        <time>2020-08-08T08:06:05.231Z</time>
      </trkpt>
      <trkpt lat="47.02347" lon="6.9223">
        <ele>786.5</ele>
        <time>2020-08-08T08:06:08.298Z</time>
      </trkpt>
      <trkpt lat="47.02306" lon="6.92171">
        <ele>793.7</ele>
        <time>2020-08-08T08:06:47.785Z</time>
      </trkpt>
      <trkpt lat="47.02257" lon="6.92118">
        <ele>786.4</ele>
        <time>2020-08-08T08:06:53.503Z</time>
      </trkpt>
      <trkpt lat="47.02174" lon="6.92023">
        <ele>790.3</ele>
        <time>2020-08-08T08:07:25.220Z</time>
      </trkpt>
      <trkpt lat="47.02069" lon="6.9195">
        <ele>803.4</ele>
        <time>2020-08-08T08:08:33.888Z</time>
      </trkpt>
      <trkpt lat="47.01976" lon="6.91887">
        <ele>805</ele>
        <time>2020-08-08T08:08:57.682Z</time>
      </trkpt>
      <trkpt lat="47.01806" lon="6.91824">
        <ele>818.1</ele>
        <time>2020-08-08T08:10:10.496Z</time>
      </trkpt>
      <trkpt lat="47.01743" lon="6.91812">
        <ele>830</ele>
        <time>2020-08-08T08:10:59.269Z</time>
      </trkpt>
      <trkpt lat="47.01665" lon="6.91765">
        <ele>835</ele>
        <time>2020-08-08T08:11:30.520Z</time>
      </trkpt>
      <trkpt lat="47.01615" lon="6.91741">
        <ele>829</ele>
        <time>2020-08-08T08:11:35.461Z</time>
      </trkpt>
      <trkpt lat="47.01568" lon="6.91704">
        <ele>834.4</ele>
        <time>2020-08-08T08:12:03.407Z</time>
      </trkpt>
      <trkpt lat="47.0152" lon="6.91682">
        <ele>835.3</ele>
        <time>2020-08-08T08:12:15.379Z</time>
      </trkpt>
      <trkpt lat="47.01449" lon="6.91658">
        <ele>830.7</ele>
        <time>2020-08-08T08:12:21.821Z</time>
      </trkpt>
      <trkpt lat="47.01396" lon="6.91659">
        <ele>835.1</ele>
        <time>2020-08-08T08:12:45.360Z</time>
      </trkpt>
      <trkpt lat="47.01338" lon="6.9169">
        <ele>847.3</ele>
        <time>2020-08-08T08:13:32.752Z</time>
      </trkpt>
      <trkpt lat="47.01296" lon="6.91734">
        <ele>852</ele>
        <time>2020-08-08T08:13:57.327Z</time>
      </trkpt>
      <trkpt lat="47.01261" lon="6.91791">
        <ele>861</ele>
        <time>2020-08-08T08:14:37.480Z</time>
      </trkpt>
      <trkpt lat="47.0124" lon="6.91815">
        <ele>856</ele>
        <time>2020-08-08T08:14:39.981Z</time>
      </trkpt>
      <trkpt lat="47.01233" lon="6.91858">
        <ele>862</ele>
        <time>2020-08-08T08:15:03.123Z</time>
      </trkpt>
      <trkpt lat="47.01231" lon="6.91915">
        <ele>868</ele>
        <time>2020-08-08T08:15:33.000Z</time>
      </trkpt>
      <trkpt lat="47.01237" lon="6.92026">
        <ele>886.7</ele>
        <time>2020-08-08T08:16:31.287Z</time>
      </trkpt>
      <trkpt lat="47.0123" lon="6.92058">
        <ele>887.9</ele>
        <time>2020-08-08T08:16:39.388Z</time>
      </trkpt>
      <trkpt lat="47.01214" lon="6.92143">
        <ele>891.7</ele>
        <time>2020-08-08T08:17:02.294Z</time>
      </trkpt>
      <trkpt lat="47.01204" lon="6.92229">
        <ele>894.5</ele>
        <time>2020-08-08T08:17:22.607Z</time>
      </trkpt>
      <trkpt lat="47.01195" lon="6.92263">
        <ele>895.3</ele>
        <time>2020-08-08T08:17:29.625Z</time>
      </trkpt>
      <trkpt lat="47.012" lon="6.92328">
        <ele>898.5</ele>
        <time>2020-08-08T08:17:47.727Z</time>
      </trkpt>
      <trkpt lat="47.01187" lon="6.92405">
        <ele>900.9</ele>
        <time>2020-08-08T08:18:05.864Z</time>
      </trkpt>
      <trkpt lat="47.01186" lon="6.92453">
        <ele>907.1</ele>
        <time>2020-08-08T08:18:31.003Z</time>
      </trkpt>
      <trkpt lat="47.01182" lon="6.92511">
        <ele>907.1</ele>
        <time>2020-08-08T08:18:38.914Z</time>
      </trkpt>
      <trkpt lat="47.01175" lon="6.92568">
        <ele>908.7</ele>
        <time>2020-08-08T08:18:51.413Z</time>
      </trkpt>
      <trkpt lat="47.01173" lon="6.926">
        <ele>910.7</ele>
        <time>2020-08-08T08:19:01.866Z</time>
      </trkpt>
      <trkpt lat="47.01176" lon="6.92633">
        <ele>915</ele>
        <time>2020-08-08T08:19:19.293Z</time>
      </trkpt>
      <trkpt lat="47.01156" lon="6.9269">
        <ele>893.1</ele>
        <time>2020-08-08T08:19:23.399Z</time>
      </trkpt>
      <trkpt lat="47.01138" lon="6.92769">
        <ele>887.8</ele>
        <time>2020-08-08T08:19:28.733Z</time>
      </trkpt>
      <trkpt lat="47.01134" lon="6.9284">
        <ele>879.4</ele>
        <time>2020-08-08T08:19:33.296Z</time>
      </trkpt>
      <trkpt lat="47.01145" lon="6.9287">
        <ele>879.2</ele>
        <time>2020-08-08T08:19:36.865Z</time>
      </trkpt>
      <trkpt lat="47.01178" lon="6.92921">
        <ele>890.3</ele>
        <time>2020-08-08T08:20:13.669Z</time>
      </trkpt>
      <trkpt lat="47.01193" lon="6.92954">
        <ele>893.4</ele>
        <time>2020-08-08T08:20:29.995Z</time>
      </trkpt>
      <trkpt lat="47.01185" lon="6.93019">
        <ele>885</ele>
        <time>2020-08-08T08:20:34.225Z</time>
      </trkpt>
      <trkpt lat="47.01165" lon="6.93066">
        <ele>869.2</ele>
        <time>2020-08-08T08:20:37.773Z</time>
      </trkpt>
      <trkpt lat="47.01152" lon="6.9308">
        <ele>869.2</ele>
        <time>2020-08-08T08:20:40.983Z</time>
      </trkpt>
      <trkpt lat="47.01135" lon="6.93085">
        <ele>866.1</ele>
        <time>2020-08-08T08:20:42.612Z</time>
      </trkpt>
      <trkpt lat="47.01127" lon="6.93171">
        <ele>866.9</ele>
        <time>2020-08-08T08:20:56.056Z</time>
      </trkpt>
      <trkpt lat="47.01126" lon="6.93199">
        <ele>866.5</ele>
        <time>2020-08-08T08:20:58.574Z</time>
      </trkpt>
      <trkpt lat="47.01148" lon="6.93265">
        <ele>869.5</ele>
        <time>2020-08-08T08:21:17.216Z</time>
      </trkpt>
      <trkpt lat="47.01202" lon="6.93357">
        <ele>885.2</ele>
        <time>2020-08-08T08:22:20.761Z</time>
      </trkpt>
      <trkpt lat="47.01265" lon="6.93458">
        <ele>904.8</ele>
        <time>2020-08-08T08:23:32.417Z</time>
      </trkpt>
      <trkpt lat="47.01335" lon="6.93601">
        <ele>919.8</ele>
        <time>2020-08-08T08:24:54.523Z</time>
      </trkpt>
      <trkpt lat="47.01567" lon="6.94039">
        <ele>947.95</ele>
        <time>2020-08-08T08:27:31.229Z</time>
      </trkpt>
      <trkpt lat="47.01567" lon="6.94043">
        <ele>947.82</ele>
        <time>2020-08-08T08:27:31.503Z</time>
      </trkpt>
      <trkpt lat="47.01588" lon="6.9409">
        <ele>951.64</ele>
        <time>2020-08-08T08:27:51.277Z</time>
      </trkpt>
      <trkpt lat="47.01605" lon="6.94124">
        <ele>954.9</ele>
        <time>2020-08-08T08:28:08.392Z</time>
      </trkpt>
      <trkpt lat="47.01615" lon="6.94143">
        <ele>957.06</ele>
        <time>2020-08-08T08:28:20.699Z</time>
      </trkpt>
      <trkpt lat="47.01634" lon="6.94171">
        <ele>958.89</ele>
        <time>2020-08-08T08:28:31.322Z</time>
      </trkpt>
      <trkpt lat="47.01635" lon="6.94174">
        <ele>959.77</ele>
        <time>2020-08-08T08:28:33.070Z</time>
      </trkpt>
      <trkpt lat="47.01685" lon="6.94249">
        <ele>967.59</ele>
        <time>2020-08-08T08:29:13.795Z</time>
      </trkpt>
      <trkpt lat="47.01734" lon="6.94323">
        <ele>975.36</ele>
        <time>2020-08-08T08:29:54.338Z</time>
      </trkpt>
      <trkpt lat="47.01744" lon="6.94338">
        <ele>977.16</ele>
        <time>2020-08-08T08:30:04.234Z</time>
      </trkpt>
      <trkpt lat="47.01764" lon="6.94371">
        <ele>980.26</ele>
        <time>2020-08-08T08:30:20.281Z</time>
      </trkpt>
      <trkpt lat="47.0179" lon="6.94415">
        <ele>982.58</ele>
        <time>2020-08-08T08:30:34.906Z</time>
      </trkpt>
      <trkpt lat="47.01791" lon="6.94417">
        <ele>984.9</ele>
        <time>2020-08-08T08:30:36.205Z</time>
      </trkpt>
      <trkpt lat="47.01808" lon="6.94444">
        <ele>987.72</ele>
        <time>2020-08-08T08:30:50.980Z</time>
      </trkpt>
      <trkpt lat="47.01816" lon="6.94458">
        <ele>989.08</ele>
        <time>2020-08-08T08:30:58.061Z</time>
      </trkpt>
      <trkpt lat="47.0184" lon="6.94505">
        <ele>993.86</ele>
        <time>2020-08-08T08:31:23.613Z</time>
      </trkpt>
      <trkpt lat="47.01855" lon="6.94531">
        <ele>996.25</ele>
        <time>2020-08-08T08:31:35.985Z</time>
      </trkpt>
      <trkpt lat="47.01861" lon="6.94539">
        <ele>997.14</ele>
        <time>2020-08-08T08:31:40.623Z</time>
      </trkpt>
      <trkpt lat="47.01884" lon="6.94563">
        <ele>1000.16</ele>
        <time>2020-08-08T08:31:56.301Z</time>
      </trkpt>
      <trkpt lat="47.01913" lon="6.94592">
        <ele>1004.13</ele>
        <time>2020-08-08T08:32:17.129Z</time>
      </trkpt>
      <trkpt lat="47.01941" lon="6.94617">
        <ele>1008.05</ele>
        <time>2020-08-08T08:32:38.098Z</time>
      </trkpt>
      <trkpt lat="47.01946" lon="6.94622">
        <ele>1008.72</ele>
        <time>2020-08-08T08:32:41.596Z</time>
      </trkpt>
      <trkpt lat="47.01955" lon="6.9463">
        <ele>1009.71</ele>
        <time>2020-08-08T08:32:46.745Z</time>
      </trkpt>
      <trkpt lat="47.01973" lon="6.94651">
        <ele>1011.94</ele>
        <time>2020-08-08T08:32:58.307Z</time>
      </trkpt>
      <trkpt lat="47.01981" lon="6.94663">
        <ele>1013.16</ele>
        <time>2020-08-08T08:33:04.639Z</time>
      </trkpt>
      <trkpt lat="47.01988" lon="6.94673">
        <ele>1014.39</ele>
        <time>2020-08-08T08:33:11.402Z</time>
      </trkpt>
      <trkpt lat="47.01999" lon="6.94687">
        <ele>1015.55</ele>
        <time>2020-08-08T08:33:17.692Z</time>
      </trkpt>
      <trkpt lat="47.02036" lon="6.94727">
        <ele>1020.52</ele>
        <time>2020-08-08T08:33:43.530Z</time>
      </trkpt>
      <trkpt lat="47.0206" lon="6.94751">
        <ele>1023.76</ele>
        <time>2020-08-08T08:34:00.470Z</time>
      </trkpt>
      <trkpt lat="47.0208" lon="6.94768">
        <ele>1026</ele>
        <time>2020-08-08T08:34:12.085Z</time>
      </trkpt>
      <trkpt lat="47.02102" lon="6.9479">
        <ele>1028.69</ele>
        <time>2020-08-08T08:34:26.006Z</time>
      </trkpt>
      <trkpt lat="47.02109" lon="6.94798">
        <ele>1029.55</ele>
        <time>2020-08-08T08:34:30.465Z</time>
      </trkpt>
      <trkpt lat="47.0213" lon="6.94826">
        <ele>1032.27</ele>
        <time>2020-08-08T08:34:44.583Z</time>
      </trkpt>
      <trkpt lat="47.02143" lon="6.94841">
        <ele>1034.26</ele>
        <time>2020-08-08T08:34:55.257Z</time>
      </trkpt>
      <trkpt lat="47.02152" lon="6.94848">
        <ele>1035.23</ele>
        <time>2020-08-08T08:35:00.295Z</time>
      </trkpt>
      <trkpt lat="47.02178" lon="6.94866">
        <ele>1037.48</ele>
        <time>2020-08-08T08:35:12.575Z</time>
      </trkpt>
      <trkpt lat="47.02193" lon="6.94877">
        <ele>1039.13</ele>
        <time>2020-08-08T08:35:21.121Z</time>
      </trkpt>
      <trkpt lat="47.02212" lon="6.94895">
        <ele>1040.83</ele>
        <time>2020-08-08T08:35:30.547Z</time>
      </trkpt>
      <trkpt lat="47.02267" lon="6.94958">
        <ele>1047</ele>
        <time>2020-08-08T08:36:03.003Z</time>
      </trkpt>
      <trkpt lat="47.02277" lon="6.94969">
        <ele>1048.11</ele>
        <time>2020-08-08T08:36:08.836Z</time>
      </trkpt>
      <trkpt lat="47.02302" lon="6.94994">
        <ele>1050.86</ele>
        <time>2020-08-08T08:36:23.220Z</time>
      </trkpt>
      <trkpt lat="47.02315" lon="6.95008">
        <ele>1052.19</ele>
        <time>2020-08-08T08:36:30.350Z</time>
      </trkpt>
      <trkpt lat="47.02332" lon="6.9503">
        <ele>1054.05</ele>
        <time>2020-08-08T08:36:40.337Z</time>
      </trkpt>
      <trkpt lat="47.02341" lon="6.95044">
        <ele>1055.43</ele>
        <time>2020-08-08T08:36:47.489Z</time>
      </trkpt>
      <trkpt lat="47.02368" lon="6.95099">
        <ele>1059.04</ele>
        <time>2020-08-08T08:37:07.203Z</time>
      </trkpt>
      <trkpt lat="47.02377" lon="6.95115">
        <ele>1060.57</ele>
        <time>2020-08-08T08:37:15.158Z</time>
      </trkpt>
      <trkpt lat="47.02401" lon="6.95144">
        <ele>1063.24</ele>
        <time>2020-08-08T08:37:29.304Z</time>
      </trkpt>
      <trkpt lat="47.02406" lon="6.95152">
        <ele>1064.22</ele>
        <time>2020-08-08T08:37:34.905Z</time>
      </trkpt>
      <trkpt lat="47.02416" lon="6.9517">
        <ele>1065.21</ele>
        <time>2020-08-08T08:37:40.908Z</time>
      </trkpt>
      <trkpt lat="47.02445" lon="6.95223">
        <ele>1069.52</ele>
        <time>2020-08-08T08:38:03.363Z</time>
      </trkpt>
      <trkpt lat="47.02457" lon="6.95254">
        <ele>1072.03</ele>
        <time>2020-08-08T08:38:16.357Z</time>
      </trkpt>
      <trkpt lat="47.02464" lon="6.95268">
        <ele>1072.87</ele>
        <time>2020-08-08T08:38:21.133Z</time>
      </trkpt>
      <trkpt lat="47.02494" lon="6.95309">
        <ele>1076.3</ele>
        <time>2020-08-08T08:38:39.439Z</time>
      </trkpt>
      <trkpt lat="47.02507" lon="6.95328">
        <ele>1077.81</ele>
        <time>2020-08-08T08:38:47.540Z</time>
      </trkpt>
      <trkpt lat="47.02538" lon="6.95381">
        <ele>1081.27</ele>
        <time>2020-08-08T08:39:07.000Z</time>
      </trkpt>
      <trkpt lat="47.02553" lon="6.95414">
        <ele>1082.5</ele>
        <time>2020-08-08T08:39:16.140Z</time>
      </trkpt>
      <trkpt lat="47.02591" lon="6.95485">
        <ele>1085.67</ele>
        <time>2020-08-08T08:39:37.770Z</time>
      </trkpt>
      <trkpt lat="47.02634" lon="6.95564">
        <ele>1088.83</ele>
        <time>2020-08-08T08:40:01.120Z</time>
      </trkpt>
      <trkpt lat="47.02644" lon="6.95583">
        <ele>1089.37</ele>
        <time>2020-08-08T08:40:05.788Z</time>
      </trkpt>
      <trkpt lat="47.02647" lon="6.95586">
        <ele>1089.52</ele>
        <time>2020-08-08T08:40:06.951Z</time>
      </trkpt>
      <trkpt lat="47.02664" lon="6.95616">
        <ele>1090.08</ele>
        <time>2020-08-08T08:40:13.509Z</time>
      </trkpt>
      <trkpt lat="47.02668" lon="6.95623">
        <ele>1090.1</ele>
        <time>2020-08-08T08:40:14.786Z</time>
      </trkpt>
      <trkpt lat="47.02684" lon="6.95646">
        <ele>1090.63</ele>
        <time>2020-08-08T08:40:20.478Z</time>
      </trkpt>
      <trkpt lat="47.02689" lon="6.95655">
        <ele>1090.85</ele>
        <time>2020-08-08T08:40:22.591Z</time>
      </trkpt>
      <trkpt lat="47.02717" lon="6.95707">
        <ele>1092.05</ele>
        <time>2020-08-08T08:40:34.474Z</time>
      </trkpt>
      <trkpt lat="47.02717" lon="6.95706">
        <ele>1092.05</ele>
        <time>2020-08-08T08:40:34.609Z</time>
      </trkpt>
      <trkpt lat="47.02736" lon="6.9574">
        <ele>1093.68</ele>
        <time>2020-08-08T08:40:45.348Z</time>
      </trkpt>
      <trkpt lat="47.02756" lon="6.95779">
        <ele>1095.83</ele>
        <time>2020-08-08T08:40:58.154Z</time>
      </trkpt>
      <trkpt lat="47.02761" lon="6.95791">
        <ele>1096.73</ele>
        <time>2020-08-08T08:41:02.837Z</time>
      </trkpt>
      <trkpt lat="47.02779" lon="6.95849">
        <ele>1099.32</ele>
        <time>2020-08-08T08:41:18.973Z</time>
      </trkpt>
      <trkpt lat="47.02781" lon="6.95857">
        <ele>1099.76</ele>
        <time>2020-08-08T08:41:21.404Z</time>
      </trkpt>
      <trkpt lat="47.0279" lon="6.95882">
        <ele>1101.32</ele>
        <time>2020-08-08T08:41:29.818Z</time>
      </trkpt>
      <trkpt lat="47.02795" lon="6.95894">
        <ele>1102</ele>
        <time>2020-08-08T08:41:33.684Z</time>
      </trkpt>
      <trkpt lat="47.02798" lon="6.95904">
        <ele>1102.68</ele>
        <time>2020-08-08T08:41:37.238Z</time>
      </trkpt>
      <trkpt lat="47.02823" lon="6.95958">
        <ele>1106.37</ele>
        <time>2020-08-08T08:41:56.985Z</time>
      </trkpt>
      <trkpt lat="47.02831" lon="6.95975">
        <ele>1107.47</ele>
        <time>2020-08-08T08:42:02.992Z</time>
      </trkpt>
      <trkpt lat="47.02845" lon="6.96002">
        <ele>1109.33</ele>
        <time>2020-08-08T08:42:13.045Z</time>
      </trkpt>
      <trkpt lat="47.02887" lon="6.96068">
        <ele>1114.6</ele>
        <time>2020-08-08T08:42:40.987Z</time>
      </trkpt>
      <trkpt lat="47.0289" lon="6.96072">
        <ele>1115.12</ele>
        <time>2020-08-08T08:42:43.884Z</time>
      </trkpt>
      <trkpt lat="47.02895" lon="6.96081">
        <ele>1115.63</ele>
        <time>2020-08-08T08:42:46.926Z</time>
      </trkpt>
      <trkpt lat="47.02901" lon="6.96092">
        <ele>1116.32</ele>
        <time>2020-08-08T08:42:50.827Z</time>
      </trkpt>
      <trkpt lat="47.0292" lon="6.96143">
        <ele>1119.62</ele>
        <time>2020-08-08T08:43:08.462Z</time>
      </trkpt>
      <trkpt lat="47.02939" lon="6.96196">
        <ele>1122.85</ele>
        <time>2020-08-08T08:43:26.019Z</time>
      </trkpt>
      <trkpt lat="47.02952" lon="6.96226">
        <ele>1124.92</ele>
        <time>2020-08-08T08:43:37.002Z</time>
      </trkpt>
      <trkpt lat="47.02959" lon="6.96241">
        <ele>1125.75</ele>
        <time>2020-08-08T08:43:41.854Z</time>
      </trkpt>
      <trkpt lat="47.02965" lon="6.96252">
        <ele>1126.58</ele>
        <time>2020-08-08T08:43:46.244Z</time>
      </trkpt>
      <trkpt lat="47.02988" lon="6.96298">
        <ele>1129.76</ele>
        <time>2020-08-08T08:44:03.337Z</time>
      </trkpt>
      <trkpt lat="47.02992" lon="6.96306">
        <ele>1130.35</ele>
        <time>2020-08-08T08:44:06.450Z</time>
      </trkpt>
      <trkpt lat="47.03027" lon="6.96366">
        <ele>1134.79</ele>
        <time>2020-08-08T08:44:30.250Z</time>
      </trkpt>
      <trkpt lat="47.03046" lon="6.96388">
        <ele>1136.79</ele>
        <time>2020-08-08T08:44:40.964Z</time>
      </trkpt>
      <trkpt lat="47.03064" lon="6.96402">
        <ele>1138.57</ele>
        <time>2020-08-08T08:44:50.354Z</time>
      </trkpt>
      <trkpt lat="47.03101" lon="6.96439">
        <ele>1142.28</ele>
        <time>2020-08-08T08:45:10.213Z</time>
      </trkpt>
      <trkpt lat="47.03131" lon="6.96466">
        <ele>1145.37</ele>
        <time>2020-08-08T08:45:26.494Z</time>
      </trkpt>
      <trkpt lat="47.03202" lon="6.96534">
        <ele>1151.56</ele>
        <time>2020-08-08T08:46:01.241Z</time>
      </trkpt>
      <trkpt lat="47.03237" lon="6.96562">
        <ele>1152.45</ele>
        <time>2020-08-08T08:46:11.215Z</time>
      </trkpt>
      <trkpt lat="47.03271" lon="6.9658">
        <ele>1152.59</ele>
        <time>2020-08-08T08:46:18.674Z</time>
      </trkpt>
      <trkpt lat="47.033" lon="6.966">
        <ele>1152.74</ele>
        <time>2020-08-08T08:46:25.338Z</time>
      </trkpt>
      <trkpt lat="47.03312" lon="6.96608">
        <ele>1152.96</ele>
        <time>2020-08-08T08:46:28.435Z</time>
      </trkpt>
      <trkpt lat="47.03335" lon="6.96628">
        <ele>1154.17</ele>
        <time>2020-08-08T08:46:37.460Z</time>
      </trkpt>
      <trkpt lat="47.03394" lon="6.96687">
        <ele>1156.51</ele>
        <time>2020-08-08T08:46:57.767Z</time>
      </trkpt>
      <trkpt lat="47.03431" lon="6.96723">
        <ele>1156.84</ele>
        <time>2020-08-08T08:47:07.250Z</time>
      </trkpt>
      <trkpt lat="47.03434" lon="6.96725">
        <ele>1157.17</ele>
        <time>2020-08-08T08:47:08.958Z</time>
      </trkpt>
      <trkpt lat="47.03456" lon="6.96745">
        <ele>1157.25</ele>
        <time>2020-08-08T08:47:14.259Z</time>
      </trkpt>
      <trkpt lat="47.03507" lon="6.96791">
        <ele>1158.99</ele>
        <time>2020-08-08T08:47:30.498Z</time>
      </trkpt>
      <trkpt lat="47.0353" lon="6.9681">
        <ele>1159.69</ele>
        <time>2020-08-08T08:47:37.437Z</time>
      </trkpt>
      <trkpt lat="47.03605" lon="6.96852">
        <ele>1162.84</ele>
        <time>2020-08-08T08:48:02.381Z</time>
      </trkpt>
      <trkpt lat="47.03686" lon="6.96899">
        <ele>1166.58</ele>
        <time>2020-08-08T08:48:30.957Z</time>
      </trkpt>
      <trkpt lat="47.03707" lon="6.9691">
        <ele>1167.2</ele>
        <time>2020-08-08T08:48:36.912Z</time>
      </trkpt>
      <trkpt lat="47.03859" lon="6.96995">
        <ele>1168.59</ele>
        <time>2020-08-08T08:49:12.038Z</time>
      </trkpt>
      <trkpt lat="47.03878" lon="6.97006">
        <ele>1168.2</ele>
        <time>2020-08-08T08:49:14.786Z</time>
      </trkpt>
      <trkpt lat="47.03919" lon="6.97028">
        <ele>1167.82</ele>
        <time>2020-08-08T08:49:21.486Z</time>
      </trkpt>
      <trkpt lat="47.03938" lon="6.9704">
        <ele>1167.1</ele>
        <time>2020-08-08T08:49:23.833Z</time>
      </trkpt>
      <trkpt lat="47.03953" lon="6.97053">
        <ele>1166.41</ele>
        <time>2020-08-08T08:49:25.718Z</time>
      </trkpt>
      <trkpt lat="47.04023" lon="6.97115">
        <ele>1163.78</ele>
        <time>2020-08-08T08:49:35.245Z</time>
      </trkpt>
      <trkpt lat="47.04047" lon="6.97138">
        <ele>1163</ele>
        <time>2020-08-08T08:49:38.764Z</time>
      </trkpt>
      <trkpt lat="47.04058" lon="6.97149">
        <ele>1162.69</ele>
        <time>2020-08-08T08:49:40.470Z</time>
      </trkpt>
      <trkpt lat="47.04112" lon="6.97224">
        <ele>1161.52</ele>
        <time>2020-08-08T08:49:50.890Z</time>
      </trkpt>
      <trkpt lat="47.04129" lon="6.97247">
        <ele>1161.49</ele>
        <time>2020-08-08T08:49:55.403Z</time>
      </trkpt>
      <trkpt lat="47.04161" lon="6.97284">
        <ele>1162.5</ele>
        <time>2020-08-08T08:50:05.894Z</time>
      </trkpt>
      <trkpt lat="47.04173" lon="6.97295">
        <ele>1162.77</ele>
        <time>2020-08-08T08:50:09.307Z</time>
      </trkpt>
      <trkpt lat="47.04212" lon="6.97324">
        <ele>1162.66</ele>
        <time>2020-08-08T08:50:17.686Z</time>
      </trkpt>
      <trkpt lat="47.04239" lon="6.97343">
        <ele>1161.62</ele>
        <time>2020-08-08T08:50:21.086Z</time>
      </trkpt>
      <trkpt lat="47.04287" lon="6.97374">
        <ele>1158.89</ele>
        <time>2020-08-08T08:50:26.160Z</time>
      </trkpt>
      <trkpt lat="47.04324" lon="6.97394">
        <ele>1157.27</ele>
        <time>2020-08-08T08:50:30.369Z</time>
      </trkpt>
      <trkpt lat="47.04323" lon="6.97394">
        <ele>1157.27</ele>
        <time>2020-08-08T08:50:30.568Z</time>
      </trkpt>
      <trkpt lat="47.04365" lon="6.97413">
        <ele>1155.77</ele>
        <time>2020-08-08T08:50:35.588Z</time>
      </trkpt>
      <trkpt lat="47.04382" lon="6.97421">
        <ele>1155.01</ele>
        <time>2020-08-08T08:50:37.467Z</time>
      </trkpt>
      <trkpt lat="47.04407" lon="6.97435">
        <ele>1154.18</ele>
        <time>2020-08-08T08:50:40.622Z</time>
      </trkpt>
      <trkpt lat="47.04447" lon="6.97465">
        <ele>1151.37</ele>
        <time>2020-08-08T08:50:44.611Z</time>
      </trkpt>
      <trkpt lat="47.04485" lon="6.97493">
        <ele>1149.46</ele>
        <time>2020-08-08T08:50:48.992Z</time>
      </trkpt>
      <trkpt lat="47.04508" lon="6.97509">
        <ele>1148.36</ele>
        <time>2020-08-08T08:50:51.656Z</time>
      </trkpt>
      <trkpt lat="47.04542" lon="6.97534">
        <ele>1146.64</ele>
        <time>2020-08-08T08:50:55.563Z</time>
      </trkpt>
      <trkpt lat="47.04619" lon="6.97589">
        <ele>1143.84</ele>
        <time>2020-08-08T08:51:05.487Z</time>
      </trkpt>
      <trkpt lat="47.04646" lon="6.97599">
        <ele>1142.88</ele>
        <time>2020-08-08T08:51:08.656Z</time>
      </trkpt>
      <trkpt lat="47.04679" lon="6.97608">
        <ele>1141.56</ele>
        <time>2020-08-08T08:51:12.299Z</time>
      </trkpt>
      <trkpt lat="47.04716" lon="6.97619">
        <ele>1139.65</ele>
        <time>2020-08-08T08:51:15.998Z</time>
      </trkpt>
      <trkpt lat="47.04728" lon="6.97623">
        <ele>1139.13</ele>
        <time>2020-08-08T08:51:17.297Z</time>
      </trkpt>
      <trkpt lat="47.04824" lon="6.97665">
        <ele>1137.74</ele>
        <time>2020-08-08T08:51:31.666Z</time>
      </trkpt>
      <trkpt lat="47.04871" lon="6.97686">
        <ele>1136.9</ele>
        <time>2020-08-08T08:51:38.438Z</time>
      </trkpt>
      <trkpt lat="47.0488" lon="6.97689">
        <ele>1136.8</ele>
        <time>2020-08-08T08:51:39.814Z</time>
      </trkpt>
      <trkpt lat="47.05096" lon="6.97781">
        <ele>1133.51</ele>
        <time>2020-08-08T08:52:11.772Z</time>
      </trkpt>
      <trkpt lat="47.05141" lon="6.97801">
        <ele>1132.5</ele>
        <time>2020-08-08T08:52:17.925Z</time>
      </trkpt>
      <trkpt lat="47.05187" lon="6.97818">
        <ele>1132.13</ele>
        <time>2020-08-08T08:52:25.295Z</time>
      </trkpt>
      <trkpt lat="47.05289" lon="6.97852">
        <ele>1131.56</ele>
        <time>2020-08-08T08:52:44.510Z</time>
      </trkpt>
      <trkpt lat="47.05345" lon="6.97872">
        <ele>1130.95</ele>
        <time>2020-08-08T08:52:53.135Z</time>
      </trkpt>
      <trkpt lat="47.05359" lon="6.97879">
        <ele>1130.81</ele>
        <time>2020-08-08T08:52:55.382Z</time>
      </trkpt>
      <trkpt lat="47.05375" lon="6.97887">
        <ele>1130.74</ele>
        <time>2020-08-08T08:52:58.546Z</time>
      </trkpt>
      <trkpt lat="47.05419" lon="6.97915">
        <ele>1130.98</ele>
        <time>2020-08-08T08:53:08.550Z</time>
      </trkpt>
      <trkpt lat="47.05421" lon="6.97916">
        <ele>1131.21</ele>
        <time>2020-08-08T08:53:09.747Z</time>
      </trkpt>
      <trkpt lat="47.05474" lon="6.97949">
        <ele>1132</ele>
        <time>2020-08-08T08:53:22.853Z</time>
      </trkpt>
      <trkpt lat="47.0551" lon="6.9797">
        <ele>1131.43</ele>
        <time>2020-08-08T08:53:28.351Z</time>
      </trkpt>
      <trkpt lat="47.05519" lon="6.97977">
        <ele>1131.39</ele>
        <time>2020-08-08T08:53:30.264Z</time>
      </trkpt>
      <trkpt lat="47.05554" lon="6.98017">
        <ele>1132.41</ele>
        <time>2020-08-08T08:53:41.449Z</time>
      </trkpt>
      <trkpt lat="47.05581" lon="6.98047">
        <ele>1133.44</ele>
        <time>2020-08-08T08:53:50.792Z</time>
      </trkpt>
      <trkpt lat="47.05594" lon="6.9806">
        <ele>1133.63</ele>
        <time>2020-08-08T08:53:54.312Z</time>
      </trkpt>
      <trkpt lat="47.05606" lon="6.98075">
        <ele>1133.72</ele>
        <time>2020-08-08T08:53:57.623Z</time>
      </trkpt>
      <trkpt lat="47.0562" lon="6.98098">
        <ele>1133.6</ele>
        <time>2020-08-08T08:54:01.469Z</time>
      </trkpt>
      <trkpt lat="47.05637" lon="6.9812">
        <ele>1133.68</ele>
        <time>2020-08-08T08:54:06.130Z</time>
      </trkpt>
      <trkpt lat="47.05644" lon="6.9813">
        <ele>1133.76</ele>
        <time>2020-08-08T08:54:08.232Z</time>
      </trkpt>
      <trkpt lat="47.05663" lon="6.98155">
        <ele>1134.33</ele>
        <time>2020-08-08T08:54:14.618Z</time>
      </trkpt>
      <trkpt lat="47.05669" lon="6.9816">
        <ele>1134.59</ele>
        <time>2020-08-08T08:54:16.715Z</time>
      </trkpt>
      <trkpt lat="47.05675" lon="6.98165">
        <ele>1135.23</ele>
        <time>2020-08-08T08:54:20.051Z</time>
      </trkpt>
      <trkpt lat="47.0571" lon="6.9819">
        <ele>1138.87</ele>
        <time>2020-08-08T08:54:39.000Z</time>
      </trkpt>
      <trkpt lat="47.05716" lon="6.98195">
        <ele>1139.55</ele>
        <time>2020-08-08T08:54:42.522Z</time>
      </trkpt>
      <trkpt lat="47.05723" lon="6.98206">
        <ele>1140.31</ele>
        <time>2020-08-08T08:54:46.761Z</time>
      </trkpt>
      <trkpt lat="47.05727" lon="6.98215">
        <ele>1140.95</ele>
        <time>2020-08-08T08:54:50.136Z</time>
      </trkpt>
      <trkpt lat="47.05752" lon="6.98265">
        <ele>1143.96</ele>
        <time>2020-08-08T08:55:07.219Z</time>
      </trkpt>
      <trkpt lat="47.05791" lon="6.9834">
        <ele>1145.43</ele>
        <time>2020-08-08T08:55:23.403Z</time>
      </trkpt>
      <trkpt lat="47.05801" lon="6.98355">
        <ele>1145.68</ele>
        <time>2020-08-08T08:55:26.791Z</time>
      </trkpt>
      <trkpt lat="47.05818" lon="6.98377">
        <ele>1146.16</ele>
        <time>2020-08-08T08:55:32.388Z</time>
      </trkpt>
      <trkpt lat="47.05818" lon="6.98376">
        <ele>1146.16</ele>
        <time>2020-08-08T08:55:32.524Z</time>
      </trkpt>
      <trkpt lat="47.05872" lon="6.98442">
        <ele>1147.82</ele>
        <time>2020-08-08T08:55:50.372Z</time>
      </trkpt>
      <trkpt lat="47.0591" lon="6.98487">
        <ele>1150.07</ele>
        <time>2020-08-08T08:56:06.939Z</time>
      </trkpt>
      <trkpt lat="47.05925" lon="6.98504">
        <ele>1151.01</ele>
        <time>2020-08-08T08:56:13.518Z</time>
      </trkpt>
      <trkpt lat="47.06021" lon="6.98598">
        <ele>1155.23</ele>
        <time>2020-08-08T08:56:48.055Z</time>
      </trkpt>
      <trkpt lat="47.06066" lon="6.98641">
        <ele>1156.89</ele>
        <time>2020-08-08T08:57:02.965Z</time>
      </trkpt>
      <trkpt lat="47.06104" lon="6.98678">
        <ele>1158.55</ele>
        <time>2020-08-08T08:57:16.581Z</time>
      </trkpt>
      <trkpt lat="47.0613" lon="6.98704">
        <ele>1159.5</ele>
        <time>2020-08-08T08:57:25.237Z</time>
      </trkpt>
      <trkpt lat="47.0614" lon="6.9871">
        <ele>1159.86</ele>
        <time>2020-08-08T08:57:28.332Z</time>
      </trkpt>
      <trkpt lat="47.0616" lon="6.98717">
        <ele>1160.51</ele>
        <time>2020-08-08T08:57:34.093Z</time>
      </trkpt>
      <trkpt lat="47.06193" lon="6.98721">
        <ele>1162</ele>
        <time>2020-08-08T08:57:45.251Z</time>
      </trkpt>
      <trkpt lat="47.06244" lon="6.98727">
        <ele>1166.56</ele>
        <time>2020-08-08T08:58:09.196Z</time>
      </trkpt>
      <trkpt lat="47.06261" lon="6.98731">
        <ele>1168.17</ele>
        <time>2020-08-08T08:58:17.578Z</time>
      </trkpt>
      <trkpt lat="47.06277" lon="6.98732">
        <ele>1169.42</ele>
        <time>2020-08-08T08:58:24.407Z</time>
      </trkpt>
      <trkpt lat="47.06307" lon="6.9872">
        <ele>1170.83</ele>
        <time>2020-08-08T08:58:34.908Z</time>
      </trkpt>
      <trkpt lat="47.06315" lon="6.98716">
        <ele>1171.19</ele>
        <time>2020-08-08T08:58:37.667Z</time>
      </trkpt>
      <trkpt lat="47.0634" lon="6.98703">
        <ele>1172.29</ele>
        <time>2020-08-08T08:58:46.180Z</time>
      </trkpt>
      <trkpt lat="47.06347" lon="6.987">
        <ele>1172.64</ele>
        <time>2020-08-08T08:58:48.685Z</time>
      </trkpt>
      <trkpt lat="47.06365" lon="6.98695">
        <ele>1173.52</ele>
        <time>2020-08-08T08:58:54.979Z</time>
      </trkpt>
      <trkpt lat="47.06387" lon="6.98692">
        <ele>1174.09</ele>
        <time>2020-08-08T08:59:00.738Z</time>
      </trkpt>
      <trkpt lat="47.06393" lon="6.98692">
        <ele>1174.04</ele>
        <time>2020-08-08T08:59:01.663Z</time>
      </trkpt>
      <trkpt lat="47.06429" lon="6.98694">
        <ele>1174.23</ele>
        <time>2020-08-08T08:59:09.198Z</time>
      </trkpt>
      <trkpt lat="47.0647" lon="6.98695">
        <ele>1174.23</ele>
        <time>2020-08-08T08:59:17.360Z</time>
      </trkpt>
      <trkpt lat="47.06483" lon="6.98696">
        <ele>1175.01</ele>
        <time>2020-08-08T08:59:22.205Z</time>
      </trkpt>
      <trkpt lat="47.06535" lon="6.98699">
        <ele>1176.24</ele>
        <time>2020-08-08T08:59:35.425Z</time>
      </trkpt>
      <trkpt lat="47.06577" lon="6.987">
        <ele>1177.8</ele>
        <time>2020-08-08T08:59:48.097Z</time>
      </trkpt>
      <trkpt lat="47.06649" lon="6.98711">
        <ele>1180.8</ele>
        <time>2020-08-08T09:00:11.321Z</time>
      </trkpt>
      <trkpt lat="47.06663" lon="6.98713">
        <ele>1181.41</ele>
        <time>2020-08-08T09:00:15.966Z</time>
      </trkpt>
      <trkpt lat="47.06724" lon="6.98716">
        <ele>1181.9</ele>
        <time>2020-08-08T09:00:29.078Z</time>
      </trkpt>
      <trkpt lat="47.06788" lon="6.98724">
        <ele>1182.05</ele>
        <time>2020-08-08T09:00:42.142Z</time>
      </trkpt>
      <trkpt lat="47.06787" lon="6.98724">
        <ele>1182.05</ele>
        <time>2020-08-08T09:00:42.341Z</time>
      </trkpt>
      <trkpt lat="47.06849" lon="6.98731">
        <ele>1181.52</ele>
        <time>2020-08-08T09:00:51.908Z</time>
      </trkpt>
      <trkpt lat="47.06911" lon="6.98749">
        <ele>1180.79</ele>
        <time>2020-08-08T09:01:01.248Z</time>
      </trkpt>
      <trkpt lat="47.07092" lon="6.98801">
        <ele>1179.34</ele>
        <time>2020-08-08T09:01:29.878Z</time>
      </trkpt>
      <trkpt lat="47.0711" lon="6.98808">
        <ele>1179.65</ele>
        <time>2020-08-08T09:01:34.251Z</time>
      </trkpt>
      <trkpt lat="47.07134" lon="6.98818">
        <ele>1179.87</ele>
        <time>2020-08-08T09:01:39.653Z</time>
      </trkpt>
      <trkpt lat="47.07162" lon="6.98834">
        <ele>1180.28</ele>
        <time>2020-08-08T09:01:46.488Z</time>
      </trkpt>
      <trkpt lat="47.07175" lon="6.98842">
        <ele>1180.46</ele>
        <time>2020-08-08T09:01:49.665Z</time>
      </trkpt>
      <trkpt lat="47.07198" lon="6.98863">
        <ele>1180.7</ele>
        <time>2020-08-08T09:01:55.532Z</time>
      </trkpt>
      <trkpt lat="47.07215" lon="6.98881">
        <ele>1180.83</ele>
        <time>2020-08-08T09:01:59.955Z</time>
      </trkpt>
      <trkpt lat="47.07237" lon="6.98904">
        <ele>1180.98</ele>
        <time>2020-08-08T09:02:05.619Z</time>
      </trkpt>
      <trkpt lat="47.07255" lon="6.98928">
        <ele>1180.93</ele>
        <time>2020-08-08T09:02:10.311Z</time>
      </trkpt>
      <trkpt lat="47.0727" lon="6.98949">
        <ele>1181.39</ele>
        <time>2020-08-08T09:02:15.489Z</time>
      </trkpt>
      <trkpt lat="47.07298" lon="6.98978">
        <ele>1182.52</ele>
        <time>2020-08-08T09:02:25.261Z</time>
      </trkpt>
      <trkpt lat="47.07302" lon="6.98981">
        <ele>1182.86</ele>
        <time>2020-08-08T09:02:27.140Z</time>
      </trkpt>
      <trkpt lat="47.07319" lon="6.98995">
        <ele>1183.2</ele>
        <time>2020-08-08T09:02:31.758Z</time>
      </trkpt>
      <trkpt lat="47.0736" lon="6.99023">
        <ele>1184.5</ele>
        <time>2020-08-08T09:02:43.975Z</time>
      </trkpt>
      <trkpt lat="47.07372" lon="6.99034">
        <ele>1184.92</ele>
        <time>2020-08-08T09:02:47.843Z</time>
      </trkpt>
      <trkpt lat="47.074" lon="6.99067">
        <ele>1185.92</ele>
        <time>2020-08-08T09:02:57.437Z</time>
      </trkpt>
      <trkpt lat="47.07412" lon="6.99085">
        <ele>1186.47</ele>
        <time>2020-08-08T09:03:02.271Z</time>
      </trkpt>
      <trkpt lat="47.07434" lon="6.99124">
        <ele>1187.35</ele>
        <time>2020-08-08T09:03:11.229Z</time>
      </trkpt>
      <trkpt lat="47.0744" lon="6.99133">
        <ele>1187.55</ele>
        <time>2020-08-08T09:03:13.400Z</time>
      </trkpt>
      <trkpt lat="47.07478" lon="6.99195">
        <ele>1189.27</ele>
        <time>2020-08-08T09:03:29.046Z</time>
      </trkpt>
      <trkpt lat="47.07511" lon="6.99235">
        <ele>1190.13</ele>
        <time>2020-08-08T09:03:39.485Z</time>
      </trkpt>
      <trkpt lat="47.07518" lon="6.99245">
        <ele>1190.13</ele>
        <time>2020-08-08T09:03:41.429Z</time>
      </trkpt>
      <trkpt lat="47.07535" lon="6.99272">
        <ele>1190.98</ele>
        <time>2020-08-08T09:03:48.662Z</time>
      </trkpt>
      <trkpt lat="47.07544" lon="6.99291">
        <ele>1191.63</ele>
        <time>2020-08-08T09:03:53.704Z</time>
      </trkpt>
      <trkpt lat="47.07566" lon="6.99337">
        <ele>1192.57</ele>
        <time>2020-08-08T09:04:03.534Z</time>
      </trkpt>
      <trkpt lat="47.07585" lon="6.99359">
        <ele>1193.37</ele>
        <time>2020-08-08T09:04:10.443Z</time>
      </trkpt>
      <trkpt lat="47.07601" lon="6.99381">
        <ele>1193.97</ele>
        <time>2020-08-08T09:04:16.265Z</time>
      </trkpt>
      <trkpt lat="47.07618" lon="6.99414">
        <ele>1194.84</ele>
        <time>2020-08-08T09:04:24.086Z</time>
      </trkpt>
      <trkpt lat="47.07632" lon="6.99441">
        <ele>1195.28</ele>
        <time>2020-08-08T09:04:29.657Z</time>
      </trkpt>
      <trkpt lat="47.07664" lon="6.99489">
        <ele>1196.63</ele>
        <time>2020-08-08T09:04:42.135Z</time>
      </trkpt>
      <trkpt lat="47.07666" lon="6.99494">
        <ele>1196.85</ele>
        <time>2020-08-08T09:04:43.563Z</time>
      </trkpt>
      <trkpt lat="47.07668" lon="6.99498">
        <ele>1196.93</ele>
        <time>2020-08-08T09:04:44.422Z</time>
      </trkpt>
      <trkpt lat="47.07702" lon="6.99565">
        <ele>1198.6</ele>
        <time>2020-08-08T09:04:59.912Z</time>
      </trkpt>
      <trkpt lat="47.07709" lon="6.99581">
        <ele>1198.67</ele>
        <time>2020-08-08T09:05:02.624Z</time>
      </trkpt>
      <trkpt lat="47.0773" lon="6.9962">
        <ele>1200.04</ele>
        <time>2020-08-08T09:05:13.332Z</time>
      </trkpt>
      <trkpt lat="47.07786" lon="6.99705">
        <ele>1202.1</ele>
        <time>2020-08-08T09:05:34.268Z</time>
      </trkpt>
      <trkpt lat="47.07823" lon="6.9975">
        <ele>1203.64</ele>
        <time>2020-08-08T09:05:47.805Z</time>
      </trkpt>
      <trkpt lat="47.07808" lon="6.99561">
        <ele>1194.6</ele>
        <time>2020-08-08T09:05:59.976Z</time>
      </trkpt>
      <trkpt lat="47.07813" lon="6.99522">
        <ele>1192.1</ele>
        <time>2020-08-08T09:06:02.514Z</time>
      </trkpt>
      <trkpt lat="47.07826" lon="6.99488">
        <ele>1186.1</ele>
        <time>2020-08-08T09:06:05.008Z</time>
      </trkpt>
      <trkpt lat="47.07843" lon="6.9945">
        <ele>1184.4</ele>
        <time>2020-08-08T09:06:07.933Z</time>
      </trkpt>
      <trkpt lat="47.07872" lon="6.99409">
        <ele>1179.2</ele>
        <time>2020-08-08T09:06:11.714Z</time>
      </trkpt>
      <trkpt lat="47.07899" lon="6.99385">
        <ele>1179.8</ele>
        <time>2020-08-08T09:06:19.320Z</time>
      </trkpt>
      <trkpt lat="47.07914" lon="6.99368">
        <ele>1179.2</ele>
        <time>2020-08-08T09:06:21.540Z</time>
      </trkpt>
      <trkpt lat="47.07938" lon="6.99364">
        <ele>1185</ele>
        <time>2020-08-08T09:06:40.083Z</time>
      </trkpt>
      <trkpt lat="47.07959" lon="6.99363">
        <ele>1185.7</ele>
        <time>2020-08-08T09:06:46.102Z</time>
      </trkpt>
      <trkpt lat="47.07999" lon="6.99405">
        <ele>1194.1</ele>
        <time>2020-08-08T09:07:23.854Z</time>
      </trkpt>
      <trkpt lat="47.08039" lon="6.99429">
        <ele>1203.9</ele>
        <time>2020-08-08T09:07:57.027Z</time>
      </trkpt>
      <trkpt lat="47.08114" lon="6.99481">
        <ele>1208.8</ele>
        <time>2020-08-08T09:08:27.719Z</time>
      </trkpt>
      <trkpt lat="47.08199" lon="6.99529">
        <ele>1226</ele>
        <time>2020-08-08T09:09:37.634Z</time>
      </trkpt>
      <trkpt lat="47.08279" lon="6.99608">
        <ele>1244</ele>
        <time>2020-08-08T09:10:51.646Z</time>
      </trkpt>
      <trkpt lat="47.08305" lon="6.99642">
        <ele>1241.23</ele>
        <time>2020-08-08T09:10:54.916Z</time>
      </trkpt>
      <trkpt lat="47.08325" lon="6.99659">
        <ele>1242.67</ele>
        <time>2020-08-08T09:11:03.665Z</time>
      </trkpt>
      <trkpt lat="47.08348" lon="6.99685">
        <ele>1245.47</ele>
        <time>2020-08-08T09:11:18.188Z</time>
      </trkpt>
      <trkpt lat="47.08374" lon="6.9971">
        <ele>1249.45</ele>
        <time>2020-08-08T09:11:40.330Z</time>
      </trkpt>
      <trkpt lat="47.08382" lon="6.99716">
        <ele>1250.44</ele>
        <time>2020-08-08T09:11:45.493Z</time>
      </trkpt>
      <trkpt lat="47.08412" lon="6.99733">
        <ele>1253.99</ele>
        <time>2020-08-08T09:12:04.014Z</time>
      </trkpt>
      <trkpt lat="47.08431" lon="6.9975">
        <ele>1254.76</ele>
        <time>2020-08-08T09:12:10.498Z</time>
      </trkpt>
      <trkpt lat="47.08437" lon="6.99758">
        <ele>1255.06</ele>
        <time>2020-08-08T09:12:12.938Z</time>
      </trkpt>
      <trkpt lat="47.0845" lon="6.99803">
        <ele>1255.31</ele>
        <time>2020-08-08T09:12:20.053Z</time>
      </trkpt>
      <trkpt lat="47.08452" lon="6.99815">
        <ele>1255.36</ele>
        <time>2020-08-08T09:12:21.824Z</time>
      </trkpt>
      <trkpt lat="47.08459" lon="6.99832">
        <ele>1255.45</ele>
        <time>2020-08-08T09:12:24.691Z</time>
      </trkpt>
      <trkpt lat="47.08471" lon="6.99856">
        <ele>1255.62</ele>
        <time>2020-08-08T09:12:29.062Z</time>
      </trkpt>
      <trkpt lat="47.08474" lon="6.99863">
        <ele>1255.64</ele>
        <time>2020-08-08T09:12:30.221Z</time>
      </trkpt>
      <trkpt lat="47.08482" lon="6.99879">
        <ele>1255.83</ele>
        <time>2020-08-08T09:12:33.309Z</time>
      </trkpt>
      <trkpt lat="47.0849" lon="6.99899">
        <ele>1256.19</ele>
        <time>2020-08-08T09:12:37.282Z</time>
      </trkpt>
      <trkpt lat="47.08501" lon="6.99926">
        <ele>1256.55</ele>
        <time>2020-08-08T09:12:42.322Z</time>
      </trkpt>
      <trkpt lat="47.08522" lon="6.99977">
        <ele>1258.16</ele>
        <time>2020-08-08T09:12:55.010Z</time>
      </trkpt>
      <trkpt lat="47.08527" lon="6.99989">
        <ele>1258.46</ele>
        <time>2020-08-08T09:12:57.684Z</time>
      </trkpt>
      <trkpt lat="47.08536" lon="7.00008">
        <ele>1258.8</ele>
        <time>2020-08-08T09:13:01.593Z</time>
      </trkpt>
      <trkpt lat="47.08538" lon="7.00016">
        <ele>1259.18</ele>
        <time>2020-08-08T09:13:03.841Z</time>
      </trkpt>
      <trkpt lat="47.08562" lon="7.00061">
        <ele>1260.17</ele>
        <time>2020-08-08T09:13:13.941Z</time>
      </trkpt>
      <trkpt lat="47.08565" lon="7.00064">
        <ele>1260.22</ele>
        <time>2020-08-08T09:13:14.768Z</time>
      </trkpt>
      <trkpt lat="47.08578" lon="7.00073">
        <ele>1259.53</ele>
        <time>2020-08-08T09:13:16.208Z</time>
      </trkpt>
      <trkpt lat="47.08597" lon="7.00089">
        <ele>1258.53</ele>
        <time>2020-08-08T09:13:18.449Z</time>
      </trkpt>
      <trkpt lat="47.08608" lon="7.00097">
        <ele>1258.28</ele>
        <time>2020-08-08T09:13:20.077Z</time>
      </trkpt>
      <trkpt lat="47.08639" lon="7.00118">
        <ele>1257.56</ele>
        <time>2020-08-08T09:13:24.564Z</time>
      </trkpt>
      <trkpt lat="47.08649" lon="7.00126">
        <ele>1257.53</ele>
        <time>2020-08-08T09:13:26.743Z</time>
      </trkpt>
      <trkpt lat="47.0867" lon="7.00142">
        <ele>1257.33</ele>
        <time>2020-08-08T09:13:30.386Z</time>
      </trkpt>
      <trkpt lat="47.08695" lon="7.00156">
        <ele>1256.56</ele>
        <time>2020-08-08T09:13:33.616Z</time>
      </trkpt>
      <trkpt lat="47.08706" lon="7.00161">
        <ele>1256.1</ele>
        <time>2020-08-08T09:13:34.858Z</time>
      </trkpt>
      <trkpt lat="47.0872" lon="7.00168">
        <ele>1255.24</ele>
        <time>2020-08-08T09:13:36.218Z</time>
      </trkpt>
      <trkpt lat="47.08726" lon="7.00173">
        <ele>1254.95</ele>
        <time>2020-08-08T09:13:36.948Z</time>
      </trkpt>
      <trkpt lat="47.08751" lon="7.00207">
        <ele>1253.09</ele>
        <time>2020-08-08T09:13:40.175Z</time>
      </trkpt>
      <trkpt lat="47.08777" lon="7.00242">
        <ele>1251.67</ele>
        <time>2020-08-08T09:13:43.969Z</time>
      </trkpt>
      <trkpt lat="47.08804" lon="7.00272">
        <ele>1251.21</ele>
        <time>2020-08-08T09:13:48.843Z</time>
      </trkpt>
      <trkpt lat="47.08813" lon="7.00282">
        <ele>1250.75</ele>
        <time>2020-08-08T09:13:50.052Z</time>
      </trkpt>
      <trkpt lat="47.0883" lon="7.00301">
        <ele>1251.85</ele>
        <time>2020-08-08T09:13:57.560Z</time>
      </trkpt>
      <trkpt lat="47.08851" lon="7.00322">
        <ele>1252.11</ele>
        <time>2020-08-08T09:14:03.140Z</time>
      </trkpt>
      <trkpt lat="47.08861" lon="7.00331">
        <ele>1252.2</ele>
        <time>2020-08-08T09:14:05.651Z</time>
      </trkpt>
      <trkpt lat="47.08899" lon="7.00361">
        <ele>1251.05</ele>
        <time>2020-08-08T09:14:10.978Z</time>
      </trkpt>
      <trkpt lat="47.08928" lon="7.00384">
        <ele>1251.12</ele>
        <time>2020-08-08T09:14:17.669Z</time>
      </trkpt>
      <trkpt lat="47.08931" lon="7.00388">
        <ele>1251.12</ele>
        <time>2020-08-08T09:14:18.475Z</time>
      </trkpt>
      <trkpt lat="47.0895" lon="7.004">
        <ele>1250.06</ele>
        <time>2020-08-08T09:14:20.490Z</time>
      </trkpt>
      <trkpt lat="47.08965" lon="7.00411">
        <ele>1249.02</ele>
        <time>2020-08-08T09:14:21.985Z</time>
      </trkpt>
      <trkpt lat="47.08995" lon="7.00436">
        <ele>1245.1</ele>
        <time>2020-08-08T09:14:25.225Z</time>
      </trkpt>
      <trkpt lat="47.09019" lon="7.00448">
        <ele>1243.29</ele>
        <time>2020-08-08T09:14:27.606Z</time>
      </trkpt>
      <trkpt lat="47.09029" lon="7.0045">
        <ele>1242.12</ele>
        <time>2020-08-08T09:14:28.554Z</time>
      </trkpt>
      <trkpt lat="47.09044" lon="7.00455">
        <ele>1240.08</ele>
        <time>2020-08-08T09:14:29.999Z</time>
      </trkpt>
      <trkpt lat="47.09051" lon="7.00457">
        <ele>1238.82</ele>
        <time>2020-08-08T09:14:30.669Z</time>
      </trkpt>
      <trkpt lat="47.09068" lon="7.00463">
        <ele>1237.69</ele>
        <time>2020-08-08T09:14:32.196Z</time>
      </trkpt>
      <trkpt lat="47.09085" lon="7.00468">
        <ele>1235.59</ele>
        <time>2020-08-08T09:14:33.825Z</time>
      </trkpt>
      <trkpt lat="47.09089" lon="7.0047">
        <ele>1235.14</ele>
        <time>2020-08-08T09:14:34.222Z</time>
      </trkpt>
      <trkpt lat="47.09099" lon="7.0048">
        <ele>1234.25</ele>
        <time>2020-08-08T09:14:35.358Z</time>
      </trkpt>
      <trkpt lat="47.09104" lon="7.00486">
        <ele>1234.04</ele>
        <time>2020-08-08T09:14:36.108Z</time>
      </trkpt>
      <trkpt lat="47.09112" lon="7.00492">
        <ele>1233.25</ele>
        <time>2020-08-08T09:14:36.951Z</time>
      </trkpt>
      <trkpt lat="47.09124" lon="7.00499">
        <ele>1232.71</ele>
        <time>2020-08-08T09:14:38.320Z</time>
      </trkpt>
      <trkpt lat="47.09134" lon="7.00505">
        <ele>1232.48</ele>
        <time>2020-08-08T09:14:39.737Z</time>
      </trkpt>
      <trkpt lat="47.09156" lon="7.00513">
        <ele>1231.55</ele>
        <time>2020-08-08T09:14:42.157Z</time>
      </trkpt>
      <trkpt lat="47.09161" lon="7.00516">
        <ele>1231.25</ele>
        <time>2020-08-08T09:14:42.665Z</time>
      </trkpt>
      <trkpt lat="47.09175" lon="7.00523">
        <ele>1230.53</ele>
        <time>2020-08-08T09:14:44.138Z</time>
      </trkpt>
      <trkpt lat="47.0918" lon="7.00524">
        <ele>1230.36</ele>
        <time>2020-08-08T09:14:44.717Z</time>
      </trkpt>
      <trkpt lat="47.09193" lon="7.00526">
        <ele>1228.78</ele>
        <time>2020-08-08T09:14:45.945Z</time>
      </trkpt>
      <trkpt lat="47.09201" lon="7.0053">
        <ele>1228.03</ele>
        <time>2020-08-08T09:14:46.738Z</time>
      </trkpt>
      <trkpt lat="47.09205" lon="7.00532">
        <ele>1227.53</ele>
        <time>2020-08-08T09:14:47.135Z</time>
      </trkpt>
      <trkpt lat="47.09215" lon="7.00542">
        <ele>1226.34</ele>
        <time>2020-08-08T09:14:48.271Z</time>
      </trkpt>
      <trkpt lat="47.09222" lon="7.00547">
        <ele>1225.85</ele>
        <time>2020-08-08T09:14:48.961Z</time>
      </trkpt>
      <trkpt lat="47.09251" lon="7.00566">
        <ele>1223.36</ele>
        <time>2020-08-08T09:14:51.943Z</time>
      </trkpt>
      <trkpt lat="47.09276" lon="7.00583">
        <ele>1221.86</ele>
        <time>2020-08-08T09:14:54.555Z</time>
      </trkpt>
      <trkpt lat="47.09288" lon="7.00587">
        <ele>1221.83</ele>
        <time>2020-08-08T09:14:56.916Z</time>
      </trkpt>
      <trkpt lat="47.09301" lon="7.00597">
        <ele>1221.58</ele>
        <time>2020-08-08T09:14:58.941Z</time>
      </trkpt>
      <trkpt lat="47.09311" lon="7.00604">
        <ele>1221.81</ele>
        <time>2020-08-08T09:15:01.663Z</time>
      </trkpt>
      <trkpt lat="47.09322" lon="7.0061">
        <ele>1221.95</ele>
        <time>2020-08-08T09:15:04.285Z</time>
      </trkpt>
      <trkpt lat="47.09334" lon="7.00621">
        <ele>1221.93</ele>
        <time>2020-08-08T09:15:07.041Z</time>
      </trkpt>
      <trkpt lat="47.09337" lon="7.00626">
        <ele>1222.02</ele>
        <time>2020-08-08T09:15:08.145Z</time>
      </trkpt>
      <trkpt lat="47.09357" lon="7.00643">
        <ele>1221.76</ele>
        <time>2020-08-08T09:15:11.573Z</time>
      </trkpt>
      <trkpt lat="47.09364" lon="7.00648">
        <ele>1222.51</ele>
        <time>2020-08-08T09:15:15.464Z</time>
      </trkpt>
      <trkpt lat="47.09381" lon="7.00662">
        <ele>1222.94</ele>
        <time>2020-08-08T09:15:20.325Z</time>
      </trkpt>
      <trkpt lat="47.09393" lon="7.00672">
        <ele>1222.96</ele>
        <time>2020-08-08T09:15:23.108Z</time>
      </trkpt>
      <trkpt lat="47.09395" lon="7.00674">
        <ele>1223.01</ele>
        <time>2020-08-08T09:15:23.702Z</time>
      </trkpt>
      <trkpt lat="47.09399" lon="7.0068">
        <ele>1222.78</ele>
        <time>2020-08-08T09:15:24.318Z</time>
      </trkpt>
      <trkpt lat="47.09404" lon="7.00685">
        <ele>1222.8</ele>
        <time>2020-08-08T09:15:25.559Z</time>
      </trkpt>
      <trkpt lat="47.09414" lon="7.00691">
        <ele>1223.37</ele>
        <time>2020-08-08T09:15:29.388Z</time>
      </trkpt>
      <trkpt lat="47.0942" lon="7.00694">
        <ele>1223.39</ele>
        <time>2020-08-08T09:15:30.687Z</time>
      </trkpt>
      <trkpt lat="47.09449" lon="7.00699">
        <ele>1225.79</ele>
        <time>2020-08-08T09:15:43.566Z</time>
      </trkpt>
      <trkpt lat="47.09488" lon="7.00705">
        <ele>1225.68</ele>
        <time>2020-08-08T09:15:51.049Z</time>
      </trkpt>
      <trkpt lat="47.09501" lon="7.00698">
        <ele>1223.75</ele>
        <time>2020-08-08T09:15:52.350Z</time>
      </trkpt>
      <trkpt lat="47.09571" lon="7.00683">
        <ele>1221.95</ele>
        <time>2020-08-08T09:16:01.203Z</time>
      </trkpt>
      <trkpt lat="47.0962" lon="7.00677">
        <ele>1225.11</ele>
        <time>2020-08-08T09:16:20.080Z</time>
      </trkpt>
      <trkpt lat="47.09601" lon="7.00657">
        <ele>1224.14</ele>
        <time>2020-08-08T09:16:22.566Z</time>
      </trkpt>
      <trkpt lat="47.09586" lon="7.00639">
        <ele>1224.17</ele>
        <time>2020-08-08T09:16:26.476Z</time>
      </trkpt>
      <trkpt lat="47.09585" lon="7.00637">
        <ele>1223.88</ele>
        <time>2020-08-08T09:16:26.635Z</time>
      </trkpt>
      <trkpt lat="47.09564" lon="7.00605">
        <ele>1223.6</ele>
        <time>2020-08-08T09:16:31.244Z</time>
      </trkpt>
      <trkpt lat="47.09557" lon="7.0059">
        <ele>1223.51</ele>
        <time>2020-08-08T09:16:33.182Z</time>
      </trkpt>
      <trkpt lat="47.09523" lon="7.00511">
        <ele>1223.14</ele>
        <time>2020-08-08T09:16:44.810Z</time>
      </trkpt>
      <trkpt lat="47.09518" lon="7.00496">
        <ele>1222.85</ele>
        <time>2020-08-08T09:16:46.232Z</time>
      </trkpt>
      <trkpt lat="47.09518" lon="7.00492">
        <ele>1222.75</ele>
        <time>2020-08-08T09:16:46.536Z</time>
      </trkpt>
      <trkpt lat="47.09518" lon="7.00487">
        <ele>1222.65</ele>
        <time>2020-08-08T09:16:46.944Z</time>
      </trkpt>
      <trkpt lat="47.09519" lon="7.00479">
        <ele>1222.25</ele>
        <time>2020-08-08T09:16:47.464Z</time>
      </trkpt>
      <trkpt lat="47.09524" lon="7.00452">
        <ele>1222.17</ele>
        <time>2020-08-08T09:16:51.026Z</time>
      </trkpt>
      <trkpt lat="47.09526" lon="7.00442">
        <ele>1222.15</ele>
        <time>2020-08-08T09:16:52.380Z</time>
      </trkpt>
      <trkpt lat="47.09529" lon="7.00417">
        <ele>1221.87</ele>
        <time>2020-08-08T09:16:54.788Z</time>
      </trkpt>
      <trkpt lat="47.09528" lon="7.00388">
        <ele>1220.56</ele>
        <time>2020-08-08T09:16:56.494Z</time>
      </trkpt>
      <trkpt lat="47.09526" lon="7.00374">
        <ele>1219.44</ele>
        <time>2020-08-08T09:16:57.409Z</time>
      </trkpt>
      <trkpt lat="47.09519" lon="7.00344">
        <ele>1216.7</ele>
        <time>2020-08-08T09:16:59.437Z</time>
      </trkpt>
      <trkpt lat="47.09515" lon="7.0033">
        <ele>1216.03</ele>
        <time>2020-08-08T09:17:00.339Z</time>
      </trkpt>
      <trkpt lat="47.09504" lon="7.00299">
        <ele>1213.06</ele>
        <time>2020-08-08T09:17:02.574Z</time>
      </trkpt>
      <trkpt lat="47.09503" lon="7.0027">
        <ele>1210.69</ele>
        <time>2020-08-08T09:17:04.431Z</time>
      </trkpt>
      <trkpt lat="47.09501" lon="7.0025">
        <ele>1208.78</ele>
        <time>2020-08-08T09:17:05.723Z</time>
      </trkpt>
      <trkpt lat="47.09501" lon="7.00222">
        <ele>1206.02</ele>
        <time>2020-08-08T09:17:07.514Z</time>
      </trkpt>
      <trkpt lat="47.09503" lon="7.00191">
        <ele>1202.25</ele>
        <time>2020-08-08T09:17:09.505Z</time>
      </trkpt>
      <trkpt lat="47.09501" lon="7.00179">
        <ele>1200.78</ele>
        <time>2020-08-08T09:17:10.295Z</time>
      </trkpt>
      <trkpt lat="47.09495" lon="7.00168">
        <ele>1198.92</ele>
        <time>2020-08-08T09:17:11.196Z</time>
      </trkpt>
      <trkpt lat="47.0949" lon="7.00159">
        <ele>1196.85</ele>
        <time>2020-08-08T09:17:11.939Z</time>
      </trkpt>
      <trkpt lat="47.09468" lon="7.00133">
        <ele>1188.43</ele>
        <time>2020-08-08T09:17:14.591Z</time>
      </trkpt>
      <trkpt lat="47.09461" lon="7.00126">
        <ele>1186.16</ele>
        <time>2020-08-08T09:17:15.386Z</time>
      </trkpt>
      <trkpt lat="47.09453" lon="7.00113">
        <ele>1184.25</ele>
        <time>2020-08-08T09:17:16.507Z</time>
      </trkpt>
      <trkpt lat="47.09444" lon="7.00099">
        <ele>1179.31</ele>
        <time>2020-08-08T09:17:17.738Z</time>
      </trkpt>
      <trkpt lat="47.09418" lon="7.00075">
        <ele>1171.05</ele>
        <time>2020-08-08T09:17:20.622Z</time>
      </trkpt>
      <trkpt lat="47.09408" lon="7.00054">
        <ele>1166.43</ele>
        <time>2020-08-08T09:17:22.261Z</time>
      </trkpt>
      <trkpt lat="47.09405" lon="7.00049">
        <ele>1164.73</ele>
        <time>2020-08-08T09:17:22.687Z</time>
      </trkpt>
      <trkpt lat="47.09398" lon="7.00041">
        <ele>1162.93</ele>
        <time>2020-08-08T09:17:23.520Z</time>
      </trkpt>
      <trkpt lat="47.09395" lon="7.0004">
        <ele>1162.08</ele>
        <time>2020-08-08T09:17:23.809Z</time>
      </trkpt>
      <trkpt lat="47.09388" lon="7.00039">
        <ele>1160.39</ele>
        <time>2020-08-08T09:17:24.470Z</time>
      </trkpt>
      <trkpt lat="47.09378" lon="7.00044">
        <ele>1158.45</ele>
        <time>2020-08-08T09:17:25.462Z</time>
      </trkpt>
      <trkpt lat="47.09373" lon="7.00043">
        <ele>1157.6</ele>
        <time>2020-08-08T09:17:25.936Z</time>
      </trkpt>
      <trkpt lat="47.09357" lon="7.00035">
        <ele>1154.35</ele>
        <time>2020-08-08T09:17:27.523Z</time>
      </trkpt>
      <trkpt lat="47.09355" lon="7.00031">
        <ele>1153.61</ele>
        <time>2020-08-08T09:17:27.841Z</time>
      </trkpt>
      <trkpt lat="47.09349" lon="7.00013">
        <ele>1150.54</ele>
        <time>2020-08-08T09:17:29.122Z</time>
      </trkpt>
      <trkpt lat="47.09343" lon="6.99999">
        <ele>1147.72</ele>
        <time>2020-08-08T09:17:30.180Z</time>
      </trkpt>
      <trkpt lat="47.09337" lon="6.99988">
        <ele>1145.26</ele>
        <time>2020-08-08T09:17:31.081Z</time>
      </trkpt>
      <trkpt lat="47.09311" lon="6.9996">
        <ele>1140.05</ele>
        <time>2020-08-08T09:17:34.110Z</time>
      </trkpt>
      <trkpt lat="47.09311" lon="6.99959">
        <ele>1140.05</ele>
        <time>2020-08-08T09:17:34.245Z</time>
      </trkpt>
      <trkpt lat="47.09301" lon="6.99948">
        <ele>1136.63</ele>
        <time>2020-08-08T09:17:35.418Z</time>
      </trkpt>
      <trkpt lat="47.09277" lon="6.99903">
        <ele>1130.21</ele>
        <time>2020-08-08T09:17:39.074Z</time>
      </trkpt>
      <trkpt lat="47.09269" lon="6.99892">
        <ele>1129.43</ele>
        <time>2020-08-08T09:17:40.103Z</time>
      </trkpt>
      <trkpt lat="47.0923" lon="6.99853">
        <ele>1122.25</ele>
        <time>2020-08-08T09:17:44.535Z</time>
      </trkpt>
      <trkpt lat="47.092" lon="6.99824">
        <ele>1116.94</ele>
        <time>2020-08-08T09:17:47.908Z</time>
      </trkpt>
      <trkpt lat="47.09182" lon="6.99795">
        <ele>1112.82</ele>
        <time>2020-08-08T09:17:50.417Z</time>
      </trkpt>
      <trkpt lat="47.09168" lon="6.99774">
        <ele>1109.24</ele>
        <time>2020-08-08T09:17:52.297Z</time>
      </trkpt>
      <trkpt lat="47.09151" lon="6.99756">
        <ele>1105.98</ele>
        <time>2020-08-08T09:17:54.265Z</time>
      </trkpt>
      <trkpt lat="47.09138" lon="6.99745">
        <ele>1104.47</ele>
        <time>2020-08-08T09:17:55.674Z</time>
      </trkpt>
      <trkpt lat="47.09133" lon="6.9974">
        <ele>1102.95</ele>
        <time>2020-08-08T09:17:56.242Z</time>
      </trkpt>
      <trkpt lat="47.09103" lon="6.99711">
        <ele>1097.12</ele>
        <time>2020-08-08T09:17:59.616Z</time>
      </trkpt>
      <trkpt lat="47.09094" lon="6.99704">
        <ele>1095.31</ele>
        <time>2020-08-08T09:18:00.572Z</time>
      </trkpt>
      <trkpt lat="47.0907" lon="6.99692">
        <ele>1092.12</ele>
        <time>2020-08-08T09:18:02.953Z</time>
      </trkpt>
      <trkpt lat="47.09048" lon="6.99679">
        <ele>1089.83</ele>
        <time>2020-08-08T09:18:05.181Z</time>
      </trkpt>
      <trkpt lat="47.09037" lon="6.99677">
        <ele>1089.3</ele>
        <time>2020-08-08T09:18:06.293Z</time>
      </trkpt>
      <trkpt lat="47.09002" lon="6.99668">
        <ele>1086.56</ele>
        <time>2020-08-08T09:18:09.631Z</time>
      </trkpt>
      <trkpt lat="47.08993" lon="6.99661">
        <ele>1085.23</ele>
        <time>2020-08-08T09:18:10.587Z</time>
      </trkpt>
      <trkpt lat="47.08968" lon="6.99641">
        <ele>1081.6</ele>
        <time>2020-08-08T09:18:13.261Z</time>
      </trkpt>
      <trkpt lat="47.08936" lon="6.996">
        <ele>1075.61</ele>
        <time>2020-08-08T09:18:17.250Z</time>
      </trkpt>
      <trkpt lat="47.08917" lon="6.99569">
        <ele>1069.3</ele>
        <time>2020-08-08T09:18:19.917Z</time>
      </trkpt>
      <trkpt lat="47.089" lon="6.99543">
        <ele>1064.4</ele>
        <time>2020-08-08T09:18:22.222Z</time>
      </trkpt>
      <trkpt lat="47.0888" lon="6.99518">
        <ele>1059.66</ele>
        <time>2020-08-08T09:18:24.689Z</time>
      </trkpt>
      <trkpt lat="47.08861" lon="6.99498">
        <ele>1056.41</ele>
        <time>2020-08-08T09:18:26.884Z</time>
      </trkpt>
      <trkpt lat="47.08844" lon="6.99484">
        <ele>1051.19</ele>
        <time>2020-08-08T09:18:28.715Z</time>
      </trkpt>
      <trkpt lat="47.08843" lon="6.99484">
        <ele>1051.19</ele>
        <time>2020-08-08T09:18:28.914Z</time>
      </trkpt>
      <trkpt lat="47.08794" lon="6.99436">
        <ele>1045.29</ele>
        <time>2020-08-08T09:18:34.446Z</time>
      </trkpt>
      <trkpt lat="47.08784" lon="6.99427">
        <ele>1043.82</ele>
        <time>2020-08-08T09:18:35.548Z</time>
      </trkpt>
      <trkpt lat="47.08767" lon="6.99408">
        <ele>1040.65</ele>
        <time>2020-08-08T09:18:37.554Z</time>
      </trkpt>
      <trkpt lat="47.08755" lon="6.99395">
        <ele>1038.83</ele>
        <time>2020-08-08T09:18:38.955Z</time>
      </trkpt>
      <trkpt lat="47.08739" lon="6.99381">
        <ele>1037.28</ele>
        <time>2020-08-08T09:18:40.704Z</time>
      </trkpt>
      <trkpt lat="47.08695" lon="6.99351">
        <ele>1033.71</ele>
        <time>2020-08-08T09:18:45.260Z</time>
      </trkpt>
      <trkpt lat="47.08688" lon="6.99346">
        <ele>1032.49</ele>
        <time>2020-08-08T09:18:45.991Z</time>
      </trkpt>
      <trkpt lat="47.08673" lon="6.99328">
        <ele>1029.08</ele>
        <time>2020-08-08T09:18:47.811Z</time>
      </trkpt>
      <trkpt lat="47.08656" lon="6.99293">
        <ele>1023.48</ele>
        <time>2020-08-08T09:18:50.560Z</time>
      </trkpt>
      <trkpt lat="47.08645" lon="6.99269">
        <ele>1019.88</ele>
        <time>2020-08-08T09:18:52.411Z</time>
      </trkpt>
      <trkpt lat="47.08643" lon="6.99255">
        <ele>1018.33</ele>
        <time>2020-08-08T09:18:53.325Z</time>
      </trkpt>
      <trkpt lat="47.08644" lon="6.99242">
        <ele>1016.69</ele>
        <time>2020-08-08T09:18:54.162Z</time>
      </trkpt>
      <trkpt lat="47.08648" lon="6.99229">
        <ele>1015.17</ele>
        <time>2020-08-08T09:18:55.074Z</time>
      </trkpt>
      <trkpt lat="47.08652" lon="6.99224">
        <ele>1014.7</ele>
        <time>2020-08-08T09:18:55.568Z</time>
      </trkpt>
      <trkpt lat="47.08684" lon="6.99191">
        <ele>1009.4</ele>
        <time>2020-08-08T09:18:59.240Z</time>
      </trkpt>
      <trkpt lat="47.08703" lon="6.99169">
        <ele>1008.46</ele>
        <time>2020-08-08T09:19:01.878Z</time>
      </trkpt>
      <trkpt lat="47.08704" lon="6.99167">
        <ele>1007.53</ele>
        <time>2020-08-08T09:19:02.037Z</time>
      </trkpt>
      <trkpt lat="47.08724" lon="6.99146">
        <ele>1005.56</ele>
        <time>2020-08-08T09:19:04.346Z</time>
      </trkpt>
      <trkpt lat="47.0873" lon="6.99138">
        <ele>1004.75</ele>
        <time>2020-08-08T09:19:05.107Z</time>
      </trkpt>
      <trkpt lat="47.08736" lon="6.99125">
        <ele>1003.69</ele>
        <time>2020-08-08T09:19:06.112Z</time>
      </trkpt>
      <trkpt lat="47.08746" lon="6.99112">
        <ele>1002.67</ele>
        <time>2020-08-08T09:19:07.366Z</time>
      </trkpt>
      <trkpt lat="47.08751" lon="6.99107">
        <ele>1002.03</ele>
        <time>2020-08-08T09:19:07.934Z</time>
      </trkpt>
      <trkpt lat="47.08776" lon="6.99083">
        <ele>999.33</ele>
        <time>2020-08-08T09:19:10.739Z</time>
      </trkpt>
      <trkpt lat="47.08783" lon="6.99077">
        <ele>998.39</ele>
        <time>2020-08-08T09:19:11.501Z</time>
      </trkpt>
      <trkpt lat="47.08793" lon="6.99072">
        <ele>997.63</ele>
        <time>2020-08-08T09:19:12.493Z</time>
      </trkpt>
      <trkpt lat="47.08799" lon="6.99071">
        <ele>997.43</ele>
        <time>2020-08-08T09:19:13.190Z</time>
      </trkpt>
      <trkpt lat="47.08816" lon="6.9907">
        <ele>997.15</ele>
        <time>2020-08-08T09:19:15.553Z</time>
      </trkpt>
      <trkpt lat="47.08829" lon="6.99071">
        <ele>997.09</ele>
        <time>2020-08-08T09:19:17.973Z</time>
      </trkpt>
      <trkpt lat="47.08836" lon="6.99073">
        <ele>997.03</ele>
        <time>2020-08-08T09:19:19.072Z</time>
      </trkpt>
      <trkpt lat="47.08853" lon="6.99081">
        <ele>997.17</ele>
        <time>2020-08-08T09:19:22.900Z</time>
      </trkpt>
      <trkpt lat="47.08864" lon="6.99087">
        <ele>997.2</ele>
        <time>2020-08-08T09:19:25.291Z</time>
      </trkpt>
      <trkpt lat="47.08901" lon="6.99108">
        <ele>998.18</ele>
        <time>2020-08-08T09:19:35.496Z</time>
      </trkpt>
      <trkpt lat="47.08916" lon="6.99119">
        <ele>998.35</ele>
        <time>2020-08-08T09:19:39.175Z</time>
      </trkpt>
      <trkpt lat="47.08921" lon="6.99122">
        <ele>998.53</ele>
        <time>2020-08-08T09:19:40.722Z</time>
      </trkpt>
      <trkpt lat="47.08953" lon="6.99146">
        <ele>998.83</ele>
        <time>2020-08-08T09:19:48.466Z</time>
      </trkpt>
      <trkpt lat="47.08959" lon="6.9915">
        <ele>998.82</ele>
        <time>2020-08-08T09:19:49.748Z</time>
      </trkpt>
      <trkpt lat="47.08971" lon="6.99155">
        <ele>999.08</ele>
        <time>2020-08-08T09:19:52.816Z</time>
      </trkpt>
      <trkpt lat="47.0898" lon="6.99157">
        <ele>999.08</ele>
        <time>2020-08-08T09:19:54.628Z</time>
      </trkpt>
      <trkpt lat="47.08983" lon="6.99157">
        <ele>998.72</ele>
        <time>2020-08-08T09:19:54.910Z</time>
      </trkpt>
      <trkpt lat="47.08999" lon="6.99151">
        <ele>996.72</ele>
        <time>2020-08-08T09:19:56.461Z</time>
      </trkpt>
      <trkpt lat="47.09015" lon="6.99141">
        <ele>993.79</ele>
        <time>2020-08-08T09:19:58.094Z</time>
      </trkpt>
      <trkpt lat="47.09029" lon="6.99133">
        <ele>991.13</ele>
        <time>2020-08-08T09:19:59.505Z</time>
      </trkpt>
      <trkpt lat="47.0904" lon="6.99129">
        <ele>989.43</ele>
        <time>2020-08-08T09:20:00.569Z</time>
      </trkpt>
      <trkpt lat="47.09062" lon="6.99122">
        <ele>985.24</ele>
        <time>2020-08-08T09:20:02.684Z</time>
      </trkpt>
      <trkpt lat="47.09074" lon="6.99117">
        <ele>983.19</ele>
        <time>2020-08-08T09:20:03.855Z</time>
      </trkpt>
      <trkpt lat="47.09083" lon="6.99112">
        <ele>981.83</ele>
        <time>2020-08-08T09:20:04.759Z</time>
      </trkpt>
      <trkpt lat="47.09126" lon="6.99078">
        <ele>974.03</ele>
        <time>2020-08-08T09:20:09.346Z</time>
      </trkpt>
      <trkpt lat="47.09147" lon="6.99061">
        <ele>970.46</ele>
        <time>2020-08-08T09:20:11.598Z</time>
      </trkpt>
      <trkpt lat="47.09181" lon="6.99035">
        <ele>964.03</ele>
        <time>2020-08-08T09:20:15.198Z</time>
      </trkpt>
      <trkpt lat="47.09197" lon="6.99026">
        <ele>961.3</ele>
        <time>2020-08-08T09:20:16.808Z</time>
      </trkpt>
      <trkpt lat="47.09203" lon="6.99024">
        <ele>960.22</ele>
        <time>2020-08-08T09:20:17.385Z</time>
      </trkpt>
      <trkpt lat="47.09217" lon="6.99019">
        <ele>957.85</ele>
        <time>2020-08-08T09:20:18.739Z</time>
      </trkpt>
      <trkpt lat="47.09224" lon="6.99014">
        <ele>956.62</ele>
        <time>2020-08-08T09:20:19.470Z</time>
      </trkpt>
      <trkpt lat="47.09238" lon="6.99">
        <ele>954.4</ele>
        <time>2020-08-08T09:20:21.061Z</time>
      </trkpt>
      <trkpt lat="47.09245" lon="6.98992">
        <ele>953.57</ele>
        <time>2020-08-08T09:20:21.894Z</time>
      </trkpt>
      <trkpt lat="47.09249" lon="6.98987">
        <ele>952.74</ele>
        <time>2020-08-08T09:20:22.387Z</time>
      </trkpt>
      <trkpt lat="47.09268" lon="6.98968">
        <ele>949.97</ele>
        <time>2020-08-08T09:20:24.546Z</time>
      </trkpt>
      <trkpt lat="47.09276" lon="6.98964">
        <ele>949.13</ele>
        <time>2020-08-08T09:20:25.340Z</time>
      </trkpt>
      <trkpt lat="47.09306" lon="6.98959">
        <ele>945.54</ele>
        <time>2020-08-08T09:20:28.175Z</time>
      </trkpt>
      <trkpt lat="47.09344" lon="6.98956">
        <ele>940.21</ele>
        <time>2020-08-08T09:20:31.750Z</time>
      </trkpt>
      <trkpt lat="47.09367" lon="6.98955">
        <ele>937.4</ele>
        <time>2020-08-08T09:20:33.911Z</time>
      </trkpt>
      <trkpt lat="47.09402" lon="6.98958">
        <ele>933.39</ele>
        <time>2020-08-08T09:20:37.204Z</time>
      </trkpt>
      <trkpt lat="47.09425" lon="6.98965">
        <ele>930.97</ele>
        <time>2020-08-08T09:20:39.410Z</time>
      </trkpt>
      <trkpt lat="47.09478" lon="6.98977">
        <ele>924.71</ele>
        <time>2020-08-08T09:20:44.447Z</time>
      </trkpt>
      <trkpt lat="47.09496" lon="6.9898">
        <ele>922.9</ele>
        <time>2020-08-08T09:20:46.148Z</time>
      </trkpt>
      <trkpt lat="47.09513" lon="6.98988">
        <ele>921.85</ele>
        <time>2020-08-08T09:20:47.782Z</time>
      </trkpt>
      <trkpt lat="47.09541" lon="6.99006">
        <ele>921.69</ele>
        <time>2020-08-08T09:20:53.413Z</time>
      </trkpt>
      <trkpt lat="47.09548" lon="6.99014">
        <ele>921.69</ele>
        <time>2020-08-08T09:20:55.179Z</time>
      </trkpt>
      <trkpt lat="47.09578" lon="6.99044">
        <ele>921.21</ele>
        <time>2020-08-08T09:21:00.427Z</time>
      </trkpt>
      <trkpt lat="47.09596" lon="6.99061">
        <ele>921.33</ele>
        <time>2020-08-08T09:21:04.917Z</time>
      </trkpt>
      <trkpt lat="47.09635" lon="6.9908">
        <ele>917.5</ele>
        <time>2020-08-08T09:21:08.777Z</time>
      </trkpt>
      <trkpt lat="47.09682" lon="6.9909">
        <ele>911.98</ele>
        <time>2020-08-08T09:21:13.237Z</time>
      </trkpt>
      <trkpt lat="47.09681" lon="6.9909">
        <ele>911.98</ele>
        <time>2020-08-08T09:21:13.436Z</time>
      </trkpt>
      <trkpt lat="47.09703" lon="6.99094">
        <ele>907.4</ele>
        <time>2020-08-08T09:21:15.518Z</time>
      </trkpt>
      <trkpt lat="47.09709" lon="6.99094">
        <ele>906.19</ele>
        <time>2020-08-08T09:21:16.082Z</time>
      </trkpt>
      <trkpt lat="47.09712" lon="6.99092">
        <ele>905.71</ele>
        <time>2020-08-08T09:21:16.391Z</time>
      </trkpt>
      <trkpt lat="47.09723" lon="6.9907">
        <ele>902.46</ele>
        <time>2020-08-08T09:21:18.137Z</time>
      </trkpt>
      <trkpt lat="47.09734" lon="6.99052">
        <ele>900.17</ele>
        <time>2020-08-08T09:21:19.683Z</time>
      </trkpt>
      <trkpt lat="47.09767" lon="6.98995">
        <ele>897.27</ele>
        <time>2020-08-08T09:21:24.415Z</time>
      </trkpt>
      <trkpt lat="47.09785" lon="6.98966">
        <ele>896.67</ele>
        <time>2020-08-08T09:21:27.873Z</time>
      </trkpt>
      <trkpt lat="47.09805" lon="6.98941">
        <ele>895.74</ele>
        <time>2020-08-08T09:21:30.834Z</time>
      </trkpt>
      <trkpt lat="47.09809" lon="6.98935">
        <ele>894.81</ele>
        <time>2020-08-08T09:21:31.371Z</time>
      </trkpt>
      <trkpt lat="47.09805" lon="6.98917">
        <ele>892.53</ele>
        <time>2020-08-08T09:21:32.581Z</time>
      </trkpt>
      <trkpt lat="47.09785" lon="6.98886">
        <ele>888.69</ele>
        <time>2020-08-08T09:21:35.312Z</time>
      </trkpt>
      <trkpt lat="47.09774" lon="6.98869">
        <ele>887.09</ele>
        <time>2020-08-08T09:21:36.812Z</time>
      </trkpt>
      <trkpt lat="47.0976" lon="6.98836">
        <ele>884.69</ele>
        <time>2020-08-08T09:21:39.298Z</time>
      </trkpt>
      <trkpt lat="47.09756" lon="6.98815">
        <ele>883.89</ele>
        <time>2020-08-08T09:21:40.712Z</time>
      </trkpt>
      <trkpt lat="47.09753" lon="6.98772">
        <ele>883.88</ele>
        <time>2020-08-08T09:21:46.539Z</time>
      </trkpt>
      <trkpt lat="47.09771" lon="6.98729">
        <ele>887.11</ele>
        <time>2020-08-08T09:22:03.342Z</time>
      </trkpt>
      <trkpt lat="47.09777" lon="6.98718">
        <ele>887.97</ele>
        <time>2020-08-08T09:22:07.853Z</time>
      </trkpt>
      <trkpt lat="47.09791" lon="6.98701">
        <ele>889.92</ele>
        <time>2020-08-08T09:22:17.980Z</time>
      </trkpt>
      <trkpt lat="47.09797" lon="6.98695">
        <ele>890.83</ele>
        <time>2020-08-08T09:22:22.971Z</time>
      </trkpt>
      <trkpt lat="47.09812" lon="6.98683">
        <ele>892.65</ele>
        <time>2020-08-08T09:22:32.416Z</time>
      </trkpt>
      <trkpt lat="47.09836" lon="6.98677">
        <ele>894.97</ele>
        <time>2020-08-08T09:22:44.464Z</time>
      </trkpt>
      <trkpt lat="47.09834" lon="6.98655">
        <ele>894.83</ele>
        <time>2020-08-08T09:22:46.766Z</time>
      </trkpt>
      <trkpt lat="47.09831" lon="6.98631">
        <ele>894.28</ele>
        <time>2020-08-08T09:22:48.683Z</time>
      </trkpt>
      <trkpt lat="47.0983" lon="6.98622">
        <ele>893.88</ele>
        <time>2020-08-08T09:22:49.226Z</time>
      </trkpt>
      <trkpt lat="47.09824" lon="6.98602">
        <ele>893.01</ele>
        <time>2020-08-08T09:22:50.591Z</time>
      </trkpt>
      <trkpt lat="47.09771" lon="6.98481">
        <ele>888.52</ele>
        <time>2020-08-08T09:23:00.598Z</time>
      </trkpt>
      <trkpt lat="47.09762" lon="6.98459">
        <ele>888.04</ele>
        <time>2020-08-08T09:23:02.737Z</time>
      </trkpt>
      <trkpt lat="47.09756" lon="6.98443">
        <ele>887.57</ele>
        <time>2020-08-08T09:23:04.107Z</time>
      </trkpt>
      <trkpt lat="47.09747" lon="6.98421">
        <ele>887.04</ele>
        <time>2020-08-08T09:23:06.182Z</time>
      </trkpt>
      <trkpt lat="47.09732" lon="6.98383">
        <ele>886.09</ele>
        <time>2020-08-08T09:23:09.680Z</time>
      </trkpt>
      <trkpt lat="47.09716" lon="6.98344">
        <ele>885.11</ele>
        <time>2020-08-08T09:23:13.312Z</time>
      </trkpt>
      <trkpt lat="47.09694" lon="6.98276">
        <ele>883.46</ele>
        <time>2020-08-08T09:23:19.282Z</time>
      </trkpt>
      <trkpt lat="47.09635" lon="6.9809">
        <ele>875.34</ele>
        <time>2020-08-08T09:23:32.134Z</time>
      </trkpt>
      <trkpt lat="47.09617" lon="6.98035">
        <ele>871.36</ele>
        <time>2020-08-08T09:23:36.036Z</time>
      </trkpt>
      <trkpt lat="47.09612" lon="6.98021">
        <ele>870.39</ele>
        <time>2020-08-08T09:23:37.047Z</time>
      </trkpt>
      <trkpt lat="47.0961" lon="6.98019">
        <ele>870.17</ele>
        <time>2020-08-08T09:23:37.274Z</time>
      </trkpt>
      <trkpt lat="47.09612" lon="6.98016">
        <ele>870.19</ele>
        <time>2020-08-08T09:23:37.882Z</time>
      </trkpt>
      <trkpt lat="47.09612" lon="6.98008">
        <ele>869.67</ele>
        <time>2020-08-08T09:23:38.394Z</time>
      </trkpt>
      <trkpt lat="47.09611" lon="6.97995">
        <ele>868.91</ele>
        <time>2020-08-08T09:23:39.230Z</time>
      </trkpt>
      <trkpt lat="47.0961" lon="6.97969">
        <ele>868.47</ele>
        <time>2020-08-08T09:23:41.464Z</time>
      </trkpt>
      <trkpt lat="47.0961" lon="6.97962">
        <ele>868.49</ele>
        <time>2020-08-08T09:23:42.451Z</time>
      </trkpt>
      <trkpt lat="47.09613" lon="6.97934">
        <ele>869.21</ele>
        <time>2020-08-08T09:23:48.286Z</time>
      </trkpt>
      <trkpt lat="47.09621" lon="6.97849">
        <ele>871.6</ele>
        <time>2020-08-08T09:24:06.882Z</time>
      </trkpt>
      <trkpt lat="47.09625" lon="6.97791">
        <ele>872.8</ele>
        <time>2020-08-08T09:24:17.807Z</time>
      </trkpt>
      <trkpt lat="47.09636" lon="6.97605">
        <ele>876.94</ele>
        <time>2020-08-08T09:24:53.862Z</time>
      </trkpt>
      <trkpt lat="47.09641" lon="6.97537">
        <ele>878.93</ele>
        <time>2020-08-08T09:25:09.092Z</time>
      </trkpt>
      <trkpt lat="47.09652" lon="6.97359">
        <ele>883.95</ele>
        <time>2020-08-08T09:25:48.022Z</time>
      </trkpt>
      <trkpt lat="47.09654" lon="6.97313">
        <ele>885.17</ele>
        <time>2020-08-08T09:25:57.722Z</time>
      </trkpt>
      <trkpt lat="47.09653" lon="6.97301">
        <ele>885.58</ele>
        <time>2020-08-08T09:26:00.583Z</time>
      </trkpt>
      <trkpt lat="47.09651" lon="6.97254">
        <ele>886.74</ele>
        <time>2020-08-08T09:26:10.128Z</time>
      </trkpt>
      <trkpt lat="47.09647" lon="6.97158">
        <ele>887.85</ele>
        <time>2020-08-08T09:26:25.556Z</time>
      </trkpt>
      <trkpt lat="47.09645" lon="6.97121">
        <ele>887.76</ele>
        <time>2020-08-08T09:26:30.325Z</time>
      </trkpt>
      <trkpt lat="47.09642" lon="6.97087">
        <ele>888.2</ele>
        <time>2020-08-08T09:26:35.940Z</time>
      </trkpt>
      <trkpt lat="47.09639" lon="6.97048">
        <ele>889.18</ele>
        <time>2020-08-08T09:26:43.949Z</time>
      </trkpt>
      <trkpt lat="47.09637" lon="6.97019">
        <ele>889.94</ele>
        <time>2020-08-08T09:26:50.033Z</time>
      </trkpt>
      <trkpt lat="47.09637" lon="6.97014">
        <ele>890.08</ele>
        <time>2020-08-08T09:26:51.120Z</time>
      </trkpt>
      <trkpt lat="47.0963" lon="6.9696">
        <ele>891.44</ele>
        <time>2020-08-08T09:27:02.285Z</time>
      </trkpt>
      <trkpt lat="47.09625" lon="6.96925">
        <ele>892.31</ele>
        <time>2020-08-08T09:27:09.489Z</time>
      </trkpt>
      <trkpt lat="47.0962" lon="6.96887">
        <ele>893.49</ele>
        <time>2020-08-08T09:27:18.356Z</time>
      </trkpt>
      <trkpt lat="47.09613" lon="6.96843">
        <ele>894.38</ele>
        <time>2020-08-08T09:27:26.686Z</time>
      </trkpt>
      <trkpt lat="47.0961" lon="6.96831">
        <ele>894.7</ele>
        <time>2020-08-08T09:27:29.298Z</time>
      </trkpt>
      <trkpt lat="47.09594" lon="6.96773">
        <ele>895.31</ele>
        <time>2020-08-08T09:27:39.058Z</time>
      </trkpt>
      <trkpt lat="47.09538" lon="6.96577">
        <ele>897.42</ele>
        <time>2020-08-08T09:28:12.300Z</time>
      </trkpt>
      <trkpt lat="47.0949" lon="6.96405">
        <ele>897.58</ele>
        <time>2020-08-08T09:28:37.784Z</time>
      </trkpt>
      <trkpt lat="47.09469" lon="6.96319">
        <ele>897.86</ele>
        <time>2020-08-08T09:28:50.697Z</time>
      </trkpt>
      <trkpt lat="47.09459" lon="6.96274">
        <ele>897.77</ele>
        <time>2020-08-08T09:28:56.848Z</time>
      </trkpt>
      <trkpt lat="47.09434" lon="6.9615">
        <ele>897.65</ele>
        <time>2020-08-08T09:29:14.013Z</time>
      </trkpt>
      <trkpt lat="47.09428" lon="6.96114">
        <ele>897.25</ele>
        <time>2020-08-08T09:29:17.544Z</time>
      </trkpt>
      <trkpt lat="47.09418" lon="6.96044">
        <ele>896.81</ele>
        <time>2020-08-08T09:29:24.984Z</time>
      </trkpt>
      <trkpt lat="47.09416" lon="6.96026">
        <ele>896.53</ele>
        <time>2020-08-08T09:29:26.589Z</time>
      </trkpt>
      <trkpt lat="47.09396" lon="6.95874">
        <ele>895.6</ele>
        <time>2020-08-08T09:29:42.738Z</time>
      </trkpt>
      <trkpt lat="47.09393" lon="6.95861">
        <ele>895.44</ele>
        <time>2020-08-08T09:29:44.025Z</time>
      </trkpt>
      <trkpt lat="47.09391" lon="6.95855">
        <ele>895.5</ele>
        <time>2020-08-08T09:29:45.055Z</time>
      </trkpt>
      <trkpt lat="47.09384" lon="6.95844">
        <ele>895.42</ele>
        <time>2020-08-08T09:29:46.648Z</time>
      </trkpt>
      <trkpt lat="47.09381" lon="6.95843">
        <ele>895.41</ele>
        <time>2020-08-08T09:29:47.231Z</time>
      </trkpt>
      <trkpt lat="47.09372" lon="6.95842">
        <ele>895.59</ele>
        <time>2020-08-08T09:29:49.429Z</time>
      </trkpt>
      <trkpt lat="47.09361" lon="6.95844">
        <ele>895.93</ele>
        <time>2020-08-08T09:29:52.497Z</time>
      </trkpt>
      <trkpt lat="47.09331" lon="6.95851">
        <ele>898.17</ele>
        <time>2020-08-08T09:30:05.017Z</time>
      </trkpt>
      <trkpt lat="47.09323" lon="6.95852">
        <ele>899.1</ele>
        <time>2020-08-08T09:30:09.930Z</time>
      </trkpt>
      <trkpt lat="47.09319" lon="6.95852">
        <ele>899.58</ele>
        <time>2020-08-08T09:30:12.502Z</time>
      </trkpt>
      <trkpt lat="47.09313" lon="6.9585">
        <ele>900.03</ele>
        <time>2020-08-08T09:30:15.026Z</time>
      </trkpt>
      <trkpt lat="47.09305" lon="6.95843">
        <ele>900.86</ele>
        <time>2020-08-08T09:30:19.384Z</time>
      </trkpt>
      <trkpt lat="47.09302" lon="6.95839">
        <ele>901.19</ele>
        <time>2020-08-08T09:30:21.160Z</time>
      </trkpt>
      <trkpt lat="47.09297" lon="6.95827">
        <ele>901.88</ele>
        <time>2020-08-08T09:30:25.057Z</time>
      </trkpt>
      <trkpt lat="47.09295" lon="6.95821">
        <ele>902.18</ele>
        <time>2020-08-08T09:30:26.824Z</time>
      </trkpt>
      <trkpt lat="47.09292" lon="6.95807">
        <ele>902.67</ele>
        <time>2020-08-08T09:30:30.280Z</time>
      </trkpt>
      <trkpt lat="47.09279" lon="6.95715">
        <ele>906.04</ele>
        <time>2020-08-08T09:30:52.942Z</time>
      </trkpt>
      <trkpt lat="47.09278" lon="6.95715">
        <ele>906.04</ele>
        <time>2020-08-08T09:30:53.141Z</time>
      </trkpt>
      <trkpt lat="47.09261" lon="6.956">
        <ele>908.43</ele>
        <time>2020-08-08T09:31:15.083Z</time>
      </trkpt>
      <trkpt lat="47.09257" lon="6.95569">
        <ele>909.16</ele>
        <time>2020-08-08T09:31:21.291Z</time>
      </trkpt>
      <trkpt lat="47.09253" lon="6.9555">
        <ele>909.5</ele>
        <time>2020-08-08T09:31:24.791Z</time>
      </trkpt>
      <trkpt lat="47.09249" lon="6.95534">
        <ele>910.29</ele>
        <time>2020-08-08T09:31:29.373Z</time>
      </trkpt>
      <trkpt lat="47.09234" lon="6.95456">
        <ele>912.52</ele>
        <time>2020-08-08T09:31:46.811Z</time>
      </trkpt>
      <trkpt lat="47.0923" lon="6.95422">
        <ele>912.98</ele>
        <time>2020-08-08T09:31:52.509Z</time>
      </trkpt>
      <trkpt lat="47.09228" lon="6.95406">
        <ele>913.12</ele>
        <time>2020-08-08T09:31:55.002Z</time>
      </trkpt>
      <trkpt lat="47.09225" lon="6.95364">
        <ele>913.51</ele>
        <time>2020-08-08T09:32:01.536Z</time>
      </trkpt>
      <trkpt lat="47.09224" lon="6.95332">
        <ele>913.66</ele>
        <time>2020-08-08T09:32:06.169Z</time>
      </trkpt>
      <trkpt lat="47.09221" lon="6.95305">
        <ele>913.9</ele>
        <time>2020-08-08T09:32:10.372Z</time>
      </trkpt>
      <trkpt lat="47.09211" lon="6.95233">
        <ele>914.58</ele>
        <time>2020-08-08T09:32:21.746Z</time>
      </trkpt>
      <trkpt lat="47.09206" lon="6.95191">
        <ele>914.78</ele>
        <time>2020-08-08T09:32:27.913Z</time>
      </trkpt>
      <trkpt lat="47.09192" lon="6.95094">
        <ele>914.77</ele>
        <time>2020-08-08T09:32:41.319Z</time>
      </trkpt>
      <trkpt lat="47.09189" lon="6.95074">
        <ele>915.37</ele>
        <time>2020-08-08T09:32:45.900Z</time>
      </trkpt>
      <trkpt lat="47.0918" lon="6.95042">
        <ele>916.58</ele>
        <time>2020-08-08T09:32:54.176Z</time>
      </trkpt>
      <trkpt lat="47.09168" lon="6.94985">
        <ele>917.98</ele>
        <time>2020-08-08T09:33:05.991Z</time>
      </trkpt>
      <trkpt lat="47.09166" lon="6.94966">
        <ele>918.09</ele>
        <time>2020-08-08T09:33:08.814Z</time>
      </trkpt>
      <trkpt lat="47.09156" lon="6.94881">
        <ele>919.78</ele>
        <time>2020-08-08T09:33:24.687Z</time>
      </trkpt>
      <trkpt lat="47.09154" lon="6.94862">
        <ele>920.18</ele>
        <time>2020-08-08T09:33:28.305Z</time>
      </trkpt>
      <trkpt lat="47.0915" lon="6.94834">
        <ele>920.73</ele>
        <time>2020-08-08T09:33:33.535Z</time>
      </trkpt>
      <trkpt lat="47.09142" lon="6.94798">
        <ele>921.81</ele>
        <time>2020-08-08T09:33:41.861Z</time>
      </trkpt>
      <trkpt lat="47.0911" lon="6.94655">
        <ele>924.97</ele>
        <time>2020-08-08T09:34:10.288Z</time>
      </trkpt>
      <trkpt lat="47.09096" lon="6.94584">
        <ele>926.94</ele>
        <time>2020-08-08T09:34:25.905Z</time>
      </trkpt>
      <trkpt lat="47.09095" lon="6.94572">
        <ele>927.2</ele>
        <time>2020-08-08T09:34:28.210Z</time>
      </trkpt>
      <trkpt lat="47.09094" lon="6.94523">
        <ele>928.11</ele>
        <time>2020-08-08T09:34:37.064Z</time>
      </trkpt>
      <trkpt lat="47.09094" lon="6.9451">
        <ele>928.25</ele>
        <time>2020-08-08T09:34:39.124Z</time>
      </trkpt>
      <trkpt lat="47.09091" lon="6.9448">
        <ele>928.97</ele>
        <time>2020-08-08T09:34:45.162Z</time>
      </trkpt>
      <trkpt lat="47.09088" lon="6.94466">
        <ele>929.35</ele>
        <time>2020-08-08T09:34:48.214Z</time>
      </trkpt>
      <trkpt lat="47.09087" lon="6.94461">
        <ele>929.74</ele>
        <time>2020-08-08T09:34:50.247Z</time>
      </trkpt>
      <trkpt lat="47.09078" lon="6.94426">
        <ele>930.62</ele>
        <time>2020-08-08T09:34:57.665Z</time>
      </trkpt>
      <trkpt lat="47.09074" lon="6.94413">
        <ele>930.97</ele>
        <time>2020-08-08T09:35:00.550Z</time>
      </trkpt>
      <trkpt lat="47.09071" lon="6.9439">
        <ele>932.12</ele>
        <time>2020-08-08T09:35:07.040Z</time>
      </trkpt>
      <trkpt lat="47.09065" lon="6.94321">
        <ele>935.02</ele>
        <time>2020-08-08T09:35:24.833Z</time>
      </trkpt>
      <trkpt lat="47.09063" lon="6.94304">
        <ele>935.77</ele>
        <time>2020-08-08T09:35:29.329Z</time>
      </trkpt>
      <trkpt lat="47.09058" lon="6.9428">
        <ele>937.35</ele>
        <time>2020-08-08T09:35:37.568Z</time>
      </trkpt>
      <trkpt lat="47.09054" lon="6.9427">
        <ele>938.35</ele>
        <time>2020-08-08T09:35:43.088Z</time>
      </trkpt>
      <trkpt lat="47.09047" lon="6.94243">
        <ele>941.22</ele>
        <time>2020-08-08T09:35:58.190Z</time>
      </trkpt>
      <trkpt lat="47.09047" lon="6.94226">
        <ele>942.96</ele>
        <time>2020-08-08T09:36:07.076Z</time>
      </trkpt>
      <trkpt lat="47.0905" lon="6.94216">
        <ele>944.23</ele>
        <time>2020-08-08T09:36:12.788Z</time>
      </trkpt>
      <trkpt lat="47.09065" lon="6.94189">
        <ele>947.21</ele>
        <time>2020-08-08T09:36:29.150Z</time>
      </trkpt>
      <trkpt lat="47.09074" lon="6.94177">
        <ele>948.67</ele>
        <time>2020-08-08T09:36:36.975Z</time>
      </trkpt>
      <trkpt lat="47.09109" lon="6.9413">
        <ele>954.08</ele>
        <time>2020-08-08T09:37:05.425Z</time>
      </trkpt>
      <trkpt lat="47.09112" lon="6.94121">
        <ele>954.95</ele>
        <time>2020-08-08T09:37:10.250Z</time>
      </trkpt>
      <trkpt lat="47.09112" lon="6.94105">
        <ele>956.12</ele>
        <time>2020-08-08T09:37:16.327Z</time>
      </trkpt>
      <trkpt lat="47.09109" lon="6.94096">
        <ele>956.93</ele>
        <time>2020-08-08T09:37:20.647Z</time>
      </trkpt>
      <trkpt lat="47.09105" lon="6.94086">
        <ele>957.96</ele>
        <time>2020-08-08T09:37:26.458Z</time>
      </trkpt>
      <trkpt lat="47.09071" lon="6.9403">
        <ele>963.32</ele>
        <time>2020-08-08T09:37:54.232Z</time>
      </trkpt>
      <trkpt lat="47.09067" lon="6.94024">
        <ele>963.95</ele>
        <time>2020-08-08T09:37:57.517Z</time>
      </trkpt>
      <trkpt lat="47.09063" lon="6.94019">
        <ele>964.31</ele>
        <time>2020-08-08T09:37:59.598Z</time>
      </trkpt>
      <trkpt lat="47.09057" lon="6.94015">
        <ele>965.09</ele>
        <time>2020-08-08T09:38:03.753Z</time>
      </trkpt>
      <trkpt lat="47.09053" lon="6.94011">
        <ele>965.42</ele>
        <time>2020-08-08T09:38:05.665Z</time>
      </trkpt>
      <trkpt lat="47.0904" lon="6.94006">
        <ele>966.67</ele>
        <time>2020-08-08T09:38:12.177Z</time>
      </trkpt>
      <trkpt lat="47.09031" lon="6.94005">
        <ele>967.42</ele>
        <time>2020-08-08T09:38:16.188Z</time>
      </trkpt>
      <trkpt lat="47.0899" lon="6.94005">
        <ele>971.81</ele>
        <time>2020-08-08T09:38:38.981Z</time>
      </trkpt>
      <trkpt lat="47.08975" lon="6.94004">
        <ele>973.69</ele>
        <time>2020-08-08T09:38:49.283Z</time>
      </trkpt>
      <trkpt lat="47.0897" lon="6.94001">
        <ele>974.45</ele>
        <time>2020-08-08T09:38:53.430Z</time>
      </trkpt>
      <trkpt lat="47.08957" lon="6.93986">
        <ele>976.79</ele>
        <time>2020-08-08T09:39:06.122Z</time>
      </trkpt>
      <trkpt lat="47.0895" lon="6.93976">
        <ele>978.13</ele>
        <time>2020-08-08T09:39:13.619Z</time>
      </trkpt>
      <trkpt lat="47.08934" lon="6.93941">
        <ele>981.62</ele>
        <time>2020-08-08T09:39:32.434Z</time>
      </trkpt>
      <trkpt lat="47.08904" lon="6.93861">
        <ele>989.07</ele>
        <time>2020-08-08T09:40:12.318Z</time>
      </trkpt>
      <trkpt lat="47.08894" lon="6.93843">
        <ele>991.2</ele>
        <time>2020-08-08T09:40:24.462Z</time>
      </trkpt>
      <trkpt lat="47.08865" lon="6.93806">
        <ele>995.32</ele>
        <time>2020-08-08T09:40:45.857Z</time>
      </trkpt>
      <trkpt lat="47.08849" lon="6.93791">
        <ele>997.07</ele>
        <time>2020-08-08T09:40:54.988Z</time>
      </trkpt>
      <trkpt lat="47.08823" lon="6.93771">
        <ele>999.94</ele>
        <time>2020-08-08T09:41:09.858Z</time>
      </trkpt>
      <trkpt lat="47.08811" lon="6.93765">
        <ele>1001.19</ele>
        <time>2020-08-08T09:41:16.332Z</time>
      </trkpt>
      <trkpt lat="47.08779" lon="6.93745">
        <ele>1004.8</ele>
        <time>2020-08-08T09:41:35.025Z</time>
      </trkpt>
      <trkpt lat="47.08716" lon="6.93685">
        <ele>1015.09</ele>
        <time>2020-08-08T09:42:32.671Z</time>
      </trkpt>
      <trkpt lat="47.08647" lon="6.93613">
        <ele>1027.35</ele>
        <time>2020-08-08T09:43:37.654Z</time>
      </trkpt>
      <trkpt lat="47.08624" lon="6.93589">
        <ele>1029.9</ele>
        <time>2020-08-08T09:43:51.006Z</time>
      </trkpt>
      <trkpt lat="47.08626" lon="6.93581">
        <ele>1029.78</ele>
        <time>2020-08-08T09:43:51.772Z</time>
      </trkpt>
      <trkpt lat="47.08627" lon="6.93558">
        <ele>1029.53</ele>
        <time>2020-08-08T09:43:53.966Z</time>
      </trkpt>
      <trkpt lat="47.08624" lon="6.93543">
        <ele>1029.36</ele>
        <time>2020-08-08T09:43:55.454Z</time>
      </trkpt>
      <trkpt lat="47.08621" lon="6.9354">
        <ele>1029.69</ele>
        <time>2020-08-08T09:43:57.180Z</time>
      </trkpt>
      <trkpt lat="47.08607" lon="6.93505">
        <ele>1032.02</ele>
        <time>2020-08-08T09:44:09.587Z</time>
      </trkpt>
      <trkpt lat="47.08595" lon="6.93479">
        <ele>1032.89</ele>
        <time>2020-08-08T09:44:16.373Z</time>
      </trkpt>
      <trkpt lat="47.08595" lon="6.93479">
        <ele>1033.55</ele>
        <time>2020-08-08T09:44:16.373Z</time>
      </trkpt>
      <trkpt lat="47.08579" lon="6.93456">
        <ele>1034.2</ele>
        <time>2020-08-08T09:44:22.443Z</time>
      </trkpt>
      <trkpt lat="47.08568" lon="6.93441">
        <ele>1035.16</ele>
        <time>2020-08-08T09:44:28.193Z</time>
      </trkpt>
      <trkpt lat="47.0856" lon="6.9342">
        <ele>1036.96</ele>
        <time>2020-08-08T09:44:37.575Z</time>
      </trkpt>
      <trkpt lat="47.08557" lon="6.93381">
        <ele>1037.45</ele>
        <time>2020-08-08T09:44:43.968Z</time>
      </trkpt>
      <trkpt lat="47.08535" lon="6.93345">
        <ele>1039.76</ele>
        <time>2020-08-08T09:44:57.173Z</time>
      </trkpt>
      <trkpt lat="47.0853" lon="6.93334">
        <ele>1040.79</ele>
        <time>2020-08-08T09:45:02.594Z</time>
      </trkpt>
      <trkpt lat="47.08504" lon="6.93302">
        <ele>1044.75</ele>
        <time>2020-08-08T09:45:23.574Z</time>
      </trkpt>
      <trkpt lat="47.08475" lon="6.93262">
        <ele>1049.1</ele>
        <time>2020-08-08T09:45:46.228Z</time>
      </trkpt>
      <trkpt lat="47.08459" lon="6.93233">
        <ele>1051.05</ele>
        <time>2020-08-08T09:45:56.951Z</time>
      </trkpt>
      <trkpt lat="47.08432" lon="6.93182">
        <ele>1053.87</ele>
        <time>2020-08-08T09:46:13.820Z</time>
      </trkpt>
      <trkpt lat="47.08421" lon="6.93151">
        <ele>1055.35</ele>
        <time>2020-08-08T09:46:22.822Z</time>
      </trkpt>
      <trkpt lat="47.08403" lon="6.93119">
        <ele>1057.41</ele>
        <time>2020-08-08T09:46:34.394Z</time>
      </trkpt>
      <trkpt lat="47.08388" lon="6.93101">
        <ele>1058.76</ele>
        <time>2020-08-08T09:46:42.134Z</time>
      </trkpt>
      <trkpt lat="47.08382" lon="6.93075">
        <ele>1060.03</ele>
        <time>2020-08-08T09:46:49.507Z</time>
      </trkpt>
      <trkpt lat="47.08367" lon="6.93041">
        <ele>1061.98</ele>
        <time>2020-08-08T09:47:00.613Z</time>
      </trkpt>
      <trkpt lat="47.08364" lon="6.93022">
        <ele>1062.67</ele>
        <time>2020-08-08T09:47:05.295Z</time>
      </trkpt>
      <trkpt lat="47.08363" lon="6.93014">
        <ele>1063.37</ele>
        <time>2020-08-08T09:47:09.154Z</time>
      </trkpt>
      <trkpt lat="47.08338" lon="6.92951">
        <ele>1067.74</ele>
        <time>2020-08-08T09:47:32.166Z</time>
      </trkpt>
      <trkpt lat="47.0832" lon="6.92913">
        <ele>1070.25</ele>
        <time>2020-08-08T09:47:45.779Z</time>
      </trkpt>
      <trkpt lat="47.08305" lon="6.92889">
        <ele>1072.31</ele>
        <time>2020-08-08T09:47:56.515Z</time>
      </trkpt>
      <trkpt lat="47.08297" lon="6.92878">
        <ele>1073.57</ele>
        <time>2020-08-08T09:48:03.156Z</time>
      </trkpt>
      <trkpt lat="47.08282" lon="6.92863">
        <ele>1074.63</ele>
        <time>2020-08-08T09:48:09.840Z</time>
      </trkpt>
      <trkpt lat="47.08261" lon="6.9285">
        <ele>1075.61</ele>
        <time>2020-08-08T09:48:17.324Z</time>
      </trkpt>
      <trkpt lat="47.08238" lon="6.92837">
        <ele>1077.14</ele>
        <time>2020-08-08T09:48:26.639Z</time>
      </trkpt>
      <trkpt lat="47.08215" lon="6.92801">
        <ele>1079.46</ele>
        <time>2020-08-08T09:48:40.003Z</time>
      </trkpt>
      <trkpt lat="47.08211" lon="6.9279">
        <ele>1080.4</ele>
        <time>2020-08-08T09:48:44.910Z</time>
      </trkpt>
      <trkpt lat="47.0821" lon="6.92766">
        <ele>1081.88</ele>
        <time>2020-08-08T09:48:52.659Z</time>
      </trkpt>
      <trkpt lat="47.08204" lon="6.92747">
        <ele>1083.98</ele>
        <time>2020-08-08T09:49:03.608Z</time>
      </trkpt>
      <trkpt lat="47.08202" lon="6.92742">
        <ele>1084.52</ele>
        <time>2020-08-08T09:49:06.639Z</time>
      </trkpt>
      <trkpt lat="47.08184" lon="6.92712">
        <ele>1085.57</ele>
        <time>2020-08-08T09:49:15.019Z</time>
      </trkpt>
      <trkpt lat="47.08177" lon="6.92699">
        <ele>1086.18</ele>
        <time>2020-08-08T09:49:19.054Z</time>
      </trkpt>
      <trkpt lat="47.08162" lon="6.92675">
        <ele>1087.49</ele>
        <time>2020-08-08T09:49:27.261Z</time>
      </trkpt>
      <trkpt lat="47.08161" lon="6.92672">
        <ele>1087.91</ele>
        <time>2020-08-08T09:49:29.007Z</time>
      </trkpt>
      <trkpt lat="47.08154" lon="6.92653">
        <ele>1089.66</ele>
        <time>2020-08-08T09:49:38.347Z</time>
      </trkpt>
      <trkpt lat="47.08142" lon="6.92628">
        <ele>1091</ele>
        <time>2020-08-08T09:49:46.348Z</time>
      </trkpt>
      <trkpt lat="47.08135" lon="6.92616">
        <ele>1092.33</ele>
        <time>2020-08-08T09:49:53.581Z</time>
      </trkpt>
      <trkpt lat="47.08126" lon="6.92592">
        <ele>1093.76</ele>
        <time>2020-08-08T09:50:01.448Z</time>
      </trkpt>
      <trkpt lat="47.08122" lon="6.92581">
        <ele>1094.79</ele>
        <time>2020-08-08T09:50:06.994Z</time>
      </trkpt>
      <trkpt lat="47.08118" lon="6.92557">
        <ele>1096.55</ele>
        <time>2020-08-08T09:50:16.112Z</time>
      </trkpt>
      <trkpt lat="47.08115" lon="6.92508">
        <ele>1099.96</ele>
        <time>2020-08-08T09:50:33.759Z</time>
      </trkpt>
      <trkpt lat="47.08115" lon="6.92494">
        <ele>1100.86</ele>
        <time>2020-08-08T09:50:38.439Z</time>
      </trkpt>
      <trkpt lat="47.08111" lon="6.92473">
        <ele>1102.42</ele>
        <time>2020-08-08T09:50:46.523Z</time>
      </trkpt>
      <trkpt lat="47.08107" lon="6.92457">
        <ele>1103.49</ele>
        <time>2020-08-08T09:50:52.106Z</time>
      </trkpt>
      <trkpt lat="47.08099" lon="6.92439">
        <ele>1104.78</ele>
        <time>2020-08-08T09:50:58.897Z</time>
      </trkpt>
      <trkpt lat="47.08096" lon="6.92432">
        <ele>1105.33</ele>
        <time>2020-08-08T09:51:01.747Z</time>
      </trkpt>
      <trkpt lat="47.08087" lon="6.92418">
        <ele>1106.16</ele>
        <time>2020-08-08T09:51:06.746Z</time>
      </trkpt>
      <trkpt lat="47.08078" lon="6.92407">
        <ele>1106.95</ele>
        <time>2020-08-08T09:51:11.347Z</time>
      </trkpt>
      <trkpt lat="47.08069" lon="6.92397">
        <ele>1107.55</ele>
        <time>2020-08-08T09:51:15.359Z</time>
      </trkpt>
      <trkpt lat="47.08029" lon="6.92353">
        <ele>1110.67</ele>
        <time>2020-08-08T09:51:34.294Z</time>
      </trkpt>
      <trkpt lat="47.0802" lon="6.92341">
        <ele>1111.17</ele>
        <time>2020-08-08T09:51:38.177Z</time>
      </trkpt>
      <trkpt lat="47.08019" lon="6.92339">
        <ele>1111.68</ele>
        <time>2020-08-08T09:51:39.474Z</time>
      </trkpt>
      <trkpt lat="47.08002" lon="6.9231">
        <ele>1113.89</ele>
        <time>2020-08-08T09:51:51.222Z</time>
      </trkpt>
      <trkpt lat="47.07995" lon="6.92297">
        <ele>1114.68</ele>
        <time>2020-08-08T09:51:55.743Z</time>
      </trkpt>
      <trkpt lat="47.07984" lon="6.92264">
        <ele>1116.85</ele>
        <time>2020-08-08T09:52:07.210Z</time>
      </trkpt>
      <trkpt lat="47.07975" lon="6.92234">
        <ele>1119.05</ele>
        <time>2020-08-08T09:52:18.604Z</time>
      </trkpt>
      <trkpt lat="47.07961" lon="6.92188">
        <ele>1121.8</ele>
        <time>2020-08-08T09:52:33.485Z</time>
      </trkpt>
      <trkpt lat="47.07953" lon="6.92166">
        <ele>1123.11</ele>
        <time>2020-08-08T09:52:40.674Z</time>
      </trkpt>
      <trkpt lat="47.07949" lon="6.92158">
        <ele>1123.56</ele>
        <time>2020-08-08T09:52:43.313Z</time>
      </trkpt>
      <trkpt lat="47.07943" lon="6.92147">
        <ele>1124.4</ele>
        <time>2020-08-08T09:52:47.742Z</time>
      </trkpt>
      <trkpt lat="47.07938" lon="6.92142">
        <ele>1124.71</ele>
        <time>2020-08-08T09:52:49.865Z</time>
      </trkpt>
      <trkpt lat="47.0793" lon="6.92133">
        <ele>1125.71</ele>
        <time>2020-08-08T09:52:55.042Z</time>
      </trkpt>
      <trkpt lat="47.07922" lon="6.92127">
        <ele>1126.73</ele>
        <time>2020-08-08T09:53:00.399Z</time>
      </trkpt>
      <trkpt lat="47.07918" lon="6.92126">
        <ele>1126.97</ele>
        <time>2020-08-08T09:53:01.901Z</time>
      </trkpt>
      <trkpt lat="47.0791" lon="6.92123">
        <ele>1127.83</ele>
        <time>2020-08-08T09:53:06.355Z</time>
      </trkpt>
      <trkpt lat="47.07897" lon="6.92121">
        <ele>1128.86</ele>
        <time>2020-08-08T09:53:11.963Z</time>
      </trkpt>
      <trkpt lat="47.07865" lon="6.92119">
        <ele>1130.5</ele>
        <time>2020-08-08T09:53:23.198Z</time>
      </trkpt>
      <trkpt lat="47.0786" lon="6.92118">
        <ele>1130.72</ele>
        <time>2020-08-08T09:53:24.870Z</time>
      </trkpt>
      <trkpt lat="47.07849" lon="6.92113">
        <ele>1130.72</ele>
        <time>2020-08-08T09:53:27.162Z</time>
      </trkpt>
      <trkpt lat="47.07842" lon="6.92103">
        <ele>1130.92</ele>
        <time>2020-08-08T09:53:29.555Z</time>
      </trkpt>
      <trkpt lat="47.07837" lon="6.92094">
        <ele>1131</ele>
        <time>2020-08-08T09:53:31.290Z</time>
      </trkpt>
      <trkpt lat="47.07817" lon="6.92052">
        <ele>1131.96</ele>
        <time>2020-08-08T09:53:40.577Z</time>
      </trkpt>
      <trkpt lat="47.07818" lon="6.92036">
        <ele>1133.01</ele>
        <time>2020-08-08T09:53:46.026Z</time>
      </trkpt>
      <trkpt lat="47.07831" lon="6.91981">
        <ele>1134.74</ele>
        <time>2020-08-08T09:53:59.171Z</time>
      </trkpt>
      <trkpt lat="47.07842" lon="6.91941">
        <ele>1136.15</ele>
        <time>2020-08-08T09:54:09.263Z</time>
      </trkpt>
      <trkpt lat="47.07852" lon="6.91911">
        <ele>1137.09</ele>
        <time>2020-08-08T09:54:16.548Z</time>
      </trkpt>
      <trkpt lat="47.07868" lon="6.91881">
        <ele>1138.98</ele>
        <time>2020-08-08T09:54:27.168Z</time>
      </trkpt>
      <trkpt lat="47.07875" lon="6.9187">
        <ele>1140.09</ele>
        <time>2020-08-08T09:54:32.940Z</time>
      </trkpt>
      <trkpt lat="47.07882" lon="6.91846">
        <ele>1142.78</ele>
        <time>2020-08-08T09:54:46.590Z</time>
      </trkpt>
      <trkpt lat="47.07884" lon="6.91828">
        <ele>1144.49</ele>
        <time>2020-08-08T09:54:56.125Z</time>
      </trkpt>
      <trkpt lat="47.07885" lon="6.91819">
        <ele>1145.58</ele>
        <time>2020-08-08T09:55:00.892Z</time>
      </trkpt>
      <trkpt lat="47.07882" lon="6.91795">
        <ele>1147.52</ele>
        <time>2020-08-08T09:55:11.171Z</time>
      </trkpt>
      <trkpt lat="47.07877" lon="6.91778">
        <ele>1148.5</ele>
        <time>2020-08-08T09:55:16.533Z</time>
      </trkpt>
      <trkpt lat="47.07865" lon="6.91757">
        <ele>1150.3</ele>
        <time>2020-08-08T09:55:25.870Z</time>
      </trkpt>
      <trkpt lat="47.07834" lon="6.91718">
        <ele>1153.47</ele>
        <time>2020-08-08T09:55:43.222Z</time>
      </trkpt>
      <trkpt lat="47.07805" lon="6.91684">
        <ele>1156.65</ele>
        <time>2020-08-08T09:56:00.079Z</time>
      </trkpt>
      <trkpt lat="47.07799" lon="6.91675">
        <ele>1157.04</ele>
        <time>2020-08-08T09:56:02.978Z</time>
      </trkpt>
      <trkpt lat="47.07798" lon="6.91673">
        <ele>1157.44</ele>
        <time>2020-08-08T09:56:04.275Z</time>
      </trkpt>
      <trkpt lat="47.07776" lon="6.91635">
        <ele>1160.21</ele>
        <time>2020-08-08T09:56:19.178Z</time>
      </trkpt>
      <trkpt lat="47.07762" lon="6.91613">
        <ele>1161.8</ele>
        <time>2020-08-08T09:56:27.885Z</time>
      </trkpt>
      <trkpt lat="47.07741" lon="6.9157">
        <ele>1165.37</ele>
        <time>2020-08-08T09:56:46.370Z</time>
      </trkpt>
      <trkpt lat="47.0773" lon="6.91533">
        <ele>1167.15</ele>
        <time>2020-08-08T09:56:56.962Z</time>
      </trkpt>
      <trkpt lat="47.07725" lon="6.91515">
        <ele>1167.71</ele>
        <time>2020-08-08T09:57:01.263Z</time>
      </trkpt>
      <trkpt lat="47.07685" lon="6.91342">
        <ele>1172.78</ele>
        <time>2020-08-08T09:57:40.776Z</time>
      </trkpt>
      <trkpt lat="47.07682" lon="6.91326">
        <ele>1173.34</ele>
        <time>2020-08-08T09:57:44.698Z</time>
      </trkpt>
      <trkpt lat="47.07681" lon="6.91314">
        <ele>1173.58</ele>
        <time>2020-08-08T09:57:46.934Z</time>
      </trkpt>
      <trkpt lat="47.07681" lon="6.91303">
        <ele>1173.83</ele>
        <time>2020-08-08T09:57:49.081Z</time>
      </trkpt>
      <trkpt lat="47.07683" lon="6.9129">
        <ele>1174.51</ele>
        <time>2020-08-08T09:57:52.857Z</time>
      </trkpt>
      <trkpt lat="47.07697" lon="6.91216">
        <ele>1177.29</ele>
        <time>2020-08-08T09:58:11.444Z</time>
      </trkpt>
      <trkpt lat="47.07701" lon="6.91197">
        <ele>1178.15</ele>
        <time>2020-08-08T09:58:16.615Z</time>
      </trkpt>
      <trkpt lat="47.07706" lon="6.91178">
        <ele>1179.34</ele>
        <time>2020-08-08T09:58:22.921Z</time>
      </trkpt>
      <trkpt lat="47.07714" lon="6.91154">
        <ele>1181.22</ele>
        <time>2020-08-08T09:58:32.654Z</time>
      </trkpt>
      <trkpt lat="47.07719" lon="6.91144">
        <ele>1182.06</ele>
        <time>2020-08-08T09:58:37.003Z</time>
      </trkpt>
      <trkpt lat="47.07743" lon="6.91106">
        <ele>1185.6</ele>
        <time>2020-08-08T09:58:55.325Z</time>
      </trkpt>
      <trkpt lat="47.07747" lon="6.91098">
        <ele>1186.25</ele>
        <time>2020-08-08T09:58:58.697Z</time>
      </trkpt>
      <trkpt lat="47.07779" lon="6.91025">
        <ele>1191.36</ele>
        <time>2020-08-08T09:59:25.725Z</time>
      </trkpt>
      <trkpt lat="47.07782" lon="6.91018">
        <ele>1191.86</ele>
        <time>2020-08-08T09:59:28.353Z</time>
      </trkpt>
      <trkpt lat="47.07785" lon="6.91005">
        <ele>1192.56</ele>
        <time>2020-08-08T09:59:32.240Z</time>
      </trkpt>
      <trkpt lat="47.07786" lon="6.90987">
        <ele>1192.95</ele>
        <time>2020-08-08T09:59:35.690Z</time>
      </trkpt>
      <trkpt lat="47.07787" lon="6.90975">
        <ele>1193.16</ele>
        <time>2020-08-08T09:59:37.829Z</time>
      </trkpt>
      <trkpt lat="47.07787" lon="6.90959">
        <ele>1193.38</ele>
        <time>2020-08-08T09:59:40.490Z</time>
      </trkpt>
      <trkpt lat="47.07788" lon="6.9092">
        <ele>1193.98</ele>
        <time>2020-08-08T09:59:47.159Z</time>
      </trkpt>
      <trkpt lat="47.07789" lon="6.90857">
        <ele>1196.51</ele>
        <time>2020-08-08T10:00:03.025Z</time>
      </trkpt>
      <trkpt lat="47.07787" lon="6.90822">
        <ele>1197.77</ele>
        <time>2020-08-08T10:00:11.499Z</time>
      </trkpt>
      <trkpt lat="47.07785" lon="6.90814">
        <ele>1197.68</ele>
        <time>2020-08-08T10:00:12.314Z</time>
      </trkpt>
      <trkpt lat="47.07768" lon="6.90764">
        <ele>1197.25</ele>
        <time>2020-08-08T10:00:17.957Z</time>
      </trkpt>
      <trkpt lat="47.07747" lon="6.9071">
        <ele>1196.34</ele>
        <time>2020-08-08T10:00:23.498Z</time>
      </trkpt>
      <trkpt lat="47.07705" lon="6.90611">
        <ele>1194.67</ele>
        <time>2020-08-08T10:00:33.948Z</time>
      </trkpt>
      <trkpt lat="47.07701" lon="6.90605">
        <ele>1194.47</ele>
        <time>2020-08-08T10:00:34.596Z</time>
      </trkpt>
      <trkpt lat="47.07694" lon="6.90597">
        <ele>1193.95</ele>
        <time>2020-08-08T10:00:35.409Z</time>
      </trkpt>
      <trkpt lat="47.07681" lon="6.90581">
        <ele>1193.26</ele>
        <time>2020-08-08T10:00:37.226Z</time>
      </trkpt>
      <trkpt lat="47.07678" lon="6.90575">
        <ele>1193.27</ele>
        <time>2020-08-08T10:00:38.254Z</time>
      </trkpt>
      <trkpt lat="47.07674" lon="6.90567">
        <ele>1193.33</ele>
        <time>2020-08-08T10:00:39.718Z</time>
      </trkpt>
      <trkpt lat="47.07671" lon="6.90554">
        <ele>1193.7</ele>
        <time>2020-08-08T10:00:42.637Z</time>
      </trkpt>
      <trkpt lat="47.0767" lon="6.90542">
        <ele>1194.13</ele>
        <time>2020-08-08T10:00:45.545Z</time>
      </trkpt>
      <trkpt lat="47.07668" lon="6.90521">
        <ele>1194.76</ele>
        <time>2020-08-08T10:00:50.332Z</time>
      </trkpt>
      <trkpt lat="47.07667" lon="6.90515">
        <ele>1194.82</ele>
        <time>2020-08-08T10:00:51.295Z</time>
      </trkpt>
      <trkpt lat="47.07642" lon="6.90448">
        <ele>1194.67</ele>
        <time>2020-08-08T10:01:01.213Z</time>
      </trkpt>
      <trkpt lat="47.07639" lon="6.9044">
        <ele>1194.87</ele>
        <time>2020-08-08T10:01:02.968Z</time>
      </trkpt>
      <trkpt lat="47.07635" lon="6.90423">
        <ele>1194.93</ele>
        <time>2020-08-08T10:01:05.520Z</time>
      </trkpt>
      <trkpt lat="47.07633" lon="6.90409">
        <ele>1195.13</ele>
        <time>2020-08-08T10:01:07.908Z</time>
      </trkpt>
      <trkpt lat="47.07634" lon="6.90398">
        <ele>1195.5</ele>
        <time>2020-08-08T10:01:10.521Z</time>
      </trkpt>
      <trkpt lat="47.07636" lon="6.90377">
        <ele>1196.23</ele>
        <time>2020-08-08T10:01:15.565Z</time>
      </trkpt>
      <trkpt lat="47.07646" lon="6.90297">
        <ele>1200</ele>
        <time>2020-08-08T10:01:37.430Z</time>
      </trkpt>
      <trkpt lat="47.07654" lon="6.90238">
        <ele>1203.46</ele>
        <time>2020-08-08T10:01:55.846Z</time>
      </trkpt>
      <trkpt lat="47.07656" lon="6.90212">
        <ele>1205.23</ele>
        <time>2020-08-08T10:02:05.010Z</time>
      </trkpt>
      <trkpt lat="47.07657" lon="6.9016">
        <ele>1208.31</ele>
        <time>2020-08-08T10:02:21.277Z</time>
      </trkpt>
      <trkpt lat="47.07659" lon="6.90132">
        <ele>1209.99</ele>
        <time>2020-08-08T10:02:30.133Z</time>
      </trkpt>
      <trkpt lat="47.07661" lon="6.90113">
        <ele>1210.77</ele>
        <time>2020-08-08T10:02:34.995Z</time>
      </trkpt>
      <trkpt lat="47.07661" lon="6.90106">
        <ele>1210.77</ele>
        <time>2020-08-08T10:02:35.943Z</time>
      </trkpt>
      <trkpt lat="47.07659" lon="6.901">
        <ele>1211.01</ele>
        <time>2020-08-08T10:02:37.556Z</time>
      </trkpt>
      <trkpt lat="47.07656" lon="6.90095">
        <ele>1211.43</ele>
        <time>2020-08-08T10:02:39.746Z</time>
      </trkpt>
      <trkpt lat="47.07638" lon="6.90074">
        <ele>1212.43</ele>
        <time>2020-08-08T10:02:47.352Z</time>
      </trkpt>
      <trkpt lat="47.07631" lon="6.90061">
        <ele>1212.44</ele>
        <time>2020-08-08T10:02:49.617Z</time>
      </trkpt>
      <trkpt lat="47.07619" lon="6.90031">
        <ele>1212</ele>
        <time>2020-08-08T10:02:52.825Z</time>
      </trkpt>
      <trkpt lat="47.07617" lon="6.90024">
        <ele>1211.98</ele>
        <time>2020-08-08T10:02:53.797Z</time>
      </trkpt>
      <trkpt lat="47.07601" lon="6.89952">
        <ele>1212.01</ele>
        <time>2020-08-08T10:03:04.118Z</time>
      </trkpt>
      <trkpt lat="47.07585" lon="6.89893">
        <ele>1213.35</ele>
        <time>2020-08-08T10:03:16.137Z</time>
      </trkpt>
      <trkpt lat="47.07582" lon="6.89881">
        <ele>1213.92</ele>
        <time>2020-08-08T10:03:19.509Z</time>
      </trkpt>
      <trkpt lat="47.07575" lon="6.89838">
        <ele>1215.8</ele>
        <time>2020-08-08T10:03:30.918Z</time>
      </trkpt>
      <trkpt lat="47.07572" lon="6.89826">
        <ele>1216.01</ele>
        <time>2020-08-08T10:03:33.142Z</time>
      </trkpt>
      <trkpt lat="47.07565" lon="6.89789">
        <ele>1217.3</ele>
        <time>2020-08-08T10:03:42.204Z</time>
      </trkpt>
      <trkpt lat="47.07563" lon="6.89763">
        <ele>1218.1</ele>
        <time>2020-08-08T10:03:48.205Z</time>
      </trkpt>
      <trkpt lat="47.07563" lon="6.89752">
        <ele>1218.82</ele>
        <time>2020-08-08T10:03:51.941Z</time>
      </trkpt>
      <trkpt lat="47.07565" lon="6.89712">
        <ele>1221.28</ele>
        <time>2020-08-08T10:04:04.831Z</time>
      </trkpt>
      <trkpt lat="47.07563" lon="6.89695">
        <ele>1222.42</ele>
        <time>2020-08-08T10:04:10.741Z</time>
      </trkpt>
      <trkpt lat="47.07555" lon="6.89637">
        <ele>1226.31</ele>
        <time>2020-08-08T10:04:30.918Z</time>
      </trkpt>
      <trkpt lat="47.07535" lon="6.89561">
        <ele>1230.68</ele>
        <time>2020-08-08T10:04:54.713Z</time>
      </trkpt>
      <trkpt lat="47.07533" lon="6.89553">
        <ele>1231.06</ele>
        <time>2020-08-08T10:04:56.960Z</time>
      </trkpt>
      <trkpt lat="47.07512" lon="6.8949">
        <ele>1235.21</ele>
        <time>2020-08-08T10:05:18.882Z</time>
      </trkpt>
      <trkpt lat="47.0751" lon="6.89484">
        <ele>1235.17</ele>
        <time>2020-08-08T10:05:19.580Z</time>
      </trkpt>
      <trkpt lat="47.07498" lon="6.89443">
        <ele>1237.57</ele>
        <time>2020-08-08T10:05:32.635Z</time>
      </trkpt>
      <trkpt lat="47.07484" lon="6.89372">
        <ele>1238.63</ele>
        <time>2020-08-08T10:05:45.049Z</time>
      </trkpt>
      <trkpt lat="47.07481" lon="6.89354">
        <ele>1239.04</ele>
        <time>2020-08-08T10:05:48.625Z</time>
      </trkpt>
      <trkpt lat="47.07482" lon="6.89321">
        <ele>1241.46</ele>
        <time>2020-08-08T10:06:01.197Z</time>
      </trkpt>
      <trkpt lat="47.07487" lon="6.8929">
        <ele>1244.34</ele>
        <time>2020-08-08T10:06:17.689Z</time>
      </trkpt>
      <trkpt lat="47.07499" lon="6.89225">
        <ele>1251.09</ele>
        <time>2020-08-08T10:06:52.901Z</time>
      </trkpt>
      <trkpt lat="47.07503" lon="6.89207">
        <ele>1252.82</ele>
        <time>2020-08-08T10:07:02.801Z</time>
      </trkpt>
      <trkpt lat="47.07517" lon="6.89161">
        <ele>1257.31</ele>
        <time>2020-08-08T10:07:28.196Z</time>
      </trkpt>
      <trkpt lat="47.0752" lon="6.89151">
        <ele>1259.06</ele>
        <time>2020-08-08T10:07:33.910Z</time>
      </trkpt>
      <trkpt lat="47.07525" lon="6.89128">
        <ele>1261.38</ele>
        <time>2020-08-08T10:07:46.533Z</time>
      </trkpt>
      <trkpt lat="47.07527" lon="6.89106">
        <ele>1263.31</ele>
        <time>2020-08-08T10:07:57.247Z</time>
      </trkpt>
      <trkpt lat="47.07527" lon="6.89095">
        <ele>1264.27</ele>
        <time>2020-08-08T10:08:02.590Z</time>
      </trkpt>
      <trkpt lat="47.07523" lon="6.89065">
        <ele>1267.39</ele>
        <time>2020-08-08T10:08:18.573Z</time>
      </trkpt>
      <trkpt lat="47.07521" lon="6.89047">
        <ele>1269.18</ele>
        <time>2020-08-08T10:08:28.109Z</time>
      </trkpt>
      <trkpt lat="47.07522" lon="6.8902">
        <ele>1271.68</ele>
        <time>2020-08-08T10:08:42.247Z</time>
      </trkpt>
      <trkpt lat="47.07522" lon="6.88978">
        <ele>1275.77</ele>
        <time>2020-08-08T10:09:04.207Z</time>
      </trkpt>
      <trkpt lat="47.07524" lon="6.8895">
        <ele>1278.51</ele>
        <time>2020-08-08T10:09:18.927Z</time>
      </trkpt>
      <trkpt lat="47.07527" lon="6.88916">
        <ele>1281.64</ele>
        <time>2020-08-08T10:09:36.852Z</time>
      </trkpt>
      <trkpt lat="47.07531" lon="6.88896">
        <ele>1283.73</ele>
        <time>2020-08-08T10:09:47.751Z</time>
      </trkpt>
      <trkpt lat="47.07535" lon="6.88877">
        <ele>1285.5</ele>
        <time>2020-08-08T10:09:57.752Z</time>
      </trkpt>
      <trkpt lat="47.07542" lon="6.88829">
        <ele>1289.86</ele>
        <time>2020-08-08T10:10:22.346Z</time>
      </trkpt>
      <trkpt lat="47.07544" lon="6.88813">
        <ele>1290.93</ele>
        <time>2020-08-08T10:10:27.895Z</time>
      </trkpt>
      <trkpt lat="47.07545" lon="6.88786">
        <ele>1294.14</ele>
        <time>2020-08-08T10:10:42.033Z</time>
      </trkpt>
      <trkpt lat="47.07545" lon="6.88764">
        <ele>1295.73</ele>
        <time>2020-08-08T10:10:50.280Z</time>
      </trkpt>
      <trkpt lat="47.07546" lon="6.88759">
        <ele>1295.73</ele>
        <time>2020-08-08T10:10:50.986Z</time>
      </trkpt>
      <trkpt lat="47.07546" lon="6.88723">
        <ele>1295.72</ele>
        <time>2020-08-08T10:10:55.836Z</time>
      </trkpt>
      <trkpt lat="47.07543" lon="6.88706">
        <ele>1295.84</ele>
        <time>2020-08-08T10:10:58.457Z</time>
      </trkpt>
      <trkpt lat="47.07532" lon="6.8864">
        <ele>1296.47</ele>
        <time>2020-08-08T10:11:08.980Z</time>
      </trkpt>
      <trkpt lat="47.07531" lon="6.88623">
        <ele>1296.5</ele>
        <time>2020-08-08T10:11:11.349Z</time>
      </trkpt>
      <trkpt lat="47.07533" lon="6.88587">
        <ele>1295.82</ele>
        <time>2020-08-08T10:11:14.355Z</time>
      </trkpt>
      <trkpt lat="47.07536" lon="6.88545">
        <ele>1295.16</ele>
        <time>2020-08-08T10:11:18.056Z</time>
      </trkpt>
      <trkpt lat="47.07537" lon="6.8853">
        <ele>1295.12</ele>
        <time>2020-08-08T10:11:19.984Z</time>
      </trkpt>
      <trkpt lat="47.07536" lon="6.88503">
        <ele>1294.94</ele>
        <time>2020-08-08T10:11:22.770Z</time>
      </trkpt>
      <trkpt lat="47.07535" lon="6.88479">
        <ele>1295.16</ele>
        <time>2020-08-08T10:11:26.486Z</time>
      </trkpt>
      <trkpt lat="47.07534" lon="6.88441">
        <ele>1295.28</ele>
        <time>2020-08-08T10:11:31.870Z</time>
      </trkpt>
      <trkpt lat="47.07534" lon="6.88396">
        <ele>1295.35</ele>
        <time>2020-08-08T10:11:38.100Z</time>
      </trkpt>
      <trkpt lat="47.07534" lon="6.88352">
        <ele>1295.41</ele>
        <time>2020-08-08T10:11:44.176Z</time>
      </trkpt>
      <trkpt lat="47.07536" lon="6.88282">
        <ele>1295.33</ele>
        <time>2020-08-08T10:11:53.435Z</time>
      </trkpt>
      <trkpt lat="47.07537" lon="6.88262">
        <ele>1295.33</ele>
        <time>2020-08-08T10:11:56.153Z</time>
      </trkpt>
      <trkpt lat="47.07545" lon="6.88189">
        <ele>1294.94</ele>
        <time>2020-08-08T10:12:03.983Z</time>
      </trkpt>
      <trkpt lat="47.07554" lon="6.88066">
        <ele>1293.81</ele>
        <time>2020-08-08T10:12:16.139Z</time>
      </trkpt>
      <trkpt lat="47.07555" lon="6.88027">
        <ele>1293.8</ele>
        <time>2020-08-08T10:12:21.399Z</time>
      </trkpt>
      <trkpt lat="47.07553" lon="6.87945">
        <ele>1293.35</ele>
        <time>2020-08-08T10:12:30.051Z</time>
      </trkpt>
      <trkpt lat="47.0755" lon="6.87894">
        <ele>1293.5</ele>
        <time>2020-08-08T10:12:37.274Z</time>
      </trkpt>
      <trkpt lat="47.07549" lon="6.87859">
        <ele>1293.67</ele>
        <time>2020-08-08T10:12:42.354Z</time>
      </trkpt>
      <trkpt lat="47.07549" lon="6.87837">
        <ele>1293.65</ele>
        <time>2020-08-08T10:12:45.277Z</time>
      </trkpt>
      <trkpt lat="47.07549" lon="6.8778">
        <ele>1294.36</ele>
        <time>2020-08-08T10:12:54.558Z</time>
      </trkpt>
      <trkpt lat="47.07549" lon="6.87717">
        <ele>1295.65</ele>
        <time>2020-08-08T10:13:06.344Z</time>
      </trkpt>
      <trkpt lat="47.07547" lon="6.87702">
        <ele>1295.88</ele>
        <time>2020-08-08T10:13:08.941Z</time>
      </trkpt>
      <trkpt lat="47.07545" lon="6.87662">
        <ele>1296.41</ele>
        <time>2020-08-08T10:13:15.553Z</time>
      </trkpt>
      <trkpt lat="47.07545" lon="6.87641">
        <ele>1296.6</ele>
        <time>2020-08-08T10:13:18.794Z</time>
      </trkpt>
      <trkpt lat="47.07543" lon="6.87614">
        <ele>1296.92</ele>
        <time>2020-08-08T10:13:23.169Z</time>
      </trkpt>
      <trkpt lat="47.07537" lon="6.87573">
        <ele>1297.64</ele>
        <time>2020-08-08T10:13:30.560Z</time>
      </trkpt>
      <trkpt lat="47.07534" lon="6.87555">
        <ele>1297.63</ele>
        <time>2020-08-08T10:13:33.042Z</time>
      </trkpt>
      <trkpt lat="47.07526" lon="6.87512">
        <ele>1298</ele>
        <time>2020-08-08T10:13:39.844Z</time>
      </trkpt>
      <trkpt lat="47.07522" lon="6.87494">
        <ele>1298.11</ele>
        <time>2020-08-08T10:13:42.628Z</time>
      </trkpt>
      <trkpt lat="47.07507" lon="6.87448">
        <ele>1298.16</ele>
        <time>2020-08-08T10:13:49.634Z</time>
      </trkpt>
      <trkpt lat="47.07499" lon="6.87428">
        <ele>1297.71</ele>
        <time>2020-08-08T10:13:51.547Z</time>
      </trkpt>
      <trkpt lat="47.07478" lon="6.874">
        <ele>1296.9</ele>
        <time>2020-08-08T10:13:54.979Z</time>
      </trkpt>
      <trkpt lat="47.07467" lon="6.87384">
        <ele>1296.15</ele>
        <time>2020-08-08T10:13:56.525Z</time>
      </trkpt>
      <trkpt lat="47.07462" lon="6.87374">
        <ele>1295.76</ele>
        <time>2020-08-08T10:13:57.385Z</time>
      </trkpt>
      <trkpt lat="47.07454" lon="6.87357">
        <ele>1295.08</ele>
        <time>2020-08-08T10:13:58.792Z</time>
      </trkpt>
      <trkpt lat="47.07445" lon="6.87345">
        <ele>1294.37</ele>
        <time>2020-08-08T10:13:59.908Z</time>
      </trkpt>
      <trkpt lat="47.07408" lon="6.87305">
        <ele>1291.79</ele>
        <time>2020-08-08T10:14:04.204Z</time>
      </trkpt>
      <trkpt lat="47.07374" lon="6.87275">
        <ele>1289.89</ele>
        <time>2020-08-08T10:14:08.183Z</time>
      </trkpt>
      <trkpt lat="47.0726" lon="6.87057">
        <ele>1283</ele>
        <time>2020-08-08T10:14:29.001Z</time>
      </trkpt>
      <trkpt lat="47.07297" lon="6.87361">
        <ele>1267.6</ele>
        <time>2020-08-08T10:14:48.756Z</time>
      </trkpt>
      <trkpt lat="47.07298" lon="6.87379">
        <ele>1267</ele>
        <time>2020-08-08T10:14:49.980Z</time>
      </trkpt>
      <trkpt lat="47.07282" lon="6.87403">
        <ele>1265</ele>
        <time>2020-08-08T10:14:52.129Z</time>
      </trkpt>
      <trkpt lat="47.07285" lon="6.87442">
        <ele>1261.5</ele>
        <time>2020-08-08T10:14:54.639Z</time>
      </trkpt>
    </trkseg>
  </trk>
</gpx>